<?xml version="1.0" encoding="UTF-8" standalone="no" ?>
<gpx xmlns="http://www.topografix.com/GPX/1/1" xmlns:xsi="http://www.w3.org/2001/XMLSchema-instance" xsi:schemaLocation="http://www.topografix.com/GPX/1/1 http://www.topografix.com/GPX/1/1/gpx.xsd" version="1.1" creator="VisuGPX - https://www.visugpx.com">
  <metadata>
    <name>83 - M - SIGNES</name>
    <desc><![CDATA[SIGNES - Siou Blanc, le Grand Cap, Tourris Nord]]></desc>
  </metadata>
  <wpt lat="43.22661" lon="5.92071">
    <ele>676</ele>
    <name><![CDATA[Point de passage 1]]></name>
    <type><![CDATA[GENERIC]]></type>
  </wpt>
  <wpt lat="43.22654" lon="5.92095">
    <ele>674</ele>
    <name><![CDATA[Point de passage 2]]></name>
    <type><![CDATA[GENERIC]]></type>
  </wpt>
  <trk>
    <name><![CDATA[Siou blanc mercredi ]]></name>
    <trkseg>
      <trkpt lat="43.22661" lon="5.92071">
        <ele>676</ele>
        <time>2026-01-28T08:47:45.000Z</time>
      </trkpt>
      <trkpt lat="43.2266" lon="5.92074">
        <ele>675</ele>
        <time>2026-01-28T08:47:48.000Z</time>
      </trkpt>
      <trkpt lat="43.22658" lon="5.92086">
        <ele>677</ele>
        <time>2026-01-28T08:49:18.000Z</time>
      </trkpt>
      <trkpt lat="43.2266" lon="5.92099">
        <ele>676</ele>
        <time>2026-01-28T08:49:27.000Z</time>
      </trkpt>
      <trkpt lat="43.22667" lon="5.92106">
        <ele>674</ele>
        <time>2026-01-28T08:49:36.000Z</time>
      </trkpt>
      <trkpt lat="43.22678" lon="5.92108">
        <ele>674</ele>
        <time>2026-01-28T08:49:48.000Z</time>
      </trkpt>
      <trkpt lat="43.22688" lon="5.92111">
        <ele>674</ele>
        <time>2026-01-28T08:49:57.000Z</time>
      </trkpt>
      <trkpt lat="43.227" lon="5.92111">
        <ele>674</ele>
        <time>2026-01-28T08:50:06.000Z</time>
      </trkpt>
      <trkpt lat="43.22709" lon="5.92105">
        <ele>674</ele>
        <time>2026-01-28T08:50:15.000Z</time>
      </trkpt>
      <trkpt lat="43.22717" lon="5.92099">
        <ele>674</ele>
        <time>2026-01-28T08:50:30.000Z</time>
      </trkpt>
      <trkpt lat="43.22727" lon="5.92098">
        <ele>674</ele>
        <time>2026-01-28T08:51:19.000Z</time>
      </trkpt>
      <trkpt lat="43.22736" lon="5.921">
        <ele>674</ele>
        <time>2026-01-28T08:51:28.000Z</time>
      </trkpt>
      <trkpt lat="43.22746" lon="5.92105">
        <ele>674</ele>
        <time>2026-01-28T08:51:40.000Z</time>
      </trkpt>
      <trkpt lat="43.22755" lon="5.92109">
        <ele>674</ele>
        <time>2026-01-28T08:51:49.000Z</time>
      </trkpt>
      <trkpt lat="43.22765" lon="5.9211">
        <ele>674</ele>
        <time>2026-01-28T08:52:07.000Z</time>
      </trkpt>
      <trkpt lat="43.22774" lon="5.92107">
        <ele>674</ele>
        <time>2026-01-28T08:52:13.000Z</time>
      </trkpt>
      <trkpt lat="43.22783" lon="5.92103">
        <ele>674</ele>
        <time>2026-01-28T08:52:40.000Z</time>
      </trkpt>
      <trkpt lat="43.22793" lon="5.92101">
        <ele>674</ele>
        <time>2026-01-28T08:52:49.000Z</time>
      </trkpt>
      <trkpt lat="43.22803" lon="5.92097">
        <ele>674</ele>
        <time>2026-01-28T08:53:01.000Z</time>
      </trkpt>
      <trkpt lat="43.22814" lon="5.92094">
        <ele>673</ele>
        <time>2026-01-28T08:53:10.000Z</time>
      </trkpt>
      <trkpt lat="43.22824" lon="5.92091">
        <ele>673</ele>
        <time>2026-01-28T08:53:19.000Z</time>
      </trkpt>
      <trkpt lat="43.22834" lon="5.92089">
        <ele>672</ele>
        <time>2026-01-28T08:53:25.000Z</time>
      </trkpt>
      <trkpt lat="43.22844" lon="5.9209">
        <ele>671</ele>
        <time>2026-01-28T08:53:31.000Z</time>
      </trkpt>
      <trkpt lat="43.22856" lon="5.92088">
        <ele>670</ele>
        <time>2026-01-28T08:53:40.000Z</time>
      </trkpt>
      <trkpt lat="43.22867" lon="5.92089">
        <ele>670</ele>
        <time>2026-01-28T08:53:49.000Z</time>
      </trkpt>
      <trkpt lat="43.22877" lon="5.92093">
        <ele>670</ele>
        <time>2026-01-28T08:53:58.000Z</time>
      </trkpt>
      <trkpt lat="43.22879" lon="5.92102">
        <ele>670</ele>
        <time>2026-01-28T08:54:13.000Z</time>
      </trkpt>
      <trkpt lat="43.22885" lon="5.92097">
        <ele>671</ele>
        <time>2026-01-28T08:54:37.000Z</time>
      </trkpt>
      <trkpt lat="43.22894" lon="5.92098">
        <ele>672</ele>
        <time>2026-01-28T08:54:55.000Z</time>
      </trkpt>
      <trkpt lat="43.22904" lon="5.92099">
        <ele>672</ele>
        <time>2026-01-28T08:55:04.000Z</time>
      </trkpt>
      <trkpt lat="43.22915" lon="5.92101">
        <ele>672</ele>
        <time>2026-01-28T08:55:16.000Z</time>
      </trkpt>
      <trkpt lat="43.22926" lon="5.92104">
        <ele>673</ele>
        <time>2026-01-28T08:55:25.000Z</time>
      </trkpt>
      <trkpt lat="43.22936" lon="5.92106">
        <ele>673</ele>
        <time>2026-01-28T08:55:34.000Z</time>
      </trkpt>
      <trkpt lat="43.22945" lon="5.92112">
        <ele>673</ele>
        <time>2026-01-28T08:55:43.000Z</time>
      </trkpt>
      <trkpt lat="43.22954" lon="5.92119">
        <ele>672</ele>
        <time>2026-01-28T08:55:52.000Z</time>
      </trkpt>
      <trkpt lat="43.22963" lon="5.92126">
        <ele>671</ele>
        <time>2026-01-28T08:56:01.000Z</time>
      </trkpt>
      <trkpt lat="43.22972" lon="5.92136">
        <ele>670</ele>
        <time>2026-01-28T08:56:10.000Z</time>
      </trkpt>
      <trkpt lat="43.22979" lon="5.92145">
        <ele>669</ele>
        <time>2026-01-28T08:56:19.000Z</time>
      </trkpt>
      <trkpt lat="43.22988" lon="5.92152">
        <ele>669</ele>
        <time>2026-01-28T08:56:28.000Z</time>
      </trkpt>
      <trkpt lat="43.22998" lon="5.92152">
        <ele>668</ele>
        <time>2026-01-28T08:56:37.000Z</time>
      </trkpt>
      <trkpt lat="43.23008" lon="5.92148">
        <ele>668</ele>
        <time>2026-01-28T08:56:46.000Z</time>
      </trkpt>
      <trkpt lat="43.23018" lon="5.92141">
        <ele>668</ele>
        <time>2026-01-28T08:56:55.000Z</time>
      </trkpt>
      <trkpt lat="43.23025" lon="5.92133">
        <ele>668</ele>
        <time>2026-01-28T08:57:01.000Z</time>
      </trkpt>
      <trkpt lat="43.23032" lon="5.92125">
        <ele>668</ele>
        <time>2026-01-28T08:57:07.000Z</time>
      </trkpt>
      <trkpt lat="43.23042" lon="5.92117">
        <ele>668</ele>
        <time>2026-01-28T08:57:19.000Z</time>
      </trkpt>
      <trkpt lat="43.23052" lon="5.92112">
        <ele>668</ele>
        <time>2026-01-28T08:57:25.000Z</time>
      </trkpt>
      <trkpt lat="43.23063" lon="5.92106">
        <ele>667</ele>
        <time>2026-01-28T08:57:34.000Z</time>
      </trkpt>
      <trkpt lat="43.23074" lon="5.92103">
        <ele>667</ele>
        <time>2026-01-28T08:57:43.000Z</time>
      </trkpt>
      <trkpt lat="43.23084" lon="5.92104">
        <ele>666</ele>
        <time>2026-01-28T08:57:52.000Z</time>
      </trkpt>
      <trkpt lat="43.23095" lon="5.92106">
        <ele>666</ele>
        <time>2026-01-28T08:58:01.000Z</time>
      </trkpt>
      <trkpt lat="43.23107" lon="5.92108">
        <ele>665</ele>
        <time>2026-01-28T08:58:10.000Z</time>
      </trkpt>
      <trkpt lat="43.2312" lon="5.9211">
        <ele>665</ele>
        <time>2026-01-28T08:58:19.000Z</time>
      </trkpt>
      <trkpt lat="43.23131" lon="5.9211">
        <ele>665</ele>
        <time>2026-01-28T08:58:28.000Z</time>
      </trkpt>
      <trkpt lat="43.23142" lon="5.92106">
        <ele>664</ele>
        <time>2026-01-28T08:58:37.000Z</time>
      </trkpt>
      <trkpt lat="43.23152" lon="5.921">
        <ele>664</ele>
        <time>2026-01-28T08:58:46.000Z</time>
      </trkpt>
      <trkpt lat="43.23163" lon="5.92097">
        <ele>664</ele>
        <time>2026-01-28T08:58:55.000Z</time>
      </trkpt>
      <trkpt lat="43.23173" lon="5.92101">
        <ele>664</ele>
        <time>2026-01-28T08:59:04.000Z</time>
      </trkpt>
      <trkpt lat="43.23185" lon="5.92106">
        <ele>664</ele>
        <time>2026-01-28T08:59:13.000Z</time>
      </trkpt>
      <trkpt lat="43.23197" lon="5.92107">
        <ele>664</ele>
        <time>2026-01-28T08:59:22.000Z</time>
      </trkpt>
      <trkpt lat="43.23208" lon="5.92105">
        <ele>664</ele>
        <time>2026-01-28T08:59:31.000Z</time>
      </trkpt>
      <trkpt lat="43.23218" lon="5.92101">
        <ele>664</ele>
        <time>2026-01-28T08:59:40.000Z</time>
      </trkpt>
      <trkpt lat="43.23227" lon="5.921">
        <ele>663</ele>
        <time>2026-01-28T08:59:49.000Z</time>
      </trkpt>
      <trkpt lat="43.23238" lon="5.921">
        <ele>663</ele>
        <time>2026-01-28T08:59:58.000Z</time>
      </trkpt>
      <trkpt lat="43.23249" lon="5.92098">
        <ele>663</ele>
        <time>2026-01-28T09:00:07.000Z</time>
      </trkpt>
      <trkpt lat="43.23258" lon="5.92096">
        <ele>663</ele>
        <time>2026-01-28T09:00:16.000Z</time>
      </trkpt>
      <trkpt lat="43.23267" lon="5.92098">
        <ele>663</ele>
        <time>2026-01-28T09:00:22.000Z</time>
      </trkpt>
      <trkpt lat="43.23276" lon="5.92099">
        <ele>662</ele>
        <time>2026-01-28T09:00:28.000Z</time>
      </trkpt>
      <trkpt lat="43.23287" lon="5.92103">
        <ele>662</ele>
        <time>2026-01-28T09:00:37.000Z</time>
      </trkpt>
      <trkpt lat="43.23298" lon="5.9211">
        <ele>661</ele>
        <time>2026-01-28T09:00:46.000Z</time>
      </trkpt>
      <trkpt lat="43.23307" lon="5.92119">
        <ele>660</ele>
        <time>2026-01-28T09:00:55.000Z</time>
      </trkpt>
      <trkpt lat="43.23316" lon="5.92126">
        <ele>660</ele>
        <time>2026-01-28T09:01:04.000Z</time>
      </trkpt>
      <trkpt lat="43.23325" lon="5.92127">
        <ele>660</ele>
        <time>2026-01-28T09:01:10.000Z</time>
      </trkpt>
      <trkpt lat="43.23337" lon="5.92122">
        <ele>660</ele>
        <time>2026-01-28T09:01:19.000Z</time>
      </trkpt>
      <trkpt lat="43.23348" lon="5.9212">
        <ele>660</ele>
        <time>2026-01-28T09:01:28.000Z</time>
      </trkpt>
      <trkpt lat="43.23358" lon="5.9212">
        <ele>659</ele>
        <time>2026-01-28T09:01:34.000Z</time>
      </trkpt>
      <trkpt lat="43.23368" lon="5.92124">
        <ele>659</ele>
        <time>2026-01-28T09:01:43.000Z</time>
      </trkpt>
      <trkpt lat="43.23377" lon="5.9213">
        <ele>658</ele>
        <time>2026-01-28T09:01:52.000Z</time>
      </trkpt>
      <trkpt lat="43.23387" lon="5.92136">
        <ele>658</ele>
        <time>2026-01-28T09:02:01.000Z</time>
      </trkpt>
      <trkpt lat="43.23397" lon="5.92141">
        <ele>657</ele>
        <time>2026-01-28T09:02:10.000Z</time>
      </trkpt>
      <trkpt lat="43.23406" lon="5.92146">
        <ele>656</ele>
        <time>2026-01-28T09:02:19.000Z</time>
      </trkpt>
      <trkpt lat="43.23414" lon="5.92155">
        <ele>656</ele>
        <time>2026-01-28T09:02:28.000Z</time>
      </trkpt>
      <trkpt lat="43.23418" lon="5.92168">
        <ele>655</ele>
        <time>2026-01-28T09:02:37.000Z</time>
      </trkpt>
      <trkpt lat="43.23418" lon="5.92182">
        <ele>655</ele>
        <time>2026-01-28T09:02:46.000Z</time>
      </trkpt>
      <trkpt lat="43.23419" lon="5.92197">
        <ele>655</ele>
        <time>2026-01-28T09:02:55.000Z</time>
      </trkpt>
      <trkpt lat="43.23424" lon="5.9221">
        <ele>654</ele>
        <time>2026-01-28T09:03:04.000Z</time>
      </trkpt>
      <trkpt lat="43.23431" lon="5.9222">
        <ele>654</ele>
        <time>2026-01-28T09:03:13.000Z</time>
      </trkpt>
      <trkpt lat="43.23439" lon="5.92229">
        <ele>654</ele>
        <time>2026-01-28T09:03:25.000Z</time>
      </trkpt>
      <trkpt lat="43.23448" lon="5.92238">
        <ele>653</ele>
        <time>2026-01-28T09:04:10.000Z</time>
      </trkpt>
      <trkpt lat="43.23459" lon="5.92245">
        <ele>653</ele>
        <time>2026-01-28T09:04:19.000Z</time>
      </trkpt>
      <trkpt lat="43.23468" lon="5.92249">
        <ele>653</ele>
        <time>2026-01-28T09:04:25.000Z</time>
      </trkpt>
      <trkpt lat="43.23479" lon="5.92245">
        <ele>653</ele>
        <time>2026-01-28T09:04:34.000Z</time>
      </trkpt>
      <trkpt lat="43.23488" lon="5.92242">
        <ele>653</ele>
        <time>2026-01-28T09:04:40.000Z</time>
      </trkpt>
      <trkpt lat="43.23498" lon="5.9224">
        <ele>653</ele>
        <time>2026-01-28T09:04:46.000Z</time>
      </trkpt>
      <trkpt lat="43.23509" lon="5.9224">
        <ele>652</ele>
        <time>2026-01-28T09:04:55.000Z</time>
      </trkpt>
      <trkpt lat="43.23518" lon="5.92244">
        <ele>652</ele>
        <time>2026-01-28T09:05:01.000Z</time>
      </trkpt>
      <trkpt lat="43.23527" lon="5.9225">
        <ele>651</ele>
        <time>2026-01-28T09:05:13.000Z</time>
      </trkpt>
      <trkpt lat="43.23532" lon="5.92255">
        <ele>651</ele>
        <time>2026-01-28T09:05:22.000Z</time>
      </trkpt>
      <trkpt lat="43.23534" lon="5.92245">
        <ele>651</ele>
        <time>2026-01-28T09:05:55.000Z</time>
      </trkpt>
      <trkpt lat="43.23538" lon="5.92236">
        <ele>650</ele>
        <time>2026-01-28T09:06:07.000Z</time>
      </trkpt>
      <trkpt lat="43.23536" lon="5.92246">
        <ele>650</ele>
        <time>2026-01-28T09:07:31.000Z</time>
      </trkpt>
      <trkpt lat="43.23535" lon="5.92258">
        <ele>650</ele>
        <time>2026-01-28T09:07:43.000Z</time>
      </trkpt>
      <trkpt lat="43.2354" lon="5.92269">
        <ele>649</ele>
        <time>2026-01-28T09:07:58.000Z</time>
      </trkpt>
      <trkpt lat="43.23542" lon="5.92281">
        <ele>649</ele>
        <time>2026-01-28T09:08:07.000Z</time>
      </trkpt>
      <trkpt lat="43.23541" lon="5.92294">
        <ele>648</ele>
        <time>2026-01-28T09:08:13.000Z</time>
      </trkpt>
      <trkpt lat="43.23539" lon="5.92306">
        <ele>648</ele>
        <time>2026-01-28T09:08:19.000Z</time>
      </trkpt>
      <trkpt lat="43.23534" lon="5.9232">
        <ele>648</ele>
        <time>2026-01-28T09:08:28.000Z</time>
      </trkpt>
      <trkpt lat="43.23528" lon="5.92334">
        <ele>648</ele>
        <time>2026-01-28T09:08:37.000Z</time>
      </trkpt>
      <trkpt lat="43.23522" lon="5.92345">
        <ele>648</ele>
        <time>2026-01-28T09:08:43.000Z</time>
      </trkpt>
      <trkpt lat="43.23517" lon="5.92356">
        <ele>648</ele>
        <time>2026-01-28T09:08:49.000Z</time>
      </trkpt>
      <trkpt lat="43.23512" lon="5.9237">
        <ele>648</ele>
        <time>2026-01-28T09:08:58.000Z</time>
      </trkpt>
      <trkpt lat="43.23509" lon="5.92382">
        <ele>648</ele>
        <time>2026-01-28T09:09:04.000Z</time>
      </trkpt>
      <trkpt lat="43.23505" lon="5.92394">
        <ele>647</ele>
        <time>2026-01-28T09:09:10.000Z</time>
      </trkpt>
      <trkpt lat="43.23499" lon="5.92404">
        <ele>647</ele>
        <time>2026-01-28T09:09:16.000Z</time>
      </trkpt>
      <trkpt lat="43.23495" lon="5.92417">
        <ele>647</ele>
        <time>2026-01-28T09:09:25.000Z</time>
      </trkpt>
      <trkpt lat="43.23493" lon="5.9243">
        <ele>647</ele>
        <time>2026-01-28T09:09:31.000Z</time>
      </trkpt>
      <trkpt lat="43.2349" lon="5.92445">
        <ele>647</ele>
        <time>2026-01-28T09:09:40.000Z</time>
      </trkpt>
      <trkpt lat="43.23488" lon="5.92458">
        <ele>647</ele>
        <time>2026-01-28T09:09:46.000Z</time>
      </trkpt>
      <trkpt lat="43.23488" lon="5.92472">
        <ele>647</ele>
        <time>2026-01-28T09:09:55.000Z</time>
      </trkpt>
      <trkpt lat="43.23495" lon="5.92485">
        <ele>647</ele>
        <time>2026-01-28T09:10:04.000Z</time>
      </trkpt>
      <trkpt lat="43.23502" lon="5.92493">
        <ele>647</ele>
        <time>2026-01-28T09:10:10.000Z</time>
      </trkpt>
      <trkpt lat="43.23513" lon="5.92499">
        <ele>647</ele>
        <time>2026-01-28T09:10:19.000Z</time>
      </trkpt>
      <trkpt lat="43.2352" lon="5.92508">
        <ele>647</ele>
        <time>2026-01-28T09:10:28.000Z</time>
      </trkpt>
      <trkpt lat="43.23523" lon="5.9252">
        <ele>647</ele>
        <time>2026-01-28T09:10:34.000Z</time>
      </trkpt>
      <trkpt lat="43.23524" lon="5.92534">
        <ele>647</ele>
        <time>2026-01-28T09:10:40.000Z</time>
      </trkpt>
      <trkpt lat="43.23527" lon="5.92548">
        <ele>646</ele>
        <time>2026-01-28T09:10:49.000Z</time>
      </trkpt>
      <trkpt lat="43.23531" lon="5.92562">
        <ele>646</ele>
        <time>2026-01-28T09:10:58.000Z</time>
      </trkpt>
      <trkpt lat="43.23535" lon="5.92576">
        <ele>646</ele>
        <time>2026-01-28T09:11:13.000Z</time>
      </trkpt>
      <trkpt lat="43.23536" lon="5.92588">
        <ele>646</ele>
        <time>2026-01-28T09:11:58.000Z</time>
      </trkpt>
      <trkpt lat="43.2354" lon="5.92602">
        <ele>647</ele>
        <time>2026-01-28T09:12:10.000Z</time>
      </trkpt>
      <trkpt lat="43.2354" lon="5.92617">
        <ele>647</ele>
        <time>2026-01-28T09:12:19.000Z</time>
      </trkpt>
      <trkpt lat="43.23541" lon="5.92632">
        <ele>648</ele>
        <time>2026-01-28T09:12:28.000Z</time>
      </trkpt>
      <trkpt lat="43.23545" lon="5.92646">
        <ele>648</ele>
        <time>2026-01-28T09:12:37.000Z</time>
      </trkpt>
      <trkpt lat="43.23548" lon="5.92662">
        <ele>648</ele>
        <time>2026-01-28T09:12:46.000Z</time>
      </trkpt>
      <trkpt lat="43.23551" lon="5.92677">
        <ele>648</ele>
        <time>2026-01-28T09:12:55.000Z</time>
      </trkpt>
      <trkpt lat="43.23556" lon="5.9269">
        <ele>647</ele>
        <time>2026-01-28T09:13:04.000Z</time>
      </trkpt>
      <trkpt lat="43.23564" lon="5.92699">
        <ele>646</ele>
        <time>2026-01-28T09:13:13.000Z</time>
      </trkpt>
      <trkpt lat="43.23571" lon="5.92707">
        <ele>644</ele>
        <time>2026-01-28T09:13:22.000Z</time>
      </trkpt>
      <trkpt lat="43.23571" lon="5.9272">
        <ele>643</ele>
        <time>2026-01-28T09:13:34.000Z</time>
      </trkpt>
      <trkpt lat="43.23563" lon="5.92729">
        <ele>642</ele>
        <time>2026-01-28T09:13:43.000Z</time>
      </trkpt>
      <trkpt lat="43.23556" lon="5.9274">
        <ele>641</ele>
        <time>2026-01-28T09:13:52.000Z</time>
      </trkpt>
      <trkpt lat="43.23548" lon="5.92751">
        <ele>641</ele>
        <time>2026-01-28T09:14:01.000Z</time>
      </trkpt>
      <trkpt lat="43.23541" lon="5.9276">
        <ele>641</ele>
        <time>2026-01-28T09:14:10.000Z</time>
      </trkpt>
      <trkpt lat="43.23536" lon="5.9277">
        <ele>641</ele>
        <time>2026-01-28T09:14:19.000Z</time>
      </trkpt>
      <trkpt lat="43.2353" lon="5.92782">
        <ele>641</ele>
        <time>2026-01-28T09:14:28.000Z</time>
      </trkpt>
      <trkpt lat="43.23523" lon="5.92795">
        <ele>641</ele>
        <time>2026-01-28T09:14:37.000Z</time>
      </trkpt>
      <trkpt lat="43.23517" lon="5.92809">
        <ele>642</ele>
        <time>2026-01-28T09:14:46.000Z</time>
      </trkpt>
      <trkpt lat="43.23511" lon="5.9282">
        <ele>642</ele>
        <time>2026-01-28T09:14:55.000Z</time>
      </trkpt>
      <trkpt lat="43.23504" lon="5.92833">
        <ele>642</ele>
        <time>2026-01-28T09:15:04.000Z</time>
      </trkpt>
      <trkpt lat="43.23498" lon="5.92845">
        <ele>642</ele>
        <time>2026-01-28T09:15:13.000Z</time>
      </trkpt>
      <trkpt lat="43.2349" lon="5.92856">
        <ele>642</ele>
        <time>2026-01-28T09:15:22.000Z</time>
      </trkpt>
      <trkpt lat="43.23481" lon="5.92866">
        <ele>642</ele>
        <time>2026-01-28T09:15:31.000Z</time>
      </trkpt>
      <trkpt lat="43.23474" lon="5.92874">
        <ele>642</ele>
        <time>2026-01-28T09:15:40.000Z</time>
      </trkpt>
      <trkpt lat="43.23471" lon="5.92885">
        <ele>643</ele>
        <time>2026-01-28T09:15:52.000Z</time>
      </trkpt>
      <trkpt lat="43.23473" lon="5.92899">
        <ele>644</ele>
        <time>2026-01-28T09:16:43.000Z</time>
      </trkpt>
      <trkpt lat="43.23478" lon="5.9291">
        <ele>645</ele>
        <time>2026-01-28T09:16:52.000Z</time>
      </trkpt>
      <trkpt lat="43.23484" lon="5.92922">
        <ele>645</ele>
        <time>2026-01-28T09:17:01.000Z</time>
      </trkpt>
      <trkpt lat="43.23489" lon="5.92934">
        <ele>646</ele>
        <time>2026-01-28T09:17:13.000Z</time>
      </trkpt>
      <trkpt lat="43.23495" lon="5.92945">
        <ele>646</ele>
        <time>2026-01-28T09:17:22.000Z</time>
      </trkpt>
      <trkpt lat="43.23502" lon="5.92953">
        <ele>646</ele>
        <time>2026-01-28T09:17:31.000Z</time>
      </trkpt>
      <trkpt lat="43.23511" lon="5.9296">
        <ele>647</ele>
        <time>2026-01-28T09:17:40.000Z</time>
      </trkpt>
      <trkpt lat="43.2352" lon="5.92964">
        <ele>648</ele>
        <time>2026-01-28T09:17:49.000Z</time>
      </trkpt>
      <trkpt lat="43.23529" lon="5.92966">
        <ele>648</ele>
        <time>2026-01-28T09:17:55.000Z</time>
      </trkpt>
      <trkpt lat="43.23538" lon="5.92968">
        <ele>649</ele>
        <time>2026-01-28T09:18:01.000Z</time>
      </trkpt>
      <trkpt lat="43.23548" lon="5.92973">
        <ele>649</ele>
        <time>2026-01-28T09:18:10.000Z</time>
      </trkpt>
      <trkpt lat="43.23557" lon="5.92978">
        <ele>649</ele>
        <time>2026-01-28T09:18:16.000Z</time>
      </trkpt>
      <trkpt lat="43.23566" lon="5.92987">
        <ele>649</ele>
        <time>2026-01-28T09:18:25.000Z</time>
      </trkpt>
      <trkpt lat="43.23575" lon="5.92996">
        <ele>649</ele>
        <time>2026-01-28T09:18:34.000Z</time>
      </trkpt>
      <trkpt lat="43.23583" lon="5.93008">
        <ele>649</ele>
        <time>2026-01-28T09:18:43.000Z</time>
      </trkpt>
      <trkpt lat="43.23591" lon="5.93017">
        <ele>650</ele>
        <time>2026-01-28T09:18:52.000Z</time>
      </trkpt>
      <trkpt lat="43.23599" lon="5.93024">
        <ele>650</ele>
        <time>2026-01-28T09:18:58.000Z</time>
      </trkpt>
      <trkpt lat="43.23608" lon="5.93033">
        <ele>651</ele>
        <time>2026-01-28T09:19:07.000Z</time>
      </trkpt>
      <trkpt lat="43.23617" lon="5.93041">
        <ele>652</ele>
        <time>2026-01-28T09:19:16.000Z</time>
      </trkpt>
      <trkpt lat="43.23625" lon="5.93053">
        <ele>652</ele>
        <time>2026-01-28T09:19:25.000Z</time>
      </trkpt>
      <trkpt lat="43.23631" lon="5.93065">
        <ele>653</ele>
        <time>2026-01-28T09:19:34.000Z</time>
      </trkpt>
      <trkpt lat="43.23638" lon="5.93078">
        <ele>654</ele>
        <time>2026-01-28T09:19:43.000Z</time>
      </trkpt>
      <trkpt lat="43.23646" lon="5.93088">
        <ele>656</ele>
        <time>2026-01-28T09:19:52.000Z</time>
      </trkpt>
      <trkpt lat="43.23654" lon="5.93098">
        <ele>657</ele>
        <time>2026-01-28T09:20:01.000Z</time>
      </trkpt>
      <trkpt lat="43.23664" lon="5.93106">
        <ele>658</ele>
        <time>2026-01-28T09:20:10.000Z</time>
      </trkpt>
      <trkpt lat="43.23674" lon="5.93112">
        <ele>659</ele>
        <time>2026-01-28T09:20:22.000Z</time>
      </trkpt>
      <trkpt lat="43.23682" lon="5.93121">
        <ele>660</ele>
        <time>2026-01-28T09:20:31.000Z</time>
      </trkpt>
      <trkpt lat="43.23688" lon="5.93129">
        <ele>660</ele>
        <time>2026-01-28T09:20:37.000Z</time>
      </trkpt>
      <trkpt lat="43.23694" lon="5.9314">
        <ele>661</ele>
        <time>2026-01-28T09:20:46.000Z</time>
      </trkpt>
      <trkpt lat="43.23699" lon="5.93151">
        <ele>661</ele>
        <time>2026-01-28T09:20:55.000Z</time>
      </trkpt>
      <trkpt lat="43.23703" lon="5.93165">
        <ele>661</ele>
        <time>2026-01-28T09:21:04.000Z</time>
      </trkpt>
      <trkpt lat="43.23708" lon="5.9318">
        <ele>660</ele>
        <time>2026-01-28T09:21:13.000Z</time>
      </trkpt>
      <trkpt lat="43.23712" lon="5.93192">
        <ele>660</ele>
        <time>2026-01-28T09:21:25.000Z</time>
      </trkpt>
      <trkpt lat="43.23715" lon="5.93205">
        <ele>660</ele>
        <time>2026-01-28T09:21:34.000Z</time>
      </trkpt>
      <trkpt lat="43.23719" lon="5.93219">
        <ele>660</ele>
        <time>2026-01-28T09:21:43.000Z</time>
      </trkpt>
      <trkpt lat="43.23724" lon="5.93234">
        <ele>659</ele>
        <time>2026-01-28T09:21:52.000Z</time>
      </trkpt>
      <trkpt lat="43.23729" lon="5.93246">
        <ele>659</ele>
        <time>2026-01-28T09:22:01.000Z</time>
      </trkpt>
      <trkpt lat="43.23734" lon="5.93257">
        <ele>659</ele>
        <time>2026-01-28T09:22:10.000Z</time>
      </trkpt>
      <trkpt lat="43.23737" lon="5.9327">
        <ele>658</ele>
        <time>2026-01-28T09:22:22.000Z</time>
      </trkpt>
      <trkpt lat="43.23738" lon="5.93285">
        <ele>658</ele>
        <time>2026-01-28T09:22:31.000Z</time>
      </trkpt>
      <trkpt lat="43.23737" lon="5.93299">
        <ele>658</ele>
        <time>2026-01-28T09:22:40.000Z</time>
      </trkpt>
      <trkpt lat="43.23734" lon="5.93313">
        <ele>658</ele>
        <time>2026-01-28T09:22:49.000Z</time>
      </trkpt>
      <trkpt lat="43.23733" lon="5.93328">
        <ele>658</ele>
        <time>2026-01-28T09:22:58.000Z</time>
      </trkpt>
      <trkpt lat="43.23736" lon="5.93343">
        <ele>659</ele>
        <time>2026-01-28T09:23:07.000Z</time>
      </trkpt>
      <trkpt lat="43.23738" lon="5.93357">
        <ele>660</ele>
        <time>2026-01-28T09:23:16.000Z</time>
      </trkpt>
      <trkpt lat="43.2374" lon="5.9337">
        <ele>661</ele>
        <time>2026-01-28T09:26:15.000Z</time>
      </trkpt>
      <trkpt lat="43.23741" lon="5.93385">
        <ele>662</ele>
        <time>2026-01-28T09:27:12.000Z</time>
      </trkpt>
      <trkpt lat="43.2374" lon="5.93399">
        <ele>662</ele>
        <time>2026-01-28T09:27:21.000Z</time>
      </trkpt>
      <trkpt lat="43.23735" lon="5.93412">
        <ele>662</ele>
        <time>2026-01-28T09:27:30.000Z</time>
      </trkpt>
      <trkpt lat="43.2373" lon="5.93424">
        <ele>662</ele>
        <time>2026-01-28T09:27:42.000Z</time>
      </trkpt>
      <trkpt lat="43.23726" lon="5.93437">
        <ele>662</ele>
        <time>2026-01-28T09:28:15.000Z</time>
      </trkpt>
      <trkpt lat="43.23717" lon="5.93448">
        <ele>663</ele>
        <time>2026-01-28T09:28:24.000Z</time>
      </trkpt>
      <trkpt lat="43.23709" lon="5.93458">
        <ele>663</ele>
        <time>2026-01-28T09:28:33.000Z</time>
      </trkpt>
      <trkpt lat="43.23703" lon="5.93471">
        <ele>663</ele>
        <time>2026-01-28T09:28:42.000Z</time>
      </trkpt>
      <trkpt lat="43.23698" lon="5.93485">
        <ele>664</ele>
        <time>2026-01-28T09:28:51.000Z</time>
      </trkpt>
      <trkpt lat="43.23694" lon="5.93499">
        <ele>664</ele>
        <time>2026-01-28T09:29:00.000Z</time>
      </trkpt>
      <trkpt lat="43.23688" lon="5.93511">
        <ele>665</ele>
        <time>2026-01-28T09:29:09.000Z</time>
      </trkpt>
      <trkpt lat="43.2368" lon="5.93524">
        <ele>665</ele>
        <time>2026-01-28T09:29:18.000Z</time>
      </trkpt>
      <trkpt lat="43.23675" lon="5.93538">
        <ele>666</ele>
        <time>2026-01-28T09:29:27.000Z</time>
      </trkpt>
      <trkpt lat="43.23673" lon="5.93553">
        <ele>666</ele>
        <time>2026-01-28T09:29:36.000Z</time>
      </trkpt>
      <trkpt lat="43.23671" lon="5.93569">
        <ele>667</ele>
        <time>2026-01-28T09:29:45.000Z</time>
      </trkpt>
      <trkpt lat="43.23668" lon="5.93585">
        <ele>668</ele>
        <time>2026-01-28T09:29:54.000Z</time>
      </trkpt>
      <trkpt lat="43.23667" lon="5.936">
        <ele>669</ele>
        <time>2026-01-28T09:30:03.000Z</time>
      </trkpt>
      <trkpt lat="43.2367" lon="5.93614">
        <ele>670</ele>
        <time>2026-01-28T09:30:12.000Z</time>
      </trkpt>
      <trkpt lat="43.23674" lon="5.93628">
        <ele>670</ele>
        <time>2026-01-28T09:30:21.000Z</time>
      </trkpt>
      <trkpt lat="43.23678" lon="5.93642">
        <ele>671</ele>
        <time>2026-01-28T09:30:30.000Z</time>
      </trkpt>
      <trkpt lat="43.23685" lon="5.93652">
        <ele>671</ele>
        <time>2026-01-28T09:30:39.000Z</time>
      </trkpt>
      <trkpt lat="43.23694" lon="5.93659">
        <ele>671</ele>
        <time>2026-01-28T09:30:48.000Z</time>
      </trkpt>
      <trkpt lat="43.237" lon="5.9367">
        <ele>671</ele>
        <time>2026-01-28T09:30:57.000Z</time>
      </trkpt>
      <trkpt lat="43.237" lon="5.93683">
        <ele>671</ele>
        <time>2026-01-28T09:31:06.000Z</time>
      </trkpt>
      <trkpt lat="43.23701" lon="5.93695">
        <ele>671</ele>
        <time>2026-01-28T09:31:21.000Z</time>
      </trkpt>
      <trkpt lat="43.23708" lon="5.93709">
        <ele>671</ele>
        <time>2026-01-28T09:31:30.000Z</time>
      </trkpt>
      <trkpt lat="43.23714" lon="5.93722">
        <ele>671</ele>
        <time>2026-01-28T09:31:39.000Z</time>
      </trkpt>
      <trkpt lat="43.23722" lon="5.93735">
        <ele>671</ele>
        <time>2026-01-28T09:31:48.000Z</time>
      </trkpt>
      <trkpt lat="43.23731" lon="5.93744">
        <ele>671</ele>
        <time>2026-01-28T09:31:57.000Z</time>
      </trkpt>
      <trkpt lat="43.23741" lon="5.93754">
        <ele>671</ele>
        <time>2026-01-28T09:32:06.000Z</time>
      </trkpt>
      <trkpt lat="43.2375" lon="5.93763">
        <ele>671</ele>
        <time>2026-01-28T09:32:15.000Z</time>
      </trkpt>
      <trkpt lat="43.2376" lon="5.93769">
        <ele>671</ele>
        <time>2026-01-28T09:32:24.000Z</time>
      </trkpt>
      <trkpt lat="43.23772" lon="5.93774">
        <ele>672</ele>
        <time>2026-01-28T09:32:36.000Z</time>
      </trkpt>
      <trkpt lat="43.23784" lon="5.93778">
        <ele>672</ele>
        <time>2026-01-28T09:32:45.000Z</time>
      </trkpt>
      <trkpt lat="43.23794" lon="5.93782">
        <ele>672</ele>
        <time>2026-01-28T09:32:57.000Z</time>
      </trkpt>
      <trkpt lat="43.23804" lon="5.9378">
        <ele>672</ele>
        <time>2026-01-28T09:33:06.000Z</time>
      </trkpt>
      <trkpt lat="43.23814" lon="5.93778">
        <ele>671</ele>
        <time>2026-01-28T09:33:21.000Z</time>
      </trkpt>
      <trkpt lat="43.23824" lon="5.93777">
        <ele>671</ele>
        <time>2026-01-28T09:33:33.000Z</time>
      </trkpt>
      <trkpt lat="43.23835" lon="5.93778">
        <ele>672</ele>
        <time>2026-01-28T09:33:45.000Z</time>
      </trkpt>
      <trkpt lat="43.23844" lon="5.93781">
        <ele>672</ele>
        <time>2026-01-28T09:34:12.000Z</time>
      </trkpt>
      <trkpt lat="43.23851" lon="5.93789">
        <ele>673</ele>
        <time>2026-01-28T09:34:21.000Z</time>
      </trkpt>
      <trkpt lat="43.23854" lon="5.938">
        <ele>673</ele>
        <time>2026-01-28T09:34:36.000Z</time>
      </trkpt>
      <trkpt lat="43.23851" lon="5.93813">
        <ele>673</ele>
        <time>2026-01-28T09:34:45.000Z</time>
      </trkpt>
      <trkpt lat="43.23844" lon="5.93825">
        <ele>673</ele>
        <time>2026-01-28T09:34:54.000Z</time>
      </trkpt>
      <trkpt lat="43.23835" lon="5.93833">
        <ele>673</ele>
        <time>2026-01-28T09:35:03.000Z</time>
      </trkpt>
      <trkpt lat="43.23825" lon="5.93838">
        <ele>672</ele>
        <time>2026-01-28T09:35:12.000Z</time>
      </trkpt>
      <trkpt lat="43.23815" lon="5.93844">
        <ele>672</ele>
        <time>2026-01-28T09:35:21.000Z</time>
      </trkpt>
      <trkpt lat="43.23804" lon="5.93851">
        <ele>671</ele>
        <time>2026-01-28T09:35:30.000Z</time>
      </trkpt>
      <trkpt lat="43.23794" lon="5.93856">
        <ele>671</ele>
        <time>2026-01-28T09:35:39.000Z</time>
      </trkpt>
      <trkpt lat="43.23784" lon="5.93862">
        <ele>671</ele>
        <time>2026-01-28T09:35:48.000Z</time>
      </trkpt>
      <trkpt lat="43.23775" lon="5.93868">
        <ele>672</ele>
        <time>2026-01-28T09:35:57.000Z</time>
      </trkpt>
      <trkpt lat="43.23766" lon="5.93872">
        <ele>673</ele>
        <time>2026-01-28T09:36:03.000Z</time>
      </trkpt>
      <trkpt lat="43.23756" lon="5.93878">
        <ele>673</ele>
        <time>2026-01-28T09:36:12.000Z</time>
      </trkpt>
      <trkpt lat="43.23748" lon="5.93885">
        <ele>674</ele>
        <time>2026-01-28T09:36:21.000Z</time>
      </trkpt>
      <trkpt lat="43.2374" lon="5.93895">
        <ele>675</ele>
        <time>2026-01-28T09:36:30.000Z</time>
      </trkpt>
      <trkpt lat="43.2373" lon="5.93904">
        <ele>676</ele>
        <time>2026-01-28T09:36:39.000Z</time>
      </trkpt>
      <trkpt lat="43.23721" lon="5.93911">
        <ele>677</ele>
        <time>2026-01-28T09:36:48.000Z</time>
      </trkpt>
      <trkpt lat="43.23713" lon="5.93921">
        <ele>678</ele>
        <time>2026-01-28T09:36:57.000Z</time>
      </trkpt>
      <trkpt lat="43.23708" lon="5.93936">
        <ele>679</ele>
        <time>2026-01-28T09:37:09.000Z</time>
      </trkpt>
      <trkpt lat="43.23704" lon="5.93947">
        <ele>679</ele>
        <time>2026-01-28T09:37:18.000Z</time>
      </trkpt>
      <trkpt lat="43.23698" lon="5.93955">
        <ele>679</ele>
        <time>2026-01-28T09:38:09.000Z</time>
      </trkpt>
      <trkpt lat="43.23689" lon="5.93955">
        <ele>679</ele>
        <time>2026-01-28T09:38:18.000Z</time>
      </trkpt>
      <trkpt lat="43.2368" lon="5.93952">
        <ele>680</ele>
        <time>2026-01-28T09:38:27.000Z</time>
      </trkpt>
      <trkpt lat="43.2367" lon="5.93944">
        <ele>680</ele>
        <time>2026-01-28T09:38:36.000Z</time>
      </trkpt>
      <trkpt lat="43.23664" lon="5.93932">
        <ele>681</ele>
        <time>2026-01-28T09:38:48.000Z</time>
      </trkpt>
      <trkpt lat="43.23662" lon="5.93917">
        <ele>681</ele>
        <time>2026-01-28T09:38:57.000Z</time>
      </trkpt>
      <trkpt lat="43.23662" lon="5.93902">
        <ele>680</ele>
        <time>2026-01-28T09:39:21.000Z</time>
      </trkpt>
      <trkpt lat="43.23661" lon="5.9389">
        <ele>679</ele>
        <time>2026-01-28T09:39:30.000Z</time>
      </trkpt>
      <trkpt lat="43.23662" lon="5.93876">
        <ele>678</ele>
        <time>2026-01-28T09:39:39.000Z</time>
      </trkpt>
      <trkpt lat="43.23659" lon="5.93863">
        <ele>678</ele>
        <time>2026-01-28T09:39:51.000Z</time>
      </trkpt>
      <trkpt lat="43.23652" lon="5.93854">
        <ele>677</ele>
        <time>2026-01-28T09:40:00.000Z</time>
      </trkpt>
      <trkpt lat="43.23642" lon="5.9385">
        <ele>677</ele>
        <time>2026-01-28T09:40:09.000Z</time>
      </trkpt>
      <trkpt lat="43.23632" lon="5.9385">
        <ele>677</ele>
        <time>2026-01-28T09:40:18.000Z</time>
      </trkpt>
      <trkpt lat="43.23622" lon="5.93853">
        <ele>678</ele>
        <time>2026-01-28T09:40:27.000Z</time>
      </trkpt>
      <trkpt lat="43.23612" lon="5.93854">
        <ele>678</ele>
        <time>2026-01-28T09:40:36.000Z</time>
      </trkpt>
      <trkpt lat="43.23603" lon="5.93852">
        <ele>679</ele>
        <time>2026-01-28T09:40:45.000Z</time>
      </trkpt>
      <trkpt lat="43.23595" lon="5.93843">
        <ele>680</ele>
        <time>2026-01-28T09:40:54.000Z</time>
      </trkpt>
      <trkpt lat="43.23588" lon="5.93835">
        <ele>680</ele>
        <time>2026-01-28T09:41:00.000Z</time>
      </trkpt>
      <trkpt lat="43.23579" lon="5.93827">
        <ele>680</ele>
        <time>2026-01-28T09:41:09.000Z</time>
      </trkpt>
      <trkpt lat="43.23569" lon="5.93821">
        <ele>680</ele>
        <time>2026-01-28T09:41:18.000Z</time>
      </trkpt>
      <trkpt lat="43.2356" lon="5.93817">
        <ele>680</ele>
        <time>2026-01-28T09:41:33.000Z</time>
      </trkpt>
      <trkpt lat="43.23551" lon="5.93814">
        <ele>680</ele>
        <time>2026-01-28T09:41:45.000Z</time>
      </trkpt>
      <trkpt lat="43.23541" lon="5.93815">
        <ele>680</ele>
        <time>2026-01-28T09:41:54.000Z</time>
      </trkpt>
      <trkpt lat="43.23532" lon="5.93818">
        <ele>681</ele>
        <time>2026-01-28T09:42:03.000Z</time>
      </trkpt>
      <trkpt lat="43.23523" lon="5.93824">
        <ele>681</ele>
        <time>2026-01-28T09:42:12.000Z</time>
      </trkpt>
      <trkpt lat="43.23514" lon="5.93826">
        <ele>681</ele>
        <time>2026-01-28T09:42:21.000Z</time>
      </trkpt>
      <trkpt lat="43.23505" lon="5.93831">
        <ele>682</ele>
        <time>2026-01-28T09:42:30.000Z</time>
      </trkpt>
      <trkpt lat="43.23496" lon="5.93833">
        <ele>683</ele>
        <time>2026-01-28T09:42:39.000Z</time>
      </trkpt>
      <trkpt lat="43.23486" lon="5.93836">
        <ele>684</ele>
        <time>2026-01-28T09:42:48.000Z</time>
      </trkpt>
      <trkpt lat="43.23476" lon="5.93841">
        <ele>684</ele>
        <time>2026-01-28T09:42:57.000Z</time>
      </trkpt>
      <trkpt lat="43.23466" lon="5.93845">
        <ele>685</ele>
        <time>2026-01-28T09:43:06.000Z</time>
      </trkpt>
      <trkpt lat="43.23456" lon="5.93849">
        <ele>686</ele>
        <time>2026-01-28T09:43:15.000Z</time>
      </trkpt>
      <trkpt lat="43.23446" lon="5.93854">
        <ele>686</ele>
        <time>2026-01-28T09:43:24.000Z</time>
      </trkpt>
      <trkpt lat="43.23436" lon="5.93859">
        <ele>687</ele>
        <time>2026-01-28T09:43:33.000Z</time>
      </trkpt>
      <trkpt lat="43.23427" lon="5.93862">
        <ele>687</ele>
        <time>2026-01-28T09:43:42.000Z</time>
      </trkpt>
      <trkpt lat="43.23417" lon="5.93867">
        <ele>686</ele>
        <time>2026-01-28T09:43:51.000Z</time>
      </trkpt>
      <trkpt lat="43.23407" lon="5.93873">
        <ele>686</ele>
        <time>2026-01-28T09:44:00.000Z</time>
      </trkpt>
      <trkpt lat="43.23398" lon="5.93875">
        <ele>685</ele>
        <time>2026-01-28T09:44:12.000Z</time>
      </trkpt>
      <trkpt lat="43.23388" lon="5.93876">
        <ele>684</ele>
        <time>2026-01-28T09:44:27.000Z</time>
      </trkpt>
      <trkpt lat="43.23378" lon="5.93877">
        <ele>684</ele>
        <time>2026-01-28T09:44:36.000Z</time>
      </trkpt>
      <trkpt lat="43.23369" lon="5.93878">
        <ele>683</ele>
        <time>2026-01-28T09:44:45.000Z</time>
      </trkpt>
      <trkpt lat="43.23358" lon="5.93878">
        <ele>682</ele>
        <time>2026-01-28T09:45:03.000Z</time>
      </trkpt>
      <trkpt lat="43.23349" lon="5.93881">
        <ele>682</ele>
        <time>2026-01-28T09:45:15.000Z</time>
      </trkpt>
      <trkpt lat="43.23338" lon="5.93886">
        <ele>681</ele>
        <time>2026-01-28T09:45:30.000Z</time>
      </trkpt>
      <trkpt lat="43.23327" lon="5.93891">
        <ele>680</ele>
        <time>2026-01-28T09:45:39.000Z</time>
      </trkpt>
      <trkpt lat="43.23316" lon="5.93897">
        <ele>679</ele>
        <time>2026-01-28T09:45:48.000Z</time>
      </trkpt>
      <trkpt lat="43.23306" lon="5.93902">
        <ele>678</ele>
        <time>2026-01-28T09:45:57.000Z</time>
      </trkpt>
      <trkpt lat="43.23297" lon="5.93906">
        <ele>677</ele>
        <time>2026-01-28T09:46:03.000Z</time>
      </trkpt>
      <trkpt lat="43.23287" lon="5.9391">
        <ele>676</ele>
        <time>2026-01-28T09:46:12.000Z</time>
      </trkpt>
      <trkpt lat="43.23275" lon="5.93912">
        <ele>675</ele>
        <time>2026-01-28T09:46:21.000Z</time>
      </trkpt>
      <trkpt lat="43.23265" lon="5.93914">
        <ele>674</ele>
        <time>2026-01-28T09:46:30.000Z</time>
      </trkpt>
      <trkpt lat="43.23254" lon="5.93915">
        <ele>674</ele>
        <time>2026-01-28T09:46:39.000Z</time>
      </trkpt>
      <trkpt lat="43.23246" lon="5.93911">
        <ele>673</ele>
        <time>2026-01-28T09:46:45.000Z</time>
      </trkpt>
      <trkpt lat="43.23241" lon="5.939">
        <ele>672</ele>
        <time>2026-01-28T09:46:58.000Z</time>
      </trkpt>
      <trkpt lat="43.23238" lon="5.93888">
        <ele>671</ele>
        <time>2026-01-28T09:47:07.000Z</time>
      </trkpt>
      <trkpt lat="43.23236" lon="5.93876">
        <ele>670</ele>
        <time>2026-01-28T09:47:16.000Z</time>
      </trkpt>
      <trkpt lat="43.23231" lon="5.93865">
        <ele>669</ele>
        <time>2026-01-28T09:47:25.000Z</time>
      </trkpt>
      <trkpt lat="43.23224" lon="5.93855">
        <ele>668</ele>
        <time>2026-01-28T09:47:34.000Z</time>
      </trkpt>
      <trkpt lat="43.23215" lon="5.93847">
        <ele>667</ele>
        <time>2026-01-28T09:47:43.000Z</time>
      </trkpt>
      <trkpt lat="43.23207" lon="5.9384">
        <ele>665</ele>
        <time>2026-01-28T09:47:52.000Z</time>
      </trkpt>
      <trkpt lat="43.232" lon="5.93834">
        <ele>664</ele>
        <time>2026-01-28T09:47:58.000Z</time>
      </trkpt>
      <trkpt lat="43.23192" lon="5.93829">
        <ele>663</ele>
        <time>2026-01-28T09:48:07.000Z</time>
      </trkpt>
      <trkpt lat="43.23184" lon="5.93824">
        <ele>662</ele>
        <time>2026-01-28T09:48:13.000Z</time>
      </trkpt>
      <trkpt lat="43.23173" lon="5.93825">
        <ele>662</ele>
        <time>2026-01-28T09:48:22.000Z</time>
      </trkpt>
      <trkpt lat="43.23163" lon="5.93827">
        <ele>662</ele>
        <time>2026-01-28T09:48:31.000Z</time>
      </trkpt>
      <trkpt lat="43.23154" lon="5.93827">
        <ele>661</ele>
        <time>2026-01-28T09:48:37.000Z</time>
      </trkpt>
      <trkpt lat="43.23144" lon="5.93826">
        <ele>661</ele>
        <time>2026-01-28T09:49:13.000Z</time>
      </trkpt>
      <trkpt lat="43.23134" lon="5.93824">
        <ele>660</ele>
        <time>2026-01-28T09:50:49.000Z</time>
      </trkpt>
      <trkpt lat="43.23124" lon="5.93819">
        <ele>660</ele>
        <time>2026-01-28T09:50:58.000Z</time>
      </trkpt>
      <trkpt lat="43.23115" lon="5.93817">
        <ele>660</ele>
        <time>2026-01-28T09:51:07.000Z</time>
      </trkpt>
      <trkpt lat="43.23105" lon="5.93818">
        <ele>660</ele>
        <time>2026-01-28T09:51:16.000Z</time>
      </trkpt>
      <trkpt lat="43.23096" lon="5.93822">
        <ele>660</ele>
        <time>2026-01-28T09:51:25.000Z</time>
      </trkpt>
      <trkpt lat="43.23086" lon="5.93821">
        <ele>660</ele>
        <time>2026-01-28T09:51:49.000Z</time>
      </trkpt>
      <trkpt lat="43.2308" lon="5.93828">
        <ele>659</ele>
        <time>2026-01-28T09:52:31.000Z</time>
      </trkpt>
      <trkpt lat="43.23072" lon="5.93833">
        <ele>659</ele>
        <time>2026-01-28T09:54:28.000Z</time>
      </trkpt>
      <trkpt lat="43.23067" lon="5.93843">
        <ele>659</ele>
        <time>2026-01-28T09:54:37.000Z</time>
      </trkpt>
      <trkpt lat="43.23059" lon="5.93852">
        <ele>659</ele>
        <time>2026-01-28T09:54:49.000Z</time>
      </trkpt>
      <trkpt lat="43.23051" lon="5.93861">
        <ele>659</ele>
        <time>2026-01-28T09:55:01.000Z</time>
      </trkpt>
      <trkpt lat="43.23045" lon="5.93872">
        <ele>659</ele>
        <time>2026-01-28T09:55:31.000Z</time>
      </trkpt>
      <trkpt lat="43.23044" lon="5.93884">
        <ele>659</ele>
        <time>2026-01-28T09:55:43.000Z</time>
      </trkpt>
      <trkpt lat="43.23047" lon="5.93895">
        <ele>659</ele>
        <time>2026-01-28T09:55:55.000Z</time>
      </trkpt>
      <trkpt lat="43.23047" lon="5.93908">
        <ele>659</ele>
        <time>2026-01-28T09:56:19.000Z</time>
      </trkpt>
      <trkpt lat="43.23046" lon="5.93923">
        <ele>659</ele>
        <time>2026-01-28T09:56:31.000Z</time>
      </trkpt>
      <trkpt lat="43.23045" lon="5.93936">
        <ele>659</ele>
        <time>2026-01-28T09:56:43.000Z</time>
      </trkpt>
      <trkpt lat="43.23041" lon="5.93949">
        <ele>659</ele>
        <time>2026-01-28T09:56:55.000Z</time>
      </trkpt>
      <trkpt lat="43.23035" lon="5.93961">
        <ele>658</ele>
        <time>2026-01-28T09:57:04.000Z</time>
      </trkpt>
      <trkpt lat="43.23031" lon="5.93972">
        <ele>658</ele>
        <time>2026-01-28T09:57:13.000Z</time>
      </trkpt>
      <trkpt lat="43.23026" lon="5.93982">
        <ele>657</ele>
        <time>2026-01-28T09:57:20.000Z</time>
      </trkpt>
      <trkpt lat="43.23022" lon="5.93994">
        <ele>656</ele>
        <time>2026-01-28T09:57:29.000Z</time>
      </trkpt>
      <trkpt lat="43.23022" lon="5.94006">
        <ele>656</ele>
        <time>2026-01-28T09:57:44.000Z</time>
      </trkpt>
      <trkpt lat="43.2302" lon="5.94018">
        <ele>655</ele>
        <time>2026-01-28T09:57:59.000Z</time>
      </trkpt>
      <trkpt lat="43.23018" lon="5.94032">
        <ele>654</ele>
        <time>2026-01-28T09:58:14.000Z</time>
      </trkpt>
      <trkpt lat="43.23018" lon="5.94045">
        <ele>653</ele>
        <time>2026-01-28T09:58:23.000Z</time>
      </trkpt>
      <trkpt lat="43.23015" lon="5.94057">
        <ele>653</ele>
        <time>2026-01-28T09:58:35.000Z</time>
      </trkpt>
      <trkpt lat="43.23011" lon="5.94069">
        <ele>653</ele>
        <time>2026-01-28T09:58:47.000Z</time>
      </trkpt>
      <trkpt lat="43.23006" lon="5.94083">
        <ele>654</ele>
        <time>2026-01-28T09:58:59.000Z</time>
      </trkpt>
      <trkpt lat="43.23001" lon="5.94097">
        <ele>654</ele>
        <time>2026-01-28T09:59:11.000Z</time>
      </trkpt>
      <trkpt lat="43.22997" lon="5.94112">
        <ele>654</ele>
        <time>2026-01-28T09:59:23.000Z</time>
      </trkpt>
      <trkpt lat="43.22992" lon="5.94123">
        <ele>655</ele>
        <time>2026-01-28T09:59:32.000Z</time>
      </trkpt>
      <trkpt lat="43.22988" lon="5.94134">
        <ele>655</ele>
        <time>2026-01-28T09:59:44.000Z</time>
      </trkpt>
      <trkpt lat="43.22983" lon="5.94147">
        <ele>656</ele>
        <time>2026-01-28T09:59:56.000Z</time>
      </trkpt>
      <trkpt lat="43.22979" lon="5.94159">
        <ele>656</ele>
        <time>2026-01-28T10:00:05.000Z</time>
      </trkpt>
      <trkpt lat="43.22972" lon="5.94169">
        <ele>657</ele>
        <time>2026-01-28T10:00:17.000Z</time>
      </trkpt>
      <trkpt lat="43.22964" lon="5.94177">
        <ele>658</ele>
        <time>2026-01-28T10:00:26.000Z</time>
      </trkpt>
      <trkpt lat="43.22956" lon="5.94184">
        <ele>658</ele>
        <time>2026-01-28T10:00:35.000Z</time>
      </trkpt>
      <trkpt lat="43.22947" lon="5.94191">
        <ele>659</ele>
        <time>2026-01-28T10:00:44.000Z</time>
      </trkpt>
      <trkpt lat="43.22939" lon="5.94199">
        <ele>659</ele>
        <time>2026-01-28T10:00:56.000Z</time>
      </trkpt>
      <trkpt lat="43.22931" lon="5.94207">
        <ele>660</ele>
        <time>2026-01-28T10:01:05.000Z</time>
      </trkpt>
      <trkpt lat="43.22924" lon="5.94216">
        <ele>661</ele>
        <time>2026-01-28T10:01:14.000Z</time>
      </trkpt>
      <trkpt lat="43.22917" lon="5.94226">
        <ele>661</ele>
        <time>2026-01-28T10:01:23.000Z</time>
      </trkpt>
      <trkpt lat="43.22911" lon="5.94236">
        <ele>661</ele>
        <time>2026-01-28T10:01:32.000Z</time>
      </trkpt>
      <trkpt lat="43.22907" lon="5.94247">
        <ele>662</ele>
        <time>2026-01-28T10:01:41.000Z</time>
      </trkpt>
      <trkpt lat="43.22901" lon="5.94257">
        <ele>662</ele>
        <time>2026-01-28T10:01:53.000Z</time>
      </trkpt>
      <trkpt lat="43.22897" lon="5.94268">
        <ele>662</ele>
        <time>2026-01-28T10:02:05.000Z</time>
      </trkpt>
      <trkpt lat="43.22893" lon="5.9428">
        <ele>662</ele>
        <time>2026-01-28T10:02:14.000Z</time>
      </trkpt>
      <trkpt lat="43.22886" lon="5.94292">
        <ele>662</ele>
        <time>2026-01-28T10:02:26.000Z</time>
      </trkpt>
      <trkpt lat="43.2288" lon="5.94305">
        <ele>662</ele>
        <time>2026-01-28T10:02:38.000Z</time>
      </trkpt>
      <trkpt lat="43.22875" lon="5.94317">
        <ele>661</ele>
        <time>2026-01-28T10:02:47.000Z</time>
      </trkpt>
      <trkpt lat="43.22871" lon="5.94327">
        <ele>661</ele>
        <time>2026-01-28T10:02:56.000Z</time>
      </trkpt>
      <trkpt lat="43.22865" lon="5.94338">
        <ele>660</ele>
        <time>2026-01-28T10:03:08.000Z</time>
      </trkpt>
      <trkpt lat="43.2286" lon="5.94349">
        <ele>660</ele>
        <time>2026-01-28T10:03:29.000Z</time>
      </trkpt>
      <trkpt lat="43.22853" lon="5.9436">
        <ele>659</ele>
        <time>2026-01-28T10:03:38.000Z</time>
      </trkpt>
      <trkpt lat="43.22843" lon="5.94368">
        <ele>659</ele>
        <time>2026-01-28T10:03:47.000Z</time>
      </trkpt>
      <trkpt lat="43.22835" lon="5.94376">
        <ele>659</ele>
        <time>2026-01-28T10:03:56.000Z</time>
      </trkpt>
      <trkpt lat="43.22825" lon="5.94384">
        <ele>659</ele>
        <time>2026-01-28T10:04:05.000Z</time>
      </trkpt>
      <trkpt lat="43.22816" lon="5.94391">
        <ele>659</ele>
        <time>2026-01-28T10:04:14.000Z</time>
      </trkpt>
      <trkpt lat="43.22809" lon="5.94398">
        <ele>659</ele>
        <time>2026-01-28T10:04:20.000Z</time>
      </trkpt>
      <trkpt lat="43.228" lon="5.94406">
        <ele>658</ele>
        <time>2026-01-28T10:04:29.000Z</time>
      </trkpt>
      <trkpt lat="43.22792" lon="5.94416">
        <ele>658</ele>
        <time>2026-01-28T10:04:41.000Z</time>
      </trkpt>
      <trkpt lat="43.22783" lon="5.94426">
        <ele>658</ele>
        <time>2026-01-28T10:04:50.000Z</time>
      </trkpt>
      <trkpt lat="43.22775" lon="5.94429">
        <ele>658</ele>
        <time>2026-01-28T10:04:59.000Z</time>
      </trkpt>
      <trkpt lat="43.22765" lon="5.94432">
        <ele>658</ele>
        <time>2026-01-28T10:05:08.000Z</time>
      </trkpt>
      <trkpt lat="43.22754" lon="5.94434">
        <ele>658</ele>
        <time>2026-01-28T10:05:17.000Z</time>
      </trkpt>
      <trkpt lat="43.22743" lon="5.94436">
        <ele>658</ele>
        <time>2026-01-28T10:05:29.000Z</time>
      </trkpt>
      <trkpt lat="43.22732" lon="5.94439">
        <ele>658</ele>
        <time>2026-01-28T10:05:38.000Z</time>
      </trkpt>
      <trkpt lat="43.22721" lon="5.94442">
        <ele>658</ele>
        <time>2026-01-28T10:05:47.000Z</time>
      </trkpt>
      <trkpt lat="43.22711" lon="5.94445">
        <ele>658</ele>
        <time>2026-01-28T10:05:59.000Z</time>
      </trkpt>
      <trkpt lat="43.227" lon="5.9445">
        <ele>659</ele>
        <time>2026-01-28T10:06:14.000Z</time>
      </trkpt>
      <trkpt lat="43.2269" lon="5.94452">
        <ele>659</ele>
        <time>2026-01-28T10:06:23.000Z</time>
      </trkpt>
      <trkpt lat="43.22682" lon="5.94458">
        <ele>659</ele>
        <time>2026-01-28T10:06:35.000Z</time>
      </trkpt>
      <trkpt lat="43.22672" lon="5.94464">
        <ele>660</ele>
        <time>2026-01-28T10:06:44.000Z</time>
      </trkpt>
      <trkpt lat="43.22663" lon="5.94469">
        <ele>661</ele>
        <time>2026-01-28T10:06:53.000Z</time>
      </trkpt>
      <trkpt lat="43.22653" lon="5.94474">
        <ele>662</ele>
        <time>2026-01-28T10:07:05.000Z</time>
      </trkpt>
      <trkpt lat="43.22649" lon="5.94484">
        <ele>662</ele>
        <time>2026-01-28T10:07:14.000Z</time>
      </trkpt>
      <trkpt lat="43.22653" lon="5.94495">
        <ele>662</ele>
        <time>2026-01-28T10:07:23.000Z</time>
      </trkpt>
      <trkpt lat="43.22658" lon="5.94508">
        <ele>662</ele>
        <time>2026-01-28T10:07:38.000Z</time>
      </trkpt>
      <trkpt lat="43.22658" lon="5.94522">
        <ele>662</ele>
        <time>2026-01-28T10:07:50.000Z</time>
      </trkpt>
      <trkpt lat="43.2266" lon="5.94535">
        <ele>662</ele>
        <time>2026-01-28T10:08:23.000Z</time>
      </trkpt>
      <trkpt lat="43.22659" lon="5.94547">
        <ele>661</ele>
        <time>2026-01-28T10:08:35.000Z</time>
      </trkpt>
      <trkpt lat="43.22655" lon="5.94558">
        <ele>661</ele>
        <time>2026-01-28T10:08:44.000Z</time>
      </trkpt>
      <trkpt lat="43.22649" lon="5.94567">
        <ele>661</ele>
        <time>2026-01-28T10:08:50.000Z</time>
      </trkpt>
      <trkpt lat="43.22642" lon="5.94574">
        <ele>660</ele>
        <time>2026-01-28T10:08:59.000Z</time>
      </trkpt>
      <trkpt lat="43.22633" lon="5.9458">
        <ele>660</ele>
        <time>2026-01-28T10:09:08.000Z</time>
      </trkpt>
      <trkpt lat="43.22624" lon="5.94586">
        <ele>660</ele>
        <time>2026-01-28T10:09:17.000Z</time>
      </trkpt>
      <trkpt lat="43.22616" lon="5.94594">
        <ele>660</ele>
        <time>2026-01-28T10:09:26.000Z</time>
      </trkpt>
      <trkpt lat="43.22608" lon="5.94602">
        <ele>660</ele>
        <time>2026-01-28T10:09:38.000Z</time>
      </trkpt>
      <trkpt lat="43.226" lon="5.94609">
        <ele>659</ele>
        <time>2026-01-28T10:15:35.000Z</time>
      </trkpt>
      <trkpt lat="43.22592" lon="5.94616">
        <ele>659</ele>
        <time>2026-01-28T10:16:05.000Z</time>
      </trkpt>
      <trkpt lat="43.22583" lon="5.94624">
        <ele>659</ele>
        <time>2026-01-28T10:16:14.000Z</time>
      </trkpt>
      <trkpt lat="43.22574" lon="5.94633">
        <ele>658</ele>
        <time>2026-01-28T10:16:23.000Z</time>
      </trkpt>
      <trkpt lat="43.22566" lon="5.94643">
        <ele>658</ele>
        <time>2026-01-28T10:16:32.000Z</time>
      </trkpt>
      <trkpt lat="43.22558" lon="5.94651">
        <ele>657</ele>
        <time>2026-01-28T10:16:41.000Z</time>
      </trkpt>
      <trkpt lat="43.2255" lon="5.9466">
        <ele>657</ele>
        <time>2026-01-28T10:16:50.000Z</time>
      </trkpt>
      <trkpt lat="43.22541" lon="5.94667">
        <ele>656</ele>
        <time>2026-01-28T10:16:59.000Z</time>
      </trkpt>
      <trkpt lat="43.22532" lon="5.94675">
        <ele>656</ele>
        <time>2026-01-28T10:17:11.000Z</time>
      </trkpt>
      <trkpt lat="43.22525" lon="5.94684">
        <ele>656</ele>
        <time>2026-01-28T10:17:23.000Z</time>
      </trkpt>
      <trkpt lat="43.22517" lon="5.94696">
        <ele>656</ele>
        <time>2026-01-28T10:17:32.000Z</time>
      </trkpt>
      <trkpt lat="43.22508" lon="5.94707">
        <ele>656</ele>
        <time>2026-01-28T10:17:41.000Z</time>
      </trkpt>
      <trkpt lat="43.22503" lon="5.9472">
        <ele>656</ele>
        <time>2026-01-28T10:17:50.000Z</time>
      </trkpt>
      <trkpt lat="43.22504" lon="5.94734">
        <ele>656</ele>
        <time>2026-01-28T10:18:00.000Z</time>
      </trkpt>
      <trkpt lat="43.22508" lon="5.94749">
        <ele>657</ele>
        <time>2026-01-28T10:18:09.000Z</time>
      </trkpt>
      <trkpt lat="43.22508" lon="5.94763">
        <ele>657</ele>
        <time>2026-01-28T10:18:18.000Z</time>
      </trkpt>
      <trkpt lat="43.22505" lon="5.94777">
        <ele>657</ele>
        <time>2026-01-28T10:18:27.000Z</time>
      </trkpt>
      <trkpt lat="43.22502" lon="5.94788">
        <ele>658</ele>
        <time>2026-01-28T10:18:36.000Z</time>
      </trkpt>
      <trkpt lat="43.22496" lon="5.94799">
        <ele>658</ele>
        <time>2026-01-28T10:18:45.000Z</time>
      </trkpt>
      <trkpt lat="43.22487" lon="5.94808">
        <ele>659</ele>
        <time>2026-01-28T10:18:54.000Z</time>
      </trkpt>
      <trkpt lat="43.22478" lon="5.94815">
        <ele>659</ele>
        <time>2026-01-28T10:19:03.000Z</time>
      </trkpt>
      <trkpt lat="43.22469" lon="5.94824">
        <ele>659</ele>
        <time>2026-01-28T10:19:12.000Z</time>
      </trkpt>
      <trkpt lat="43.22461" lon="5.94832">
        <ele>659</ele>
        <time>2026-01-28T10:19:21.000Z</time>
      </trkpt>
      <trkpt lat="43.22452" lon="5.94841">
        <ele>660</ele>
        <time>2026-01-28T10:19:30.000Z</time>
      </trkpt>
      <trkpt lat="43.22443" lon="5.94851">
        <ele>660</ele>
        <time>2026-01-28T10:19:42.000Z</time>
      </trkpt>
      <trkpt lat="43.22434" lon="5.9486">
        <ele>660</ele>
        <time>2026-01-28T10:19:51.000Z</time>
      </trkpt>
      <trkpt lat="43.22426" lon="5.94867">
        <ele>661</ele>
        <time>2026-01-28T10:20:00.000Z</time>
      </trkpt>
      <trkpt lat="43.22419" lon="5.94874">
        <ele>661</ele>
        <time>2026-01-28T10:20:09.000Z</time>
      </trkpt>
      <trkpt lat="43.22412" lon="5.94883">
        <ele>662</ele>
        <time>2026-01-28T10:20:15.000Z</time>
      </trkpt>
      <trkpt lat="43.22404" lon="5.94894">
        <ele>662</ele>
        <time>2026-01-28T10:20:24.000Z</time>
      </trkpt>
      <trkpt lat="43.22398" lon="5.94905">
        <ele>662</ele>
        <time>2026-01-28T10:20:33.000Z</time>
      </trkpt>
      <trkpt lat="43.22392" lon="5.94918">
        <ele>662</ele>
        <time>2026-01-28T10:20:42.000Z</time>
      </trkpt>
      <trkpt lat="43.22385" lon="5.94929">
        <ele>663</ele>
        <time>2026-01-28T10:20:51.000Z</time>
      </trkpt>
      <trkpt lat="43.22376" lon="5.94937">
        <ele>663</ele>
        <time>2026-01-28T10:21:00.000Z</time>
      </trkpt>
      <trkpt lat="43.22366" lon="5.94943">
        <ele>663</ele>
        <time>2026-01-28T10:21:09.000Z</time>
      </trkpt>
      <trkpt lat="43.22358" lon="5.94951">
        <ele>663</ele>
        <time>2026-01-28T10:21:18.000Z</time>
      </trkpt>
      <trkpt lat="43.22351" lon="5.94962">
        <ele>663</ele>
        <time>2026-01-28T10:21:27.000Z</time>
      </trkpt>
      <trkpt lat="43.22345" lon="5.94973">
        <ele>663</ele>
        <time>2026-01-28T10:21:36.000Z</time>
      </trkpt>
      <trkpt lat="43.22339" lon="5.94984">
        <ele>663</ele>
        <time>2026-01-28T10:21:48.000Z</time>
      </trkpt>
      <trkpt lat="43.22331" lon="5.9499">
        <ele>663</ele>
        <time>2026-01-28T10:21:57.000Z</time>
      </trkpt>
      <trkpt lat="43.22321" lon="5.94996">
        <ele>662</ele>
        <time>2026-01-28T10:22:06.000Z</time>
      </trkpt>
      <trkpt lat="43.22312" lon="5.95004">
        <ele>662</ele>
        <time>2026-01-28T10:22:15.000Z</time>
      </trkpt>
      <trkpt lat="43.22304" lon="5.95012">
        <ele>662</ele>
        <time>2026-01-28T10:22:24.000Z</time>
      </trkpt>
      <trkpt lat="43.22297" lon="5.9502">
        <ele>661</ele>
        <time>2026-01-28T10:22:30.000Z</time>
      </trkpt>
      <trkpt lat="43.22288" lon="5.9503">
        <ele>661</ele>
        <time>2026-01-28T10:22:39.000Z</time>
      </trkpt>
      <trkpt lat="43.22279" lon="5.9504">
        <ele>660</ele>
        <time>2026-01-28T10:22:48.000Z</time>
      </trkpt>
      <trkpt lat="43.2227" lon="5.95045">
        <ele>660</ele>
        <time>2026-01-28T10:22:57.000Z</time>
      </trkpt>
      <trkpt lat="43.2226" lon="5.9505">
        <ele>659</ele>
        <time>2026-01-28T10:23:06.000Z</time>
      </trkpt>
      <trkpt lat="43.22251" lon="5.95056">
        <ele>659</ele>
        <time>2026-01-28T10:23:12.000Z</time>
      </trkpt>
      <trkpt lat="43.22242" lon="5.95063">
        <ele>658</ele>
        <time>2026-01-28T10:23:21.000Z</time>
      </trkpt>
      <trkpt lat="43.22232" lon="5.95069">
        <ele>658</ele>
        <time>2026-01-28T10:23:30.000Z</time>
      </trkpt>
      <trkpt lat="43.22222" lon="5.95075">
        <ele>658</ele>
        <time>2026-01-28T10:23:39.000Z</time>
      </trkpt>
      <trkpt lat="43.22211" lon="5.95081">
        <ele>658</ele>
        <time>2026-01-28T10:23:48.000Z</time>
      </trkpt>
      <trkpt lat="43.22199" lon="5.95086">
        <ele>658</ele>
        <time>2026-01-28T10:23:57.000Z</time>
      </trkpt>
      <trkpt lat="43.22188" lon="5.95092">
        <ele>657</ele>
        <time>2026-01-28T10:24:06.000Z</time>
      </trkpt>
      <trkpt lat="43.22178" lon="5.95098">
        <ele>657</ele>
        <time>2026-01-28T10:24:15.000Z</time>
      </trkpt>
      <trkpt lat="43.22168" lon="5.95104">
        <ele>657</ele>
        <time>2026-01-28T10:24:24.000Z</time>
      </trkpt>
      <trkpt lat="43.22158" lon="5.95113">
        <ele>657</ele>
        <time>2026-01-28T10:24:33.000Z</time>
      </trkpt>
      <trkpt lat="43.2215" lon="5.95122">
        <ele>657</ele>
        <time>2026-01-28T10:24:42.000Z</time>
      </trkpt>
      <trkpt lat="43.22141" lon="5.95131">
        <ele>656</ele>
        <time>2026-01-28T10:24:51.000Z</time>
      </trkpt>
      <trkpt lat="43.22132" lon="5.95137">
        <ele>655</ele>
        <time>2026-01-28T10:25:27.000Z</time>
      </trkpt>
      <trkpt lat="43.22123" lon="5.95142">
        <ele>655</ele>
        <time>2026-01-28T10:25:45.000Z</time>
      </trkpt>
      <trkpt lat="43.22115" lon="5.95146">
        <ele>654</ele>
        <time>2026-01-28T10:25:54.000Z</time>
      </trkpt>
      <trkpt lat="43.22106" lon="5.95152">
        <ele>654</ele>
        <time>2026-01-28T10:26:03.000Z</time>
      </trkpt>
      <trkpt lat="43.22096" lon="5.95157">
        <ele>654</ele>
        <time>2026-01-28T10:26:12.000Z</time>
      </trkpt>
      <trkpt lat="43.22086" lon="5.9516">
        <ele>654</ele>
        <time>2026-01-28T10:26:21.000Z</time>
      </trkpt>
      <trkpt lat="43.22075" lon="5.95164">
        <ele>654</ele>
        <time>2026-01-28T10:26:30.000Z</time>
      </trkpt>
      <trkpt lat="43.22067" lon="5.9517">
        <ele>655</ele>
        <time>2026-01-28T10:26:39.000Z</time>
      </trkpt>
      <trkpt lat="43.22058" lon="5.95177">
        <ele>655</ele>
        <time>2026-01-28T10:26:48.000Z</time>
      </trkpt>
      <trkpt lat="43.22049" lon="5.95183">
        <ele>655</ele>
        <time>2026-01-28T10:26:57.000Z</time>
      </trkpt>
      <trkpt lat="43.22039" lon="5.9519">
        <ele>654</ele>
        <time>2026-01-28T10:27:06.000Z</time>
      </trkpt>
      <trkpt lat="43.22029" lon="5.95194">
        <ele>653</ele>
        <time>2026-01-28T10:27:15.000Z</time>
      </trkpt>
      <trkpt lat="43.2202" lon="5.95197">
        <ele>652</ele>
        <time>2026-01-28T10:27:24.000Z</time>
      </trkpt>
      <trkpt lat="43.2201" lon="5.95199">
        <ele>651</ele>
        <time>2026-01-28T10:27:33.000Z</time>
      </trkpt>
      <trkpt lat="43.22001" lon="5.952">
        <ele>651</ele>
        <time>2026-01-28T10:27:42.000Z</time>
      </trkpt>
      <trkpt lat="43.2199" lon="5.952">
        <ele>651</ele>
        <time>2026-01-28T10:27:51.000Z</time>
      </trkpt>
      <trkpt lat="43.21981" lon="5.952">
        <ele>651</ele>
        <time>2026-01-28T10:28:00.000Z</time>
      </trkpt>
      <trkpt lat="43.21969" lon="5.95203">
        <ele>651</ele>
        <time>2026-01-28T10:28:09.000Z</time>
      </trkpt>
      <trkpt lat="43.21958" lon="5.95207">
        <ele>651</ele>
        <time>2026-01-28T10:28:18.000Z</time>
      </trkpt>
      <trkpt lat="43.21947" lon="5.95211">
        <ele>650</ele>
        <time>2026-01-28T10:28:27.000Z</time>
      </trkpt>
      <trkpt lat="43.21937" lon="5.95216">
        <ele>650</ele>
        <time>2026-01-28T10:28:36.000Z</time>
      </trkpt>
      <trkpt lat="43.21928" lon="5.9522">
        <ele>650</ele>
        <time>2026-01-28T10:28:45.000Z</time>
      </trkpt>
      <trkpt lat="43.21918" lon="5.95227">
        <ele>649</ele>
        <time>2026-01-28T10:28:55.000Z</time>
      </trkpt>
      <trkpt lat="43.2191" lon="5.95235">
        <ele>649</ele>
        <time>2026-01-28T10:29:04.000Z</time>
      </trkpt>
      <trkpt lat="43.21903" lon="5.95235">
        <ele>649</ele>
        <time>2026-01-28T10:29:40.000Z</time>
      </trkpt>
      <trkpt lat="43.21902" lon="5.95247">
        <ele>649</ele>
        <time>2026-01-28T10:30:49.000Z</time>
      </trkpt>
      <trkpt lat="43.21897" lon="5.95258">
        <ele>648</ele>
        <time>2026-01-28T10:30:58.000Z</time>
      </trkpt>
      <trkpt lat="43.2189" lon="5.95269">
        <ele>648</ele>
        <time>2026-01-28T10:31:10.000Z</time>
      </trkpt>
      <trkpt lat="43.21883" lon="5.95281">
        <ele>648</ele>
        <time>2026-01-28T10:31:19.000Z</time>
      </trkpt>
      <trkpt lat="43.21875" lon="5.9529">
        <ele>648</ele>
        <time>2026-01-28T10:31:28.000Z</time>
      </trkpt>
      <trkpt lat="43.21867" lon="5.95297">
        <ele>648</ele>
        <time>2026-01-28T10:31:37.000Z</time>
      </trkpt>
      <trkpt lat="43.21857" lon="5.95302">
        <ele>647</ele>
        <time>2026-01-28T10:31:46.000Z</time>
      </trkpt>
      <trkpt lat="43.21848" lon="5.95311">
        <ele>647</ele>
        <time>2026-01-28T10:31:55.000Z</time>
      </trkpt>
      <trkpt lat="43.21839" lon="5.95321">
        <ele>647</ele>
        <time>2026-01-28T10:32:07.000Z</time>
      </trkpt>
      <trkpt lat="43.21833" lon="5.95329">
        <ele>647</ele>
        <time>2026-01-28T10:32:16.000Z</time>
      </trkpt>
      <trkpt lat="43.21825" lon="5.95339">
        <ele>647</ele>
        <time>2026-01-28T10:32:25.000Z</time>
      </trkpt>
      <trkpt lat="43.21817" lon="5.95349">
        <ele>647</ele>
        <time>2026-01-28T10:32:34.000Z</time>
      </trkpt>
      <trkpt lat="43.21809" lon="5.95357">
        <ele>647</ele>
        <time>2026-01-28T10:32:43.000Z</time>
      </trkpt>
      <trkpt lat="43.21799" lon="5.95365">
        <ele>646</ele>
        <time>2026-01-28T10:32:52.000Z</time>
      </trkpt>
      <trkpt lat="43.2179" lon="5.95372">
        <ele>646</ele>
        <time>2026-01-28T10:33:01.000Z</time>
      </trkpt>
      <trkpt lat="43.21782" lon="5.95379">
        <ele>645</ele>
        <time>2026-01-28T10:33:10.000Z</time>
      </trkpt>
      <trkpt lat="43.21773" lon="5.95384">
        <ele>644</ele>
        <time>2026-01-28T10:33:19.000Z</time>
      </trkpt>
      <trkpt lat="43.21764" lon="5.95389">
        <ele>644</ele>
        <time>2026-01-28T10:33:28.000Z</time>
      </trkpt>
      <trkpt lat="43.21752" lon="5.95394">
        <ele>643</ele>
        <time>2026-01-28T10:33:37.000Z</time>
      </trkpt>
      <trkpt lat="43.21742" lon="5.95401">
        <ele>643</ele>
        <time>2026-01-28T10:33:46.000Z</time>
      </trkpt>
      <trkpt lat="43.21733" lon="5.9541">
        <ele>642</ele>
        <time>2026-01-28T10:33:55.000Z</time>
      </trkpt>
      <trkpt lat="43.21726" lon="5.95418">
        <ele>642</ele>
        <time>2026-01-28T10:34:04.000Z</time>
      </trkpt>
      <trkpt lat="43.21717" lon="5.95426">
        <ele>641</ele>
        <time>2026-01-28T10:34:13.000Z</time>
      </trkpt>
      <trkpt lat="43.21708" lon="5.95434">
        <ele>640</ele>
        <time>2026-01-28T10:34:22.000Z</time>
      </trkpt>
      <trkpt lat="43.21698" lon="5.95441">
        <ele>639</ele>
        <time>2026-01-28T10:34:30.000Z</time>
      </trkpt>
      <trkpt lat="43.21688" lon="5.95446">
        <ele>639</ele>
        <time>2026-01-28T10:34:39.000Z</time>
      </trkpt>
      <trkpt lat="43.21678" lon="5.95451">
        <ele>638</ele>
        <time>2026-01-28T10:34:48.000Z</time>
      </trkpt>
      <trkpt lat="43.2167" lon="5.9546">
        <ele>637</ele>
        <time>2026-01-28T10:34:57.000Z</time>
      </trkpt>
      <trkpt lat="43.21663" lon="5.95472">
        <ele>636</ele>
        <time>2026-01-28T10:35:06.000Z</time>
      </trkpt>
      <trkpt lat="43.21656" lon="5.95484">
        <ele>636</ele>
        <time>2026-01-28T10:35:15.000Z</time>
      </trkpt>
      <trkpt lat="43.21647" lon="5.95492">
        <ele>635</ele>
        <time>2026-01-28T10:35:24.000Z</time>
      </trkpt>
      <trkpt lat="43.21636" lon="5.95498">
        <ele>635</ele>
        <time>2026-01-28T10:35:33.000Z</time>
      </trkpt>
      <trkpt lat="43.21627" lon="5.95504">
        <ele>634</ele>
        <time>2026-01-28T10:35:42.000Z</time>
      </trkpt>
      <trkpt lat="43.21617" lon="5.95513">
        <ele>634</ele>
        <time>2026-01-28T10:35:51.000Z</time>
      </trkpt>
      <trkpt lat="43.2161" lon="5.95523">
        <ele>634</ele>
        <time>2026-01-28T10:36:00.000Z</time>
      </trkpt>
      <trkpt lat="43.21602" lon="5.95533">
        <ele>633</ele>
        <time>2026-01-28T10:36:09.000Z</time>
      </trkpt>
      <trkpt lat="43.21594" lon="5.95544">
        <ele>633</ele>
        <time>2026-01-28T10:36:18.000Z</time>
      </trkpt>
      <trkpt lat="43.21585" lon="5.95555">
        <ele>633</ele>
        <time>2026-01-28T10:36:27.000Z</time>
      </trkpt>
      <trkpt lat="43.21577" lon="5.95566">
        <ele>633</ele>
        <time>2026-01-28T10:36:36.000Z</time>
      </trkpt>
      <trkpt lat="43.21569" lon="5.95576">
        <ele>633</ele>
        <time>2026-01-28T10:36:45.000Z</time>
      </trkpt>
      <trkpt lat="43.21562" lon="5.95585">
        <ele>633</ele>
        <time>2026-01-28T10:36:51.000Z</time>
      </trkpt>
      <trkpt lat="43.21556" lon="5.95596">
        <ele>633</ele>
        <time>2026-01-28T10:37:00.000Z</time>
      </trkpt>
      <trkpt lat="43.21548" lon="5.95605">
        <ele>633</ele>
        <time>2026-01-28T10:37:09.000Z</time>
      </trkpt>
      <trkpt lat="43.21538" lon="5.95612">
        <ele>633</ele>
        <time>2026-01-28T10:37:18.000Z</time>
      </trkpt>
      <trkpt lat="43.21528" lon="5.95618">
        <ele>633</ele>
        <time>2026-01-28T10:37:27.000Z</time>
      </trkpt>
      <trkpt lat="43.21517" lon="5.95624">
        <ele>633</ele>
        <time>2026-01-28T10:37:36.000Z</time>
      </trkpt>
      <trkpt lat="43.21506" lon="5.95628">
        <ele>633</ele>
        <time>2026-01-28T10:37:45.000Z</time>
      </trkpt>
      <trkpt lat="43.21495" lon="5.9563">
        <ele>632</ele>
        <time>2026-01-28T10:37:54.000Z</time>
      </trkpt>
      <trkpt lat="43.21484" lon="5.95633">
        <ele>632</ele>
        <time>2026-01-28T10:38:03.000Z</time>
      </trkpt>
      <trkpt lat="43.21473" lon="5.95635">
        <ele>632</ele>
        <time>2026-01-28T10:38:12.000Z</time>
      </trkpt>
      <trkpt lat="43.21464" lon="5.95638">
        <ele>632</ele>
        <time>2026-01-28T10:38:21.000Z</time>
      </trkpt>
      <trkpt lat="43.21456" lon="5.95642">
        <ele>632</ele>
        <time>2026-01-28T10:38:27.000Z</time>
      </trkpt>
      <trkpt lat="43.21446" lon="5.95648">
        <ele>632</ele>
        <time>2026-01-28T10:38:36.000Z</time>
      </trkpt>
      <trkpt lat="43.21436" lon="5.95654">
        <ele>632</ele>
        <time>2026-01-28T10:38:45.000Z</time>
      </trkpt>
      <trkpt lat="43.21426" lon="5.95655">
        <ele>631</ele>
        <time>2026-01-28T10:38:54.000Z</time>
      </trkpt>
      <trkpt lat="43.21417" lon="5.95657">
        <ele>631</ele>
        <time>2026-01-28T10:39:03.000Z</time>
      </trkpt>
      <trkpt lat="43.21408" lon="5.95663">
        <ele>631</ele>
        <time>2026-01-28T10:39:12.000Z</time>
      </trkpt>
      <trkpt lat="43.21401" lon="5.95669">
        <ele>630</ele>
        <time>2026-01-28T10:39:21.000Z</time>
      </trkpt>
      <trkpt lat="43.21392" lon="5.95671">
        <ele>630</ele>
        <time>2026-01-28T10:40:54.000Z</time>
      </trkpt>
      <trkpt lat="43.21383" lon="5.95668">
        <ele>630</ele>
        <time>2026-01-28T10:41:03.000Z</time>
      </trkpt>
      <trkpt lat="43.21374" lon="5.95669">
        <ele>630</ele>
        <time>2026-01-28T10:41:18.000Z</time>
      </trkpt>
      <trkpt lat="43.21364" lon="5.9567">
        <ele>630</ele>
        <time>2026-01-28T10:41:27.000Z</time>
      </trkpt>
      <trkpt lat="43.21354" lon="5.95673">
        <ele>630</ele>
        <time>2026-01-28T10:41:36.000Z</time>
      </trkpt>
      <trkpt lat="43.21345" lon="5.95675">
        <ele>631</ele>
        <time>2026-01-28T10:41:42.000Z</time>
      </trkpt>
      <trkpt lat="43.21334" lon="5.95678">
        <ele>631</ele>
        <time>2026-01-28T10:41:51.000Z</time>
      </trkpt>
      <trkpt lat="43.21324" lon="5.95681">
        <ele>631</ele>
        <time>2026-01-28T10:42:00.000Z</time>
      </trkpt>
      <trkpt lat="43.21314" lon="5.95682">
        <ele>632</ele>
        <time>2026-01-28T10:42:09.000Z</time>
      </trkpt>
      <trkpt lat="43.21302" lon="5.95686">
        <ele>632</ele>
        <time>2026-01-28T10:42:18.000Z</time>
      </trkpt>
      <trkpt lat="43.2129" lon="5.95689">
        <ele>633</ele>
        <time>2026-01-28T10:42:27.000Z</time>
      </trkpt>
      <trkpt lat="43.21279" lon="5.95691">
        <ele>634</ele>
        <time>2026-01-28T10:42:36.000Z</time>
      </trkpt>
      <trkpt lat="43.21269" lon="5.95693">
        <ele>635</ele>
        <time>2026-01-28T10:42:45.000Z</time>
      </trkpt>
      <trkpt lat="43.21259" lon="5.95696">
        <ele>636</ele>
        <time>2026-01-28T10:42:54.000Z</time>
      </trkpt>
      <trkpt lat="43.21248" lon="5.95698">
        <ele>637</ele>
        <time>2026-01-28T10:43:03.000Z</time>
      </trkpt>
      <trkpt lat="43.21238" lon="5.957">
        <ele>638</ele>
        <time>2026-01-28T10:43:12.000Z</time>
      </trkpt>
      <trkpt lat="43.21227" lon="5.95702">
        <ele>638</ele>
        <time>2026-01-28T10:43:21.000Z</time>
      </trkpt>
      <trkpt lat="43.21218" lon="5.95702">
        <ele>639</ele>
        <time>2026-01-28T10:43:30.000Z</time>
      </trkpt>
      <trkpt lat="43.21208" lon="5.95706">
        <ele>640</ele>
        <time>2026-01-28T10:43:39.000Z</time>
      </trkpt>
      <trkpt lat="43.21199" lon="5.95708">
        <ele>640</ele>
        <time>2026-01-28T10:43:48.000Z</time>
      </trkpt>
      <trkpt lat="43.21189" lon="5.95708">
        <ele>641</ele>
        <time>2026-01-28T10:43:57.000Z</time>
      </trkpt>
      <trkpt lat="43.21178" lon="5.9571">
        <ele>642</ele>
        <time>2026-01-28T10:44:06.000Z</time>
      </trkpt>
      <trkpt lat="43.21169" lon="5.95712">
        <ele>644</ele>
        <time>2026-01-28T10:44:15.000Z</time>
      </trkpt>
      <trkpt lat="43.2116" lon="5.95714">
        <ele>645</ele>
        <time>2026-01-28T10:44:21.000Z</time>
      </trkpt>
      <trkpt lat="43.2115" lon="5.95712">
        <ele>647</ele>
        <time>2026-01-28T10:44:30.000Z</time>
      </trkpt>
      <trkpt lat="43.21146" lon="5.95702">
        <ele>648</ele>
        <time>2026-01-28T10:44:40.000Z</time>
      </trkpt>
      <trkpt lat="43.21149" lon="5.95692">
        <ele>649</ele>
        <time>2026-01-28T10:44:52.000Z</time>
      </trkpt>
      <trkpt lat="43.21145" lon="5.95682">
        <ele>649</ele>
        <time>2026-01-28T10:45:43.000Z</time>
      </trkpt>
      <trkpt lat="43.21137" lon="5.95676">
        <ele>650</ele>
        <time>2026-01-28T10:46:16.000Z</time>
      </trkpt>
      <trkpt lat="43.21127" lon="5.95673">
        <ele>651</ele>
        <time>2026-01-28T10:46:28.000Z</time>
      </trkpt>
      <trkpt lat="43.21119" lon="5.95669">
        <ele>651</ele>
        <time>2026-01-28T10:46:40.000Z</time>
      </trkpt>
      <trkpt lat="43.2111" lon="5.95665">
        <ele>653</ele>
        <time>2026-01-28T10:46:52.000Z</time>
      </trkpt>
      <trkpt lat="43.21102" lon="5.9567">
        <ele>654</ele>
        <time>2026-01-28T10:47:07.000Z</time>
      </trkpt>
      <trkpt lat="43.21094" lon="5.95679">
        <ele>655</ele>
        <time>2026-01-28T10:47:22.000Z</time>
      </trkpt>
      <trkpt lat="43.21087" lon="5.95685">
        <ele>657</ele>
        <time>2026-01-28T10:47:40.000Z</time>
      </trkpt>
      <trkpt lat="43.21078" lon="5.95685">
        <ele>658</ele>
        <time>2026-01-28T10:47:55.000Z</time>
      </trkpt>
      <trkpt lat="43.21069" lon="5.95686">
        <ele>659</ele>
        <time>2026-01-28T10:48:10.000Z</time>
      </trkpt>
      <trkpt lat="43.21061" lon="5.95684">
        <ele>661</ele>
        <time>2026-01-28T10:48:28.000Z</time>
      </trkpt>
      <trkpt lat="43.21052" lon="5.95679">
        <ele>662</ele>
        <time>2026-01-28T10:48:46.000Z</time>
      </trkpt>
      <trkpt lat="43.21044" lon="5.95673">
        <ele>664</ele>
        <time>2026-01-28T10:49:07.000Z</time>
      </trkpt>
      <trkpt lat="43.21035" lon="5.95668">
        <ele>665</ele>
        <time>2026-01-28T10:49:31.000Z</time>
      </trkpt>
      <trkpt lat="43.21028" lon="5.95662">
        <ele>667</ele>
        <time>2026-01-28T10:49:46.000Z</time>
      </trkpt>
      <trkpt lat="43.21023" lon="5.95653">
        <ele>668</ele>
        <time>2026-01-28T10:50:04.000Z</time>
      </trkpt>
      <trkpt lat="43.21015" lon="5.95649">
        <ele>670</ele>
        <time>2026-01-28T10:50:22.000Z</time>
      </trkpt>
      <trkpt lat="43.21006" lon="5.95654">
        <ele>671</ele>
        <time>2026-01-28T10:50:40.000Z</time>
      </trkpt>
      <trkpt lat="43.20997" lon="5.95658">
        <ele>673</ele>
        <time>2026-01-28T10:51:22.000Z</time>
      </trkpt>
      <trkpt lat="43.20987" lon="5.9566">
        <ele>675</ele>
        <time>2026-01-28T10:51:46.000Z</time>
      </trkpt>
      <trkpt lat="43.20978" lon="5.95662">
        <ele>676</ele>
        <time>2026-01-28T10:52:10.000Z</time>
      </trkpt>
      <trkpt lat="43.20969" lon="5.95658">
        <ele>678</ele>
        <time>2026-01-28T10:52:31.000Z</time>
      </trkpt>
      <trkpt lat="43.2096" lon="5.95658">
        <ele>679</ele>
        <time>2026-01-28T10:52:49.000Z</time>
      </trkpt>
      <trkpt lat="43.2095" lon="5.95657">
        <ele>681</ele>
        <time>2026-01-28T10:53:07.000Z</time>
      </trkpt>
      <trkpt lat="43.20942" lon="5.95662">
        <ele>683</ele>
        <time>2026-01-28T10:53:31.000Z</time>
      </trkpt>
      <trkpt lat="43.20934" lon="5.95661">
        <ele>685</ele>
        <time>2026-01-28T10:53:58.000Z</time>
      </trkpt>
      <trkpt lat="43.20925" lon="5.95662">
        <ele>687</ele>
        <time>2026-01-28T10:54:37.000Z</time>
      </trkpt>
      <trkpt lat="43.20916" lon="5.95658">
        <ele>689</ele>
        <time>2026-01-28T10:55:04.000Z</time>
      </trkpt>
      <trkpt lat="43.20909" lon="5.9565">
        <ele>691</ele>
        <time>2026-01-28T10:55:31.000Z</time>
      </trkpt>
      <trkpt lat="43.20899" lon="5.95648">
        <ele>693</ele>
        <time>2026-01-28T10:55:52.000Z</time>
      </trkpt>
      <trkpt lat="43.20891" lon="5.95644">
        <ele>695</ele>
        <time>2026-01-28T10:56:43.000Z</time>
      </trkpt>
      <trkpt lat="43.20884" lon="5.95636">
        <ele>697</ele>
        <time>2026-01-28T11:00:07.000Z</time>
      </trkpt>
      <trkpt lat="43.20879" lon="5.95627">
        <ele>700</ele>
        <time>2026-01-28T11:00:31.000Z</time>
      </trkpt>
      <trkpt lat="43.20872" lon="5.95619">
        <ele>702</ele>
        <time>2026-01-28T11:01:01.000Z</time>
      </trkpt>
      <trkpt lat="43.20864" lon="5.95616">
        <ele>704</ele>
        <time>2026-01-28T11:01:37.000Z</time>
      </trkpt>
      <trkpt lat="43.20858" lon="5.95608">
        <ele>706</ele>
        <time>2026-01-28T11:02:19.000Z</time>
      </trkpt>
      <trkpt lat="43.20852" lon="5.95598">
        <ele>708</ele>
        <time>2026-01-28T11:02:37.000Z</time>
      </trkpt>
      <trkpt lat="43.20844" lon="5.95593">
        <ele>709</ele>
        <time>2026-01-28T11:02:55.000Z</time>
      </trkpt>
      <trkpt lat="43.20836" lon="5.95588">
        <ele>711</ele>
        <time>2026-01-28T11:03:10.000Z</time>
      </trkpt>
      <trkpt lat="43.20833" lon="5.95577">
        <ele>713</ele>
        <time>2026-01-28T11:03:28.000Z</time>
      </trkpt>
      <trkpt lat="43.20827" lon="5.95569">
        <ele>715</ele>
        <time>2026-01-28T11:03:55.000Z</time>
      </trkpt>
      <trkpt lat="43.20824" lon="5.95558">
        <ele>718</ele>
        <time>2026-01-28T11:04:13.000Z</time>
      </trkpt>
      <trkpt lat="43.20819" lon="5.95547">
        <ele>720</ele>
        <time>2026-01-28T11:04:40.000Z</time>
      </trkpt>
      <trkpt lat="43.20813" lon="5.95538">
        <ele>723</ele>
        <time>2026-01-28T11:05:07.000Z</time>
      </trkpt>
      <trkpt lat="43.20805" lon="5.95531">
        <ele>726</ele>
        <time>2026-01-28T11:05:31.000Z</time>
      </trkpt>
      <trkpt lat="43.20798" lon="5.95525">
        <ele>728</ele>
        <time>2026-01-28T11:06:19.000Z</time>
      </trkpt>
      <trkpt lat="43.20795" lon="5.95515">
        <ele>731</ele>
        <time>2026-01-28T11:06:52.000Z</time>
      </trkpt>
      <trkpt lat="43.20792" lon="5.95503">
        <ele>733</ele>
        <time>2026-01-28T11:07:49.000Z</time>
      </trkpt>
      <trkpt lat="43.20794" lon="5.95492">
        <ele>736</ele>
        <time>2026-01-28T11:08:31.000Z</time>
      </trkpt>
      <trkpt lat="43.20793" lon="5.9548">
        <ele>739</ele>
        <time>2026-01-28T11:09:13.000Z</time>
      </trkpt>
      <trkpt lat="43.20788" lon="5.95469">
        <ele>743</ele>
        <time>2026-01-28T11:09:58.000Z</time>
      </trkpt>
      <trkpt lat="43.20782" lon="5.9546">
        <ele>748</ele>
        <time>2026-01-28T11:10:28.000Z</time>
      </trkpt>
      <trkpt lat="43.20776" lon="5.95452">
        <ele>752</ele>
        <time>2026-01-28T11:14:58.000Z</time>
      </trkpt>
      <trkpt lat="43.20768" lon="5.95446">
        <ele>756</ele>
        <time>2026-01-28T11:15:55.000Z</time>
      </trkpt>
      <trkpt lat="43.20762" lon="5.95438">
        <ele>760</ele>
        <time>2026-01-28T11:17:07.000Z</time>
      </trkpt>
      <trkpt lat="43.20756" lon="5.9543">
        <ele>764</ele>
        <time>2026-01-28T11:21:28.000Z</time>
      </trkpt>
      <trkpt lat="43.20748" lon="5.95423">
        <ele>768</ele>
        <time>2026-01-28T11:22:19.000Z</time>
      </trkpt>
      <trkpt lat="43.20742" lon="5.95417">
        <ele>771</ele>
        <time>2026-01-28T11:23:49.000Z</time>
      </trkpt>
      <trkpt lat="43.20734" lon="5.95416">
        <ele>775</ele>
        <time>2026-01-28T11:24:10.000Z</time>
      </trkpt>
      <trkpt lat="43.20727" lon="5.9541">
        <ele>778</ele>
        <time>2026-01-28T11:25:16.000Z</time>
      </trkpt>
      <trkpt lat="43.20723" lon="5.954">
        <ele>781</ele>
        <time>2026-01-28T11:25:34.000Z</time>
      </trkpt>
      <trkpt lat="43.20715" lon="5.95394">
        <ele>784</ele>
        <time>2026-01-28T11:25:58.000Z</time>
      </trkpt>
      <trkpt lat="43.20706" lon="5.95394">
        <ele>787</ele>
        <time>2026-01-28T11:26:55.000Z</time>
      </trkpt>
      <trkpt lat="43.20697" lon="5.95397">
        <ele>790</ele>
        <time>2026-01-28T11:27:25.000Z</time>
      </trkpt>
      <trkpt lat="43.2069" lon="5.95392">
        <ele>793</ele>
        <time>2026-01-28T11:28:37.000Z</time>
      </trkpt>
      <trkpt lat="43.20685" lon="5.95382">
        <ele>796</ele>
        <time>2026-01-28T11:29:13.000Z</time>
      </trkpt>
      <trkpt lat="43.2068" lon="5.95373">
        <ele>799</ele>
        <time>2026-01-28T11:29:49.000Z</time>
      </trkpt>
      <trkpt lat="43.20671" lon="5.95369">
        <ele>802</ele>
        <time>2026-01-28T11:30:37.000Z</time>
      </trkpt>
      <trkpt lat="43.20662" lon="5.95365">
        <ele>804</ele>
        <time>2026-01-28T11:31:16.000Z</time>
      </trkpt>
      <trkpt lat="43.20655" lon="5.95368">
        <ele>807</ele>
        <time>2026-01-28T11:31:58.000Z</time>
      </trkpt>
      <trkpt lat="43.20649" lon="5.95376">
        <ele>810</ele>
        <time>2026-01-28T11:32:16.000Z</time>
      </trkpt>
      <trkpt lat="43.20641" lon="5.95381">
        <ele>813</ele>
        <time>2026-01-28T11:33:01.000Z</time>
      </trkpt>
      <trkpt lat="43.20636" lon="5.95391">
        <ele>815</ele>
        <time>2026-01-28T11:33:52.000Z</time>
      </trkpt>
      <trkpt lat="43.20631" lon="5.95401">
        <ele>817</ele>
        <time>2026-01-28T11:34:31.000Z</time>
      </trkpt>
      <trkpt lat="43.20624" lon="5.95412">
        <ele>818</ele>
        <time>2026-01-28T11:37:46.000Z</time>
      </trkpt>
      <trkpt lat="43.20616" lon="5.9542">
        <ele>818</ele>
        <time>2026-01-28T11:38:34.000Z</time>
      </trkpt>
      <trkpt lat="43.20607" lon="5.95416">
        <ele>818</ele>
        <time>2026-01-28T11:39:10.000Z</time>
      </trkpt>
      <trkpt lat="43.20598" lon="5.95408">
        <ele>819</ele>
        <time>2026-01-28T11:39:31.000Z</time>
      </trkpt>
      <trkpt lat="43.2059" lon="5.954">
        <ele>819</ele>
        <time>2026-01-28T11:39:52.000Z</time>
      </trkpt>
      <trkpt lat="43.20588" lon="5.95387">
        <ele>820</ele>
        <time>2026-01-28T11:40:04.000Z</time>
      </trkpt>
      <trkpt lat="43.20585" lon="5.95374">
        <ele>820</ele>
        <time>2026-01-28T11:40:16.000Z</time>
      </trkpt>
      <trkpt lat="43.20578" lon="5.95364">
        <ele>821</ele>
        <time>2026-01-28T11:40:28.000Z</time>
      </trkpt>
      <trkpt lat="43.20569" lon="5.95362">
        <ele>822</ele>
        <time>2026-01-28T11:40:49.000Z</time>
      </trkpt>
      <trkpt lat="43.2056" lon="5.95363">
        <ele>823</ele>
        <time>2026-01-28T11:41:04.000Z</time>
      </trkpt>
      <trkpt lat="43.2055" lon="5.95358">
        <ele>823</ele>
        <time>2026-01-28T11:41:18.000Z</time>
      </trkpt>
      <trkpt lat="43.20542" lon="5.95351">
        <ele>823</ele>
        <time>2026-01-28T11:41:51.000Z</time>
      </trkpt>
      <trkpt lat="43.20534" lon="5.95343">
        <ele>823</ele>
        <time>2026-01-28T11:42:03.000Z</time>
      </trkpt>
      <trkpt lat="43.2053" lon="5.95332">
        <ele>823</ele>
        <time>2026-01-28T11:42:15.000Z</time>
      </trkpt>
      <trkpt lat="43.2053" lon="5.95319">
        <ele>823</ele>
        <time>2026-01-28T11:42:30.000Z</time>
      </trkpt>
      <trkpt lat="43.20523" lon="5.95311">
        <ele>823</ele>
        <time>2026-01-28T11:42:42.000Z</time>
      </trkpt>
      <trkpt lat="43.20514" lon="5.95305">
        <ele>824</ele>
        <time>2026-01-28T11:42:54.000Z</time>
      </trkpt>
      <trkpt lat="43.20505" lon="5.95302">
        <ele>824</ele>
        <time>2026-01-28T11:43:12.000Z</time>
      </trkpt>
      <trkpt lat="43.20496" lon="5.95304">
        <ele>825</ele>
        <time>2026-01-28T11:43:24.000Z</time>
      </trkpt>
      <trkpt lat="43.20489" lon="5.95313">
        <ele>825</ele>
        <time>2026-01-28T11:43:36.000Z</time>
      </trkpt>
      <trkpt lat="43.20481" lon="5.9532">
        <ele>826</ele>
        <time>2026-01-28T11:43:48.000Z</time>
      </trkpt>
      <trkpt lat="43.20472" lon="5.95327">
        <ele>826</ele>
        <time>2026-01-28T11:44:03.000Z</time>
      </trkpt>
      <trkpt lat="43.20465" lon="5.95336">
        <ele>826</ele>
        <time>2026-01-28T11:44:24.000Z</time>
      </trkpt>
      <trkpt lat="43.20458" lon="5.95343">
        <ele>826</ele>
        <time>2026-01-28T11:44:54.000Z</time>
      </trkpt>
      <trkpt lat="43.20451" lon="5.95339">
        <ele>826</ele>
        <time>2026-01-28T11:45:09.000Z</time>
      </trkpt>
      <trkpt lat="43.20446" lon="5.95329">
        <ele>826</ele>
        <time>2026-01-28T11:49:18.000Z</time>
      </trkpt>
      <trkpt lat="43.20438" lon="5.95322">
        <ele>825</ele>
        <time>2026-01-28T11:49:30.000Z</time>
      </trkpt>
      <trkpt lat="43.20431" lon="5.95314">
        <ele>824</ele>
        <time>2026-01-28T11:49:39.000Z</time>
      </trkpt>
      <trkpt lat="43.20425" lon="5.95305">
        <ele>824</ele>
        <time>2026-01-28T11:49:48.000Z</time>
      </trkpt>
      <trkpt lat="43.20418" lon="5.95297">
        <ele>823</ele>
        <time>2026-01-28T11:50:00.000Z</time>
      </trkpt>
      <trkpt lat="43.20409" lon="5.95289">
        <ele>822</ele>
        <time>2026-01-28T11:50:15.000Z</time>
      </trkpt>
      <trkpt lat="43.20401" lon="5.95282">
        <ele>820</ele>
        <time>2026-01-28T11:50:30.000Z</time>
      </trkpt>
      <trkpt lat="43.20393" lon="5.95275">
        <ele>818</ele>
        <time>2026-01-28T11:50:54.000Z</time>
      </trkpt>
      <trkpt lat="43.20385" lon="5.95269">
        <ele>816</ele>
        <time>2026-01-28T11:51:21.000Z</time>
      </trkpt>
      <trkpt lat="43.20381" lon="5.95259">
        <ele>814</ele>
        <time>2026-01-28T11:51:42.000Z</time>
      </trkpt>
      <trkpt lat="43.20378" lon="5.95249">
        <ele>812</ele>
        <time>2026-01-28T11:52:03.000Z</time>
      </trkpt>
      <trkpt lat="43.20372" lon="5.9524">
        <ele>809</ele>
        <time>2026-01-28T11:52:57.000Z</time>
      </trkpt>
      <trkpt lat="43.20367" lon="5.95228">
        <ele>807</ele>
        <time>2026-01-28T11:53:39.000Z</time>
      </trkpt>
      <trkpt lat="43.20362" lon="5.95218">
        <ele>805</ele>
        <time>2026-01-28T11:54:18.000Z</time>
      </trkpt>
      <trkpt lat="43.20353" lon="5.95213">
        <ele>803</ele>
        <time>2026-01-28T11:54:30.000Z</time>
      </trkpt>
      <trkpt lat="43.20345" lon="5.95206">
        <ele>802</ele>
        <time>2026-01-28T11:54:54.000Z</time>
      </trkpt>
      <trkpt lat="43.20339" lon="5.95198">
        <ele>800</ele>
        <time>2026-01-28T11:55:09.000Z</time>
      </trkpt>
      <trkpt lat="43.2033" lon="5.95195">
        <ele>799</ele>
        <time>2026-01-28T11:55:24.000Z</time>
      </trkpt>
      <trkpt lat="43.20321" lon="5.95198">
        <ele>797</ele>
        <time>2026-01-28T11:55:42.000Z</time>
      </trkpt>
      <trkpt lat="43.20312" lon="5.95204">
        <ele>796</ele>
        <time>2026-01-28T11:55:57.000Z</time>
      </trkpt>
      <trkpt lat="43.20303" lon="5.95209">
        <ele>795</ele>
        <time>2026-01-28T11:56:09.000Z</time>
      </trkpt>
      <trkpt lat="43.20295" lon="5.95217">
        <ele>793</ele>
        <time>2026-01-28T11:56:24.000Z</time>
      </trkpt>
      <trkpt lat="43.20287" lon="5.95222">
        <ele>791</ele>
        <time>2026-01-28T11:56:36.000Z</time>
      </trkpt>
      <trkpt lat="43.20277" lon="5.95222">
        <ele>789</ele>
        <time>2026-01-28T11:56:51.000Z</time>
      </trkpt>
      <trkpt lat="43.20268" lon="5.95221">
        <ele>786</ele>
        <time>2026-01-28T11:57:08.000Z</time>
      </trkpt>
      <trkpt lat="43.20262" lon="5.95213">
        <ele>784</ele>
        <time>2026-01-28T11:57:27.000Z</time>
      </trkpt>
      <trkpt lat="43.20256" lon="5.95204">
        <ele>782</ele>
        <time>2026-01-28T11:57:48.000Z</time>
      </trkpt>
      <trkpt lat="43.20248" lon="5.95199">
        <ele>780</ele>
        <time>2026-01-28T11:58:00.000Z</time>
      </trkpt>
      <trkpt lat="43.2024" lon="5.95193">
        <ele>778</ele>
        <time>2026-01-28T11:58:15.000Z</time>
      </trkpt>
      <trkpt lat="43.20234" lon="5.95184">
        <ele>776</ele>
        <time>2026-01-28T11:58:33.000Z</time>
      </trkpt>
      <trkpt lat="43.20226" lon="5.95178">
        <ele>775</ele>
        <time>2026-01-28T11:58:51.000Z</time>
      </trkpt>
      <trkpt lat="43.2022" lon="5.9517">
        <ele>773</ele>
        <time>2026-01-28T11:59:03.000Z</time>
      </trkpt>
      <trkpt lat="43.20213" lon="5.95164">
        <ele>772</ele>
        <time>2026-01-28T11:59:18.000Z</time>
      </trkpt>
      <trkpt lat="43.20204" lon="5.95166">
        <ele>770</ele>
        <time>2026-01-28T11:59:45.000Z</time>
      </trkpt>
      <trkpt lat="43.20195" lon="5.95173">
        <ele>769</ele>
        <time>2026-01-28T12:00:00.000Z</time>
      </trkpt>
      <trkpt lat="43.20188" lon="5.95179">
        <ele>767</ele>
        <time>2026-01-28T12:00:18.000Z</time>
      </trkpt>
      <trkpt lat="43.2018" lon="5.95172">
        <ele>765</ele>
        <time>2026-01-28T12:00:45.000Z</time>
      </trkpt>
      <trkpt lat="43.20173" lon="5.95163">
        <ele>763</ele>
        <time>2026-01-28T12:01:03.000Z</time>
      </trkpt>
      <trkpt lat="43.20166" lon="5.95156">
        <ele>761</ele>
        <time>2026-01-28T12:01:54.000Z</time>
      </trkpt>
      <trkpt lat="43.20158" lon="5.9515">
        <ele>759</ele>
        <time>2026-01-28T12:02:09.000Z</time>
      </trkpt>
      <trkpt lat="43.20148" lon="5.95145">
        <ele>757</ele>
        <time>2026-01-28T12:02:24.000Z</time>
      </trkpt>
      <trkpt lat="43.2014" lon="5.95142">
        <ele>755</ele>
        <time>2026-01-28T12:02:36.000Z</time>
      </trkpt>
      <trkpt lat="43.20133" lon="5.95135">
        <ele>754</ele>
        <time>2026-01-28T12:02:51.000Z</time>
      </trkpt>
      <trkpt lat="43.20124" lon="5.9513">
        <ele>752</ele>
        <time>2026-01-28T12:03:21.000Z</time>
      </trkpt>
      <trkpt lat="43.20116" lon="5.95123">
        <ele>750</ele>
        <time>2026-01-28T12:03:45.000Z</time>
      </trkpt>
      <trkpt lat="43.20109" lon="5.95115">
        <ele>748</ele>
        <time>2026-01-28T12:04:00.000Z</time>
      </trkpt>
      <trkpt lat="43.20102" lon="5.95109">
        <ele>746</ele>
        <time>2026-01-28T12:04:12.000Z</time>
      </trkpt>
      <trkpt lat="43.20093" lon="5.95104">
        <ele>743</ele>
        <time>2026-01-28T12:04:24.000Z</time>
      </trkpt>
      <trkpt lat="43.20085" lon="5.95096">
        <ele>741</ele>
        <time>2026-01-28T12:04:39.000Z</time>
      </trkpt>
      <trkpt lat="43.20078" lon="5.95088">
        <ele>740</ele>
        <time>2026-01-28T12:05:00.000Z</time>
      </trkpt>
      <trkpt lat="43.2007" lon="5.95081">
        <ele>738</ele>
        <time>2026-01-28T12:05:12.000Z</time>
      </trkpt>
      <trkpt lat="43.20062" lon="5.95075">
        <ele>736</ele>
        <time>2026-01-28T12:05:27.000Z</time>
      </trkpt>
      <trkpt lat="43.20053" lon="5.95071">
        <ele>735</ele>
        <time>2026-01-28T12:05:39.000Z</time>
      </trkpt>
      <trkpt lat="43.20045" lon="5.95064">
        <ele>733</ele>
        <time>2026-01-28T12:05:51.000Z</time>
      </trkpt>
      <trkpt lat="43.20038" lon="5.95055">
        <ele>732</ele>
        <time>2026-01-28T12:06:06.000Z</time>
      </trkpt>
      <trkpt lat="43.2003" lon="5.95047">
        <ele>731</ele>
        <time>2026-01-28T12:06:21.000Z</time>
      </trkpt>
      <trkpt lat="43.20022" lon="5.95039">
        <ele>729</ele>
        <time>2026-01-28T12:06:36.000Z</time>
      </trkpt>
      <trkpt lat="43.20015" lon="5.95032">
        <ele>728</ele>
        <time>2026-01-28T12:06:48.000Z</time>
      </trkpt>
      <trkpt lat="43.20007" lon="5.95028">
        <ele>726</ele>
        <time>2026-01-28T12:07:06.000Z</time>
      </trkpt>
      <trkpt lat="43.19997" lon="5.95028">
        <ele>725</ele>
        <time>2026-01-28T12:07:21.000Z</time>
      </trkpt>
      <trkpt lat="43.19988" lon="5.95031">
        <ele>723</ele>
        <time>2026-01-28T12:07:30.000Z</time>
      </trkpt>
      <trkpt lat="43.19976" lon="5.95036">
        <ele>722</ele>
        <time>2026-01-28T12:07:43.000Z</time>
      </trkpt>
      <trkpt lat="43.19966" lon="5.95039">
        <ele>720</ele>
        <time>2026-01-28T12:07:55.000Z</time>
      </trkpt>
      <trkpt lat="43.19957" lon="5.9504">
        <ele>719</ele>
        <time>2026-01-28T12:08:07.000Z</time>
      </trkpt>
      <trkpt lat="43.19948" lon="5.95043">
        <ele>717</ele>
        <time>2026-01-28T12:08:16.000Z</time>
      </trkpt>
      <trkpt lat="43.1994" lon="5.9504">
        <ele>716</ele>
        <time>2026-01-28T12:08:31.000Z</time>
      </trkpt>
      <trkpt lat="43.19936" lon="5.95029">
        <ele>715</ele>
        <time>2026-01-28T12:08:49.000Z</time>
      </trkpt>
      <trkpt lat="43.19931" lon="5.95019">
        <ele>714</ele>
        <time>2026-01-28T12:09:01.000Z</time>
      </trkpt>
      <trkpt lat="43.19924" lon="5.95009">
        <ele>714</ele>
        <time>2026-01-28T12:09:13.000Z</time>
      </trkpt>
      <trkpt lat="43.19919" lon="5.94997">
        <ele>713</ele>
        <time>2026-01-28T12:09:28.000Z</time>
      </trkpt>
      <trkpt lat="43.19911" lon="5.94988">
        <ele>712</ele>
        <time>2026-01-28T12:09:40.000Z</time>
      </trkpt>
      <trkpt lat="43.19902" lon="5.94979">
        <ele>712</ele>
        <time>2026-01-28T12:09:52.000Z</time>
      </trkpt>
      <trkpt lat="43.19894" lon="5.9497">
        <ele>711</ele>
        <time>2026-01-28T12:10:04.000Z</time>
      </trkpt>
      <trkpt lat="43.19891" lon="5.94955">
        <ele>711</ele>
        <time>2026-01-28T12:10:19.000Z</time>
      </trkpt>
      <trkpt lat="43.1989" lon="5.94941">
        <ele>710</ele>
        <time>2026-01-28T12:10:31.000Z</time>
      </trkpt>
      <trkpt lat="43.1989" lon="5.94927">
        <ele>710</ele>
        <time>2026-01-28T12:10:43.000Z</time>
      </trkpt>
      <trkpt lat="43.19889" lon="5.94915">
        <ele>710</ele>
        <time>2026-01-28T12:11:10.000Z</time>
      </trkpt>
      <trkpt lat="43.19891" lon="5.94904">
        <ele>710</ele>
        <time>2026-01-28T12:13:07.000Z</time>
      </trkpt>
      <trkpt lat="43.19892" lon="5.94895">
        <ele>710</ele>
        <time>2026-01-28T12:13:25.000Z</time>
      </trkpt>
      <trkpt lat="43.19892" lon="5.94904">
        <ele>710</ele>
        <time>2026-01-28T12:14:52.000Z</time>
      </trkpt>
      <trkpt lat="43.19888" lon="5.94911">
        <ele>711</ele>
        <time>2026-01-28T12:19:08.000Z</time>
      </trkpt>
      <trkpt lat="43.19892" lon="5.94903">
        <ele>710</ele>
        <time>2026-01-28T12:46:47.000Z</time>
      </trkpt>
      <trkpt lat="43.19893" lon="5.9489">
        <ele>710</ele>
        <time>2026-01-28T12:47:02.000Z</time>
      </trkpt>
      <trkpt lat="43.1989" lon="5.94877">
        <ele>709</ele>
        <time>2026-01-28T12:47:17.000Z</time>
      </trkpt>
      <trkpt lat="43.19883" lon="5.94872">
        <ele>708</ele>
        <time>2026-01-28T12:47:29.000Z</time>
      </trkpt>
      <trkpt lat="43.19873" lon="5.94868">
        <ele>707</ele>
        <time>2026-01-28T12:47:41.000Z</time>
      </trkpt>
      <trkpt lat="43.19863" lon="5.94866">
        <ele>706</ele>
        <time>2026-01-28T12:47:53.000Z</time>
      </trkpt>
      <trkpt lat="43.19854" lon="5.9487">
        <ele>705</ele>
        <time>2026-01-28T12:48:05.000Z</time>
      </trkpt>
      <trkpt lat="43.19846" lon="5.94876">
        <ele>704</ele>
        <time>2026-01-28T12:48:14.000Z</time>
      </trkpt>
      <trkpt lat="43.19838" lon="5.94881">
        <ele>702</ele>
        <time>2026-01-28T12:48:26.000Z</time>
      </trkpt>
      <trkpt lat="43.19829" lon="5.94883">
        <ele>701</ele>
        <time>2026-01-28T12:48:35.000Z</time>
      </trkpt>
      <trkpt lat="43.1982" lon="5.94891">
        <ele>700</ele>
        <time>2026-01-28T12:48:50.000Z</time>
      </trkpt>
      <trkpt lat="43.19812" lon="5.94897">
        <ele>699</ele>
        <time>2026-01-28T12:49:02.000Z</time>
      </trkpt>
      <trkpt lat="43.19803" lon="5.94897">
        <ele>697</ele>
        <time>2026-01-28T12:49:14.000Z</time>
      </trkpt>
      <trkpt lat="43.19793" lon="5.94892">
        <ele>695</ele>
        <time>2026-01-28T12:49:26.000Z</time>
      </trkpt>
      <trkpt lat="43.19784" lon="5.94887">
        <ele>694</ele>
        <time>2026-01-28T12:49:41.000Z</time>
      </trkpt>
      <trkpt lat="43.19774" lon="5.94889">
        <ele>692</ele>
        <time>2026-01-28T12:49:59.000Z</time>
      </trkpt>
      <trkpt lat="43.19766" lon="5.9489">
        <ele>691</ele>
        <time>2026-01-28T12:50:11.000Z</time>
      </trkpt>
      <trkpt lat="43.19762" lon="5.94879">
        <ele>691</ele>
        <time>2026-01-28T12:50:26.000Z</time>
      </trkpt>
      <trkpt lat="43.1976" lon="5.94867">
        <ele>690</ele>
        <time>2026-01-28T12:50:32.000Z</time>
      </trkpt>
      <trkpt lat="43.19761" lon="5.94853">
        <ele>690</ele>
        <time>2026-01-28T12:50:44.000Z</time>
      </trkpt>
      <trkpt lat="43.19761" lon="5.94841">
        <ele>690</ele>
        <time>2026-01-28T12:50:56.000Z</time>
      </trkpt>
      <trkpt lat="43.19761" lon="5.94828">
        <ele>689</ele>
        <time>2026-01-28T12:51:08.000Z</time>
      </trkpt>
      <trkpt lat="43.19759" lon="5.94816">
        <ele>689</ele>
        <time>2026-01-28T12:51:20.000Z</time>
      </trkpt>
      <trkpt lat="43.19755" lon="5.94804">
        <ele>689</ele>
        <time>2026-01-28T12:51:29.000Z</time>
      </trkpt>
      <trkpt lat="43.1975" lon="5.94792">
        <ele>689</ele>
        <time>2026-01-28T12:51:41.000Z</time>
      </trkpt>
      <trkpt lat="43.19741" lon="5.94787">
        <ele>689</ele>
        <time>2026-01-28T12:51:53.000Z</time>
      </trkpt>
      <trkpt lat="43.1973" lon="5.94788">
        <ele>689</ele>
        <time>2026-01-28T12:52:05.000Z</time>
      </trkpt>
      <trkpt lat="43.1972" lon="5.94787">
        <ele>689</ele>
        <time>2026-01-28T12:52:14.000Z</time>
      </trkpt>
      <trkpt lat="43.19715" lon="5.94775">
        <ele>688</ele>
        <time>2026-01-28T12:52:26.000Z</time>
      </trkpt>
      <trkpt lat="43.19713" lon="5.94763">
        <ele>687</ele>
        <time>2026-01-28T12:52:35.000Z</time>
      </trkpt>
      <trkpt lat="43.19713" lon="5.9475">
        <ele>687</ele>
        <time>2026-01-28T12:52:44.000Z</time>
      </trkpt>
      <trkpt lat="43.1971" lon="5.94736">
        <ele>686</ele>
        <time>2026-01-28T12:52:56.000Z</time>
      </trkpt>
      <trkpt lat="43.19706" lon="5.94724">
        <ele>685</ele>
        <time>2026-01-28T12:53:08.000Z</time>
      </trkpt>
      <trkpt lat="43.19703" lon="5.94712">
        <ele>684</ele>
        <time>2026-01-28T12:53:17.000Z</time>
      </trkpt>
      <trkpt lat="43.19702" lon="5.94699">
        <ele>683</ele>
        <time>2026-01-28T12:53:26.000Z</time>
      </trkpt>
      <trkpt lat="43.19698" lon="5.94687">
        <ele>682</ele>
        <time>2026-01-28T12:53:38.000Z</time>
      </trkpt>
      <trkpt lat="43.19694" lon="5.94676">
        <ele>682</ele>
        <time>2026-01-28T12:53:50.000Z</time>
      </trkpt>
      <trkpt lat="43.19694" lon="5.94662">
        <ele>681</ele>
        <time>2026-01-28T12:53:59.000Z</time>
      </trkpt>
      <trkpt lat="43.19693" lon="5.94648">
        <ele>681</ele>
        <time>2026-01-28T12:54:08.000Z</time>
      </trkpt>
      <trkpt lat="43.19687" lon="5.94637">
        <ele>680</ele>
        <time>2026-01-28T12:54:20.000Z</time>
      </trkpt>
      <trkpt lat="43.19677" lon="5.94632">
        <ele>678</ele>
        <time>2026-01-28T12:54:32.000Z</time>
      </trkpt>
      <trkpt lat="43.19669" lon="5.94626">
        <ele>676</ele>
        <time>2026-01-28T12:54:44.000Z</time>
      </trkpt>
      <trkpt lat="43.19661" lon="5.94619">
        <ele>674</ele>
        <time>2026-01-28T12:54:53.000Z</time>
      </trkpt>
      <trkpt lat="43.19651" lon="5.94614">
        <ele>673</ele>
        <time>2026-01-28T12:55:08.000Z</time>
      </trkpt>
      <trkpt lat="43.19641" lon="5.94612">
        <ele>671</ele>
        <time>2026-01-28T12:55:20.000Z</time>
      </trkpt>
      <trkpt lat="43.19632" lon="5.94609">
        <ele>670</ele>
        <time>2026-01-28T12:55:35.000Z</time>
      </trkpt>
      <trkpt lat="43.19624" lon="5.94602">
        <ele>669</ele>
        <time>2026-01-28T12:55:47.000Z</time>
      </trkpt>
      <trkpt lat="43.19621" lon="5.9459">
        <ele>667</ele>
        <time>2026-01-28T12:56:59.000Z</time>
      </trkpt>
      <trkpt lat="43.19618" lon="5.94578">
        <ele>664</ele>
        <time>2026-01-28T12:57:11.000Z</time>
      </trkpt>
      <trkpt lat="43.19617" lon="5.94564">
        <ele>662</ele>
        <time>2026-01-28T12:57:23.000Z</time>
      </trkpt>
      <trkpt lat="43.19618" lon="5.94552">
        <ele>660</ele>
        <time>2026-01-28T12:57:35.000Z</time>
      </trkpt>
      <trkpt lat="43.1962" lon="5.94539">
        <ele>658</ele>
        <time>2026-01-28T12:57:50.000Z</time>
      </trkpt>
      <trkpt lat="43.1962" lon="5.94526">
        <ele>656</ele>
        <time>2026-01-28T12:58:05.000Z</time>
      </trkpt>
      <trkpt lat="43.19621" lon="5.9451">
        <ele>654</ele>
        <time>2026-01-28T12:58:17.000Z</time>
      </trkpt>
      <trkpt lat="43.19621" lon="5.94495">
        <ele>652</ele>
        <time>2026-01-28T12:58:29.000Z</time>
      </trkpt>
      <trkpt lat="43.19621" lon="5.94483">
        <ele>650</ele>
        <time>2026-01-28T12:58:38.000Z</time>
      </trkpt>
      <trkpt lat="43.19619" lon="5.94471">
        <ele>648</ele>
        <time>2026-01-28T12:58:47.000Z</time>
      </trkpt>
      <trkpt lat="43.19617" lon="5.94459">
        <ele>645</ele>
        <time>2026-01-28T12:58:59.000Z</time>
      </trkpt>
      <trkpt lat="43.19618" lon="5.94446">
        <ele>643</ele>
        <time>2026-01-28T12:59:11.000Z</time>
      </trkpt>
      <trkpt lat="43.19616" lon="5.94436">
        <ele>641</ele>
        <time>2026-01-28T12:59:26.000Z</time>
      </trkpt>
      <trkpt lat="43.19608" lon="5.94438">
        <ele>639</ele>
        <time>2026-01-28T12:59:38.000Z</time>
      </trkpt>
      <trkpt lat="43.19599" lon="5.9444">
        <ele>637</ele>
        <time>2026-01-28T12:59:47.000Z</time>
      </trkpt>
      <trkpt lat="43.19591" lon="5.94445">
        <ele>635</ele>
        <time>2026-01-28T12:59:56.000Z</time>
      </trkpt>
      <trkpt lat="43.19582" lon="5.94449">
        <ele>634</ele>
        <time>2026-01-28T13:00:05.000Z</time>
      </trkpt>
      <trkpt lat="43.19572" lon="5.94451">
        <ele>632</ele>
        <time>2026-01-28T13:00:14.000Z</time>
      </trkpt>
      <trkpt lat="43.19562" lon="5.94454">
        <ele>631</ele>
        <time>2026-01-28T13:00:26.000Z</time>
      </trkpt>
      <trkpt lat="43.19552" lon="5.94456">
        <ele>629</ele>
        <time>2026-01-28T13:00:35.000Z</time>
      </trkpt>
      <trkpt lat="43.19542" lon="5.94457">
        <ele>628</ele>
        <time>2026-01-28T13:00:44.000Z</time>
      </trkpt>
      <trkpt lat="43.19532" lon="5.94456">
        <ele>626</ele>
        <time>2026-01-28T13:00:56.000Z</time>
      </trkpt>
      <trkpt lat="43.19522" lon="5.94455">
        <ele>625</ele>
        <time>2026-01-28T13:01:08.000Z</time>
      </trkpt>
      <trkpt lat="43.19512" lon="5.94456">
        <ele>624</ele>
        <time>2026-01-28T13:01:17.000Z</time>
      </trkpt>
      <trkpt lat="43.19501" lon="5.94456">
        <ele>622</ele>
        <time>2026-01-28T13:01:29.000Z</time>
      </trkpt>
      <trkpt lat="43.19492" lon="5.94458">
        <ele>621</ele>
        <time>2026-01-28T13:01:38.000Z</time>
      </trkpt>
      <trkpt lat="43.19484" lon="5.94462">
        <ele>620</ele>
        <time>2026-01-28T13:01:47.000Z</time>
      </trkpt>
      <trkpt lat="43.19474" lon="5.94467">
        <ele>619</ele>
        <time>2026-01-28T13:01:59.000Z</time>
      </trkpt>
      <trkpt lat="43.19465" lon="5.94471">
        <ele>618</ele>
        <time>2026-01-28T13:02:08.000Z</time>
      </trkpt>
      <trkpt lat="43.19456" lon="5.94475">
        <ele>618</ele>
        <time>2026-01-28T13:02:20.000Z</time>
      </trkpt>
      <trkpt lat="43.19447" lon="5.94474">
        <ele>617</ele>
        <time>2026-01-28T13:02:29.000Z</time>
      </trkpt>
      <trkpt lat="43.19439" lon="5.94467">
        <ele>616</ele>
        <time>2026-01-28T13:02:41.000Z</time>
      </trkpt>
      <trkpt lat="43.1943" lon="5.94467">
        <ele>615</ele>
        <time>2026-01-28T13:02:50.000Z</time>
      </trkpt>
      <trkpt lat="43.1942" lon="5.9447">
        <ele>614</ele>
        <time>2026-01-28T13:02:59.000Z</time>
      </trkpt>
      <trkpt lat="43.19411" lon="5.94472">
        <ele>613</ele>
        <time>2026-01-28T13:03:11.000Z</time>
      </trkpt>
      <trkpt lat="43.19402" lon="5.94473">
        <ele>611</ele>
        <time>2026-01-28T13:03:23.000Z</time>
      </trkpt>
      <trkpt lat="43.19393" lon="5.94474">
        <ele>610</ele>
        <time>2026-01-28T13:03:41.000Z</time>
      </trkpt>
      <trkpt lat="43.19384" lon="5.94473">
        <ele>609</ele>
        <time>2026-01-28T13:03:50.000Z</time>
      </trkpt>
      <trkpt lat="43.19375" lon="5.94469">
        <ele>608</ele>
        <time>2026-01-28T13:04:02.000Z</time>
      </trkpt>
      <trkpt lat="43.19366" lon="5.94466">
        <ele>608</ele>
        <time>2026-01-28T13:04:14.000Z</time>
      </trkpt>
      <trkpt lat="43.19357" lon="5.9446">
        <ele>608</ele>
        <time>2026-01-28T13:04:23.000Z</time>
      </trkpt>
      <trkpt lat="43.19351" lon="5.9445">
        <ele>607</ele>
        <time>2026-01-28T13:04:32.000Z</time>
      </trkpt>
      <trkpt lat="43.19347" lon="5.94437">
        <ele>606</ele>
        <time>2026-01-28T13:04:44.000Z</time>
      </trkpt>
      <trkpt lat="43.19343" lon="5.94426">
        <ele>606</ele>
        <time>2026-01-28T13:04:53.000Z</time>
      </trkpt>
      <trkpt lat="43.19338" lon="5.94415">
        <ele>605</ele>
        <time>2026-01-28T13:05:02.000Z</time>
      </trkpt>
      <trkpt lat="43.19332" lon="5.94406">
        <ele>604</ele>
        <time>2026-01-28T13:05:11.000Z</time>
      </trkpt>
      <trkpt lat="43.19326" lon="5.94395">
        <ele>604</ele>
        <time>2026-01-28T13:05:26.000Z</time>
      </trkpt>
      <trkpt lat="43.19326" lon="5.94383">
        <ele>603</ele>
        <time>2026-01-28T13:05:35.000Z</time>
      </trkpt>
      <trkpt lat="43.1933" lon="5.9437">
        <ele>602</ele>
        <time>2026-01-28T13:05:44.000Z</time>
      </trkpt>
      <trkpt lat="43.19334" lon="5.94357">
        <ele>601</ele>
        <time>2026-01-28T13:05:56.000Z</time>
      </trkpt>
      <trkpt lat="43.19336" lon="5.94343">
        <ele>600</ele>
        <time>2026-01-28T13:06:08.000Z</time>
      </trkpt>
      <trkpt lat="43.19335" lon="5.94329">
        <ele>599</ele>
        <time>2026-01-28T13:06:20.000Z</time>
      </trkpt>
      <trkpt lat="43.19336" lon="5.94314">
        <ele>598</ele>
        <time>2026-01-28T13:06:32.000Z</time>
      </trkpt>
      <trkpt lat="43.19339" lon="5.94302">
        <ele>596</ele>
        <time>2026-01-28T13:06:41.000Z</time>
      </trkpt>
      <trkpt lat="43.19345" lon="5.94295">
        <ele>594</ele>
        <time>2026-01-28T13:06:56.000Z</time>
      </trkpt>
      <trkpt lat="43.19345" lon="5.94283">
        <ele>593</ele>
        <time>2026-01-28T13:07:14.000Z</time>
      </trkpt>
      <trkpt lat="43.19346" lon="5.94271">
        <ele>591</ele>
        <time>2026-01-28T13:07:29.000Z</time>
      </trkpt>
      <trkpt lat="43.19344" lon="5.94261">
        <ele>589</ele>
        <time>2026-01-28T13:07:44.000Z</time>
      </trkpt>
      <trkpt lat="43.19336" lon="5.94255">
        <ele>587</ele>
        <time>2026-01-28T13:07:59.000Z</time>
      </trkpt>
      <trkpt lat="43.19328" lon="5.94248">
        <ele>585</ele>
        <time>2026-01-28T13:08:17.000Z</time>
      </trkpt>
      <trkpt lat="43.1932" lon="5.94242">
        <ele>583</ele>
        <time>2026-01-28T13:08:32.000Z</time>
      </trkpt>
      <trkpt lat="43.19311" lon="5.94235">
        <ele>581</ele>
        <time>2026-01-28T13:08:47.000Z</time>
      </trkpt>
      <trkpt lat="43.19302" lon="5.94228">
        <ele>579</ele>
        <time>2026-01-28T13:08:59.000Z</time>
      </trkpt>
      <trkpt lat="43.19295" lon="5.94222">
        <ele>576</ele>
        <time>2026-01-28T13:09:08.000Z</time>
      </trkpt>
      <trkpt lat="43.19286" lon="5.94213">
        <ele>574</ele>
        <time>2026-01-28T13:09:23.000Z</time>
      </trkpt>
      <trkpt lat="43.19277" lon="5.94205">
        <ele>573</ele>
        <time>2026-01-28T13:09:35.000Z</time>
      </trkpt>
      <trkpt lat="43.19268" lon="5.94202">
        <ele>571</ele>
        <time>2026-01-28T13:09:44.000Z</time>
      </trkpt>
      <trkpt lat="43.19259" lon="5.94195">
        <ele>569</ele>
        <time>2026-01-28T13:10:02.000Z</time>
      </trkpt>
      <trkpt lat="43.19253" lon="5.94185">
        <ele>568</ele>
        <time>2026-01-28T13:10:14.000Z</time>
      </trkpt>
      <trkpt lat="43.19246" lon="5.94176">
        <ele>567</ele>
        <time>2026-01-28T13:10:23.000Z</time>
      </trkpt>
      <trkpt lat="43.19237" lon="5.94172">
        <ele>565</ele>
        <time>2026-01-28T13:10:35.000Z</time>
      </trkpt>
      <trkpt lat="43.19227" lon="5.94167">
        <ele>564</ele>
        <time>2026-01-28T13:10:47.000Z</time>
      </trkpt>
      <trkpt lat="43.1922" lon="5.94157">
        <ele>564</ele>
        <time>2026-01-28T13:10:56.000Z</time>
      </trkpt>
      <trkpt lat="43.19216" lon="5.94143">
        <ele>563</ele>
        <time>2026-01-28T13:11:08.000Z</time>
      </trkpt>
      <trkpt lat="43.19207" lon="5.9414">
        <ele>563</ele>
        <time>2026-01-28T13:11:17.000Z</time>
      </trkpt>
      <trkpt lat="43.19198" lon="5.94142">
        <ele>563</ele>
        <time>2026-01-28T13:11:29.000Z</time>
      </trkpt>
      <trkpt lat="43.19189" lon="5.94145">
        <ele>564</ele>
        <time>2026-01-28T13:11:38.000Z</time>
      </trkpt>
      <trkpt lat="43.1918" lon="5.94146">
        <ele>564</ele>
        <time>2026-01-28T13:11:47.000Z</time>
      </trkpt>
      <trkpt lat="43.19169" lon="5.94146">
        <ele>564</ele>
        <time>2026-01-28T13:11:56.000Z</time>
      </trkpt>
      <trkpt lat="43.19159" lon="5.94143">
        <ele>564</ele>
        <time>2026-01-28T13:12:11.000Z</time>
      </trkpt>
      <trkpt lat="43.1915" lon="5.9414">
        <ele>564</ele>
        <time>2026-01-28T13:12:20.000Z</time>
      </trkpt>
      <trkpt lat="43.19141" lon="5.94137">
        <ele>564</ele>
        <time>2026-01-28T13:12:29.000Z</time>
      </trkpt>
      <trkpt lat="43.19132" lon="5.94131">
        <ele>565</ele>
        <time>2026-01-28T13:12:38.000Z</time>
      </trkpt>
      <trkpt lat="43.19127" lon="5.94123">
        <ele>565</ele>
        <time>2026-01-28T13:13:22.000Z</time>
      </trkpt>
      <trkpt lat="43.19133" lon="5.94114">
        <ele>566</ele>
        <time>2026-01-28T13:13:46.000Z</time>
      </trkpt>
      <trkpt lat="43.19142" lon="5.94105">
        <ele>567</ele>
        <time>2026-01-28T13:13:58.000Z</time>
      </trkpt>
      <trkpt lat="43.19151" lon="5.94096">
        <ele>568</ele>
        <time>2026-01-28T13:14:13.000Z</time>
      </trkpt>
      <trkpt lat="43.19158" lon="5.94085">
        <ele>569</ele>
        <time>2026-01-28T13:14:28.000Z</time>
      </trkpt>
      <trkpt lat="43.19165" lon="5.94075">
        <ele>570</ele>
        <time>2026-01-28T13:14:40.000Z</time>
      </trkpt>
      <trkpt lat="43.19172" lon="5.94067">
        <ele>572</ele>
        <time>2026-01-28T13:14:52.000Z</time>
      </trkpt>
      <trkpt lat="43.19183" lon="5.94065">
        <ele>573</ele>
        <time>2026-01-28T13:15:04.000Z</time>
      </trkpt>
      <trkpt lat="43.19192" lon="5.94064">
        <ele>573</ele>
        <time>2026-01-28T13:15:22.000Z</time>
      </trkpt>
      <trkpt lat="43.19197" lon="5.94052">
        <ele>574</ele>
        <time>2026-01-28T13:15:43.000Z</time>
      </trkpt>
      <trkpt lat="43.19199" lon="5.9404">
        <ele>574</ele>
        <time>2026-01-28T13:15:58.000Z</time>
      </trkpt>
      <trkpt lat="43.19203" lon="5.9403">
        <ele>575</ele>
        <time>2026-01-28T13:17:19.000Z</time>
      </trkpt>
      <trkpt lat="43.1921" lon="5.9402">
        <ele>575</ele>
        <time>2026-01-28T13:17:31.000Z</time>
      </trkpt>
      <trkpt lat="43.19216" lon="5.94011">
        <ele>576</ele>
        <time>2026-01-28T13:17:40.000Z</time>
      </trkpt>
      <trkpt lat="43.19221" lon="5.94">
        <ele>576</ele>
        <time>2026-01-28T13:17:49.000Z</time>
      </trkpt>
      <trkpt lat="43.19227" lon="5.93992">
        <ele>577</ele>
        <time>2026-01-28T13:17:58.000Z</time>
      </trkpt>
      <trkpt lat="43.19234" lon="5.93984">
        <ele>577</ele>
        <time>2026-01-28T13:18:07.000Z</time>
      </trkpt>
      <trkpt lat="43.19242" lon="5.93971">
        <ele>578</ele>
        <time>2026-01-28T13:18:19.000Z</time>
      </trkpt>
      <trkpt lat="43.1925" lon="5.9396">
        <ele>579</ele>
        <time>2026-01-28T13:18:28.000Z</time>
      </trkpt>
      <trkpt lat="43.19256" lon="5.9395">
        <ele>580</ele>
        <time>2026-01-28T13:18:37.000Z</time>
      </trkpt>
      <trkpt lat="43.19262" lon="5.93938">
        <ele>581</ele>
        <time>2026-01-28T13:18:49.000Z</time>
      </trkpt>
      <trkpt lat="43.19267" lon="5.93927">
        <ele>582</ele>
        <time>2026-01-28T13:19:01.000Z</time>
      </trkpt>
      <trkpt lat="43.19271" lon="5.93915">
        <ele>583</ele>
        <time>2026-01-28T13:19:10.000Z</time>
      </trkpt>
      <trkpt lat="43.19277" lon="5.93905">
        <ele>584</ele>
        <time>2026-01-28T13:19:19.000Z</time>
      </trkpt>
      <trkpt lat="43.19284" lon="5.93893">
        <ele>585</ele>
        <time>2026-01-28T13:19:28.000Z</time>
      </trkpt>
      <trkpt lat="43.19286" lon="5.9388">
        <ele>585</ele>
        <time>2026-01-28T13:19:40.000Z</time>
      </trkpt>
      <trkpt lat="43.1929" lon="5.93869">
        <ele>586</ele>
        <time>2026-01-28T13:19:49.000Z</time>
      </trkpt>
      <trkpt lat="43.19298" lon="5.9386">
        <ele>587</ele>
        <time>2026-01-28T13:19:58.000Z</time>
      </trkpt>
      <trkpt lat="43.19308" lon="5.93857">
        <ele>588</ele>
        <time>2026-01-28T13:20:46.000Z</time>
      </trkpt>
      <trkpt lat="43.19317" lon="5.93861">
        <ele>589</ele>
        <time>2026-01-28T13:20:58.000Z</time>
      </trkpt>
      <trkpt lat="43.19328" lon="5.93863">
        <ele>590</ele>
        <time>2026-01-28T13:21:13.000Z</time>
      </trkpt>
      <trkpt lat="43.19337" lon="5.93866">
        <ele>591</ele>
        <time>2026-01-28T13:21:22.000Z</time>
      </trkpt>
      <trkpt lat="43.19347" lon="5.93871">
        <ele>593</ele>
        <time>2026-01-28T13:21:34.000Z</time>
      </trkpt>
      <trkpt lat="43.19357" lon="5.93875">
        <ele>594</ele>
        <time>2026-01-28T13:21:43.000Z</time>
      </trkpt>
      <trkpt lat="43.19366" lon="5.93878">
        <ele>596</ele>
        <time>2026-01-28T13:21:55.000Z</time>
      </trkpt>
      <trkpt lat="43.19376" lon="5.93879">
        <ele>598</ele>
        <time>2026-01-28T13:22:10.000Z</time>
      </trkpt>
      <trkpt lat="43.19384" lon="5.93878">
        <ele>600</ele>
        <time>2026-01-28T13:25:43.000Z</time>
      </trkpt>
      <trkpt lat="43.19394" lon="5.93876">
        <ele>602</ele>
        <time>2026-01-28T13:25:58.000Z</time>
      </trkpt>
      <trkpt lat="43.19403" lon="5.93869">
        <ele>604</ele>
        <time>2026-01-28T13:26:10.000Z</time>
      </trkpt>
      <trkpt lat="43.19411" lon="5.93861">
        <ele>605</ele>
        <time>2026-01-28T13:26:22.000Z</time>
      </trkpt>
      <trkpt lat="43.1942" lon="5.93854">
        <ele>606</ele>
        <time>2026-01-28T13:26:34.000Z</time>
      </trkpt>
      <trkpt lat="43.19427" lon="5.93847">
        <ele>608</ele>
        <time>2026-01-28T13:26:43.000Z</time>
      </trkpt>
      <trkpt lat="43.19435" lon="5.93835">
        <ele>609</ele>
        <time>2026-01-28T13:26:55.000Z</time>
      </trkpt>
      <trkpt lat="43.1944" lon="5.93823">
        <ele>610</ele>
        <time>2026-01-28T13:27:07.000Z</time>
      </trkpt>
      <trkpt lat="43.19444" lon="5.93813">
        <ele>611</ele>
        <time>2026-01-28T13:27:16.000Z</time>
      </trkpt>
      <trkpt lat="43.19453" lon="5.93809">
        <ele>612</ele>
        <time>2026-01-28T13:27:25.000Z</time>
      </trkpt>
      <trkpt lat="43.19462" lon="5.9381">
        <ele>614</ele>
        <time>2026-01-28T13:27:37.000Z</time>
      </trkpt>
      <trkpt lat="43.19473" lon="5.93809">
        <ele>615</ele>
        <time>2026-01-28T13:27:49.000Z</time>
      </trkpt>
      <trkpt lat="43.19483" lon="5.93808">
        <ele>617</ele>
        <time>2026-01-28T13:28:01.000Z</time>
      </trkpt>
      <trkpt lat="43.19494" lon="5.93809">
        <ele>619</ele>
        <time>2026-01-28T13:28:13.000Z</time>
      </trkpt>
      <trkpt lat="43.19505" lon="5.9381">
        <ele>620</ele>
        <time>2026-01-28T13:28:22.000Z</time>
      </trkpt>
      <trkpt lat="43.19516" lon="5.93811">
        <ele>622</ele>
        <time>2026-01-28T13:28:34.000Z</time>
      </trkpt>
      <trkpt lat="43.19527" lon="5.9381">
        <ele>623</ele>
        <time>2026-01-28T13:28:52.000Z</time>
      </trkpt>
      <trkpt lat="43.19536" lon="5.93807">
        <ele>625</ele>
        <time>2026-01-28T13:29:04.000Z</time>
      </trkpt>
      <trkpt lat="43.19546" lon="5.93805">
        <ele>626</ele>
        <time>2026-01-28T13:29:19.000Z</time>
      </trkpt>
      <trkpt lat="43.19555" lon="5.93803">
        <ele>628</ele>
        <time>2026-01-28T13:29:28.000Z</time>
      </trkpt>
      <trkpt lat="43.19565" lon="5.93803">
        <ele>630</ele>
        <time>2026-01-28T13:29:40.000Z</time>
      </trkpt>
      <trkpt lat="43.19574" lon="5.93807">
        <ele>631</ele>
        <time>2026-01-28T13:29:49.000Z</time>
      </trkpt>
      <trkpt lat="43.19583" lon="5.9381">
        <ele>633</ele>
        <time>2026-01-28T13:30:01.000Z</time>
      </trkpt>
      <trkpt lat="43.19592" lon="5.93811">
        <ele>634</ele>
        <time>2026-01-28T13:30:13.000Z</time>
      </trkpt>
      <trkpt lat="43.19602" lon="5.93806">
        <ele>636</ele>
        <time>2026-01-28T13:30:28.000Z</time>
      </trkpt>
      <trkpt lat="43.19611" lon="5.93803">
        <ele>637</ele>
        <time>2026-01-28T13:30:40.000Z</time>
      </trkpt>
      <trkpt lat="43.1962" lon="5.93803">
        <ele>639</ele>
        <time>2026-01-28T13:30:49.000Z</time>
      </trkpt>
      <trkpt lat="43.19629" lon="5.93802">
        <ele>641</ele>
        <time>2026-01-28T13:31:01.000Z</time>
      </trkpt>
      <trkpt lat="43.19638" lon="5.93802">
        <ele>642</ele>
        <time>2026-01-28T13:31:13.000Z</time>
      </trkpt>
      <trkpt lat="43.19649" lon="5.93799">
        <ele>644</ele>
        <time>2026-01-28T13:31:28.000Z</time>
      </trkpt>
      <trkpt lat="43.19658" lon="5.93794">
        <ele>646</ele>
        <time>2026-01-28T13:31:37.000Z</time>
      </trkpt>
      <trkpt lat="43.19667" lon="5.9379">
        <ele>648</ele>
        <time>2026-01-28T13:31:46.000Z</time>
      </trkpt>
      <trkpt lat="43.19675" lon="5.93788">
        <ele>650</ele>
        <time>2026-01-28T13:32:01.000Z</time>
      </trkpt>
      <trkpt lat="43.19684" lon="5.93793">
        <ele>652</ele>
        <time>2026-01-28T13:32:13.000Z</time>
      </trkpt>
      <trkpt lat="43.19693" lon="5.938">
        <ele>654</ele>
        <time>2026-01-28T13:32:25.000Z</time>
      </trkpt>
      <trkpt lat="43.19702" lon="5.93804">
        <ele>656</ele>
        <time>2026-01-28T13:32:34.000Z</time>
      </trkpt>
      <trkpt lat="43.19712" lon="5.93804">
        <ele>657</ele>
        <time>2026-01-28T13:32:46.000Z</time>
      </trkpt>
      <trkpt lat="43.19721" lon="5.93803">
        <ele>658</ele>
        <time>2026-01-28T13:33:22.000Z</time>
      </trkpt>
      <trkpt lat="43.1973" lon="5.93802">
        <ele>659</ele>
        <time>2026-01-28T13:35:10.000Z</time>
      </trkpt>
      <trkpt lat="43.19738" lon="5.93804">
        <ele>659</ele>
        <time>2026-01-28T13:35:19.000Z</time>
      </trkpt>
      <trkpt lat="43.19748" lon="5.93809">
        <ele>660</ele>
        <time>2026-01-28T13:35:31.000Z</time>
      </trkpt>
      <trkpt lat="43.19755" lon="5.93817">
        <ele>661</ele>
        <time>2026-01-28T13:35:40.000Z</time>
      </trkpt>
      <trkpt lat="43.1976" lon="5.93826">
        <ele>663</ele>
        <time>2026-01-28T13:35:49.000Z</time>
      </trkpt>
      <trkpt lat="43.19764" lon="5.93837">
        <ele>664</ele>
        <time>2026-01-28T13:35:58.000Z</time>
      </trkpt>
      <trkpt lat="43.19769" lon="5.93848">
        <ele>666</ele>
        <time>2026-01-28T13:36:10.000Z</time>
      </trkpt>
      <trkpt lat="43.19776" lon="5.93857">
        <ele>668</ele>
        <time>2026-01-28T13:36:22.000Z</time>
      </trkpt>
      <trkpt lat="43.19785" lon="5.93864">
        <ele>670</ele>
        <time>2026-01-28T13:36:34.000Z</time>
      </trkpt>
      <trkpt lat="43.19793" lon="5.93872">
        <ele>672</ele>
        <time>2026-01-28T13:36:46.000Z</time>
      </trkpt>
      <trkpt lat="43.19801" lon="5.93878">
        <ele>674</ele>
        <time>2026-01-28T13:37:04.000Z</time>
      </trkpt>
      <trkpt lat="43.19811" lon="5.93881">
        <ele>676</ele>
        <time>2026-01-28T13:39:25.000Z</time>
      </trkpt>
      <trkpt lat="43.19821" lon="5.93882">
        <ele>678</ele>
        <time>2026-01-28T13:39:40.000Z</time>
      </trkpt>
      <trkpt lat="43.19831" lon="5.93884">
        <ele>679</ele>
        <time>2026-01-28T13:39:55.000Z</time>
      </trkpt>
      <trkpt lat="43.19842" lon="5.93888">
        <ele>681</ele>
        <time>2026-01-28T13:40:10.000Z</time>
      </trkpt>
      <trkpt lat="43.1985" lon="5.93894">
        <ele>683</ele>
        <time>2026-01-28T13:40:19.000Z</time>
      </trkpt>
      <trkpt lat="43.19859" lon="5.93897">
        <ele>685</ele>
        <time>2026-01-28T13:40:31.000Z</time>
      </trkpt>
      <trkpt lat="43.19868" lon="5.93902">
        <ele>686</ele>
        <time>2026-01-28T13:40:43.000Z</time>
      </trkpt>
      <trkpt lat="43.19875" lon="5.93912">
        <ele>688</ele>
        <time>2026-01-28T13:40:58.000Z</time>
      </trkpt>
      <trkpt lat="43.19884" lon="5.93919">
        <ele>689</ele>
        <time>2026-01-28T13:41:16.000Z</time>
      </trkpt>
      <trkpt lat="43.19889" lon="5.9393">
        <ele>691</ele>
        <time>2026-01-28T13:41:34.000Z</time>
      </trkpt>
      <trkpt lat="43.19893" lon="5.93942">
        <ele>693</ele>
        <time>2026-01-28T13:41:49.000Z</time>
      </trkpt>
      <trkpt lat="43.19896" lon="5.93956">
        <ele>695</ele>
        <time>2026-01-28T13:42:04.000Z</time>
      </trkpt>
      <trkpt lat="43.19899" lon="5.93969">
        <ele>696</ele>
        <time>2026-01-28T13:42:19.000Z</time>
      </trkpt>
      <trkpt lat="43.19901" lon="5.93981">
        <ele>698</ele>
        <time>2026-01-28T13:42:28.000Z</time>
      </trkpt>
      <trkpt lat="43.19904" lon="5.93995">
        <ele>700</ele>
        <time>2026-01-28T13:42:40.000Z</time>
      </trkpt>
      <trkpt lat="43.19909" lon="5.94006">
        <ele>701</ele>
        <time>2026-01-28T13:42:52.000Z</time>
      </trkpt>
      <trkpt lat="43.19917" lon="5.94006">
        <ele>702</ele>
        <time>2026-01-28T13:43:04.000Z</time>
      </trkpt>
      <trkpt lat="43.19923" lon="5.93996">
        <ele>704</ele>
        <time>2026-01-28T13:43:16.000Z</time>
      </trkpt>
      <trkpt lat="43.19928" lon="5.93984">
        <ele>705</ele>
        <time>2026-01-28T13:46:50.000Z</time>
      </trkpt>
      <trkpt lat="43.19932" lon="5.93973">
        <ele>705</ele>
        <time>2026-01-28T13:46:59.000Z</time>
      </trkpt>
      <trkpt lat="43.19937" lon="5.93961">
        <ele>706</ele>
        <time>2026-01-28T13:47:11.000Z</time>
      </trkpt>
      <trkpt lat="43.19942" lon="5.93948">
        <ele>707</ele>
        <time>2026-01-28T13:47:20.000Z</time>
      </trkpt>
      <trkpt lat="43.19945" lon="5.93934">
        <ele>708</ele>
        <time>2026-01-28T13:47:32.000Z</time>
      </trkpt>
      <trkpt lat="43.19951" lon="5.9392">
        <ele>708</ele>
        <time>2026-01-28T13:47:41.000Z</time>
      </trkpt>
      <trkpt lat="43.19956" lon="5.93908">
        <ele>709</ele>
        <time>2026-01-28T13:47:50.000Z</time>
      </trkpt>
      <trkpt lat="43.19962" lon="5.93895">
        <ele>709</ele>
        <time>2026-01-28T13:48:02.000Z</time>
      </trkpt>
      <trkpt lat="43.19967" lon="5.93883">
        <ele>709</ele>
        <time>2026-01-28T13:48:11.000Z</time>
      </trkpt>
      <trkpt lat="43.19971" lon="5.93871">
        <ele>709</ele>
        <time>2026-01-28T13:48:20.000Z</time>
      </trkpt>
      <trkpt lat="43.19976" lon="5.93859">
        <ele>709</ele>
        <time>2026-01-28T13:48:29.000Z</time>
      </trkpt>
      <trkpt lat="43.19982" lon="5.93847">
        <ele>710</ele>
        <time>2026-01-28T13:48:38.000Z</time>
      </trkpt>
      <trkpt lat="43.19987" lon="5.93836">
        <ele>710</ele>
        <time>2026-01-28T13:48:47.000Z</time>
      </trkpt>
      <trkpt lat="43.19994" lon="5.93826">
        <ele>710</ele>
        <time>2026-01-28T13:48:56.000Z</time>
      </trkpt>
      <trkpt lat="43.2" lon="5.93816">
        <ele>711</ele>
        <time>2026-01-28T13:49:05.000Z</time>
      </trkpt>
      <trkpt lat="43.20007" lon="5.93805">
        <ele>711</ele>
        <time>2026-01-28T13:49:14.000Z</time>
      </trkpt>
      <trkpt lat="43.20014" lon="5.93797">
        <ele>711</ele>
        <time>2026-01-28T13:49:23.000Z</time>
      </trkpt>
      <trkpt lat="43.20014" lon="5.93785">
        <ele>711</ele>
        <time>2026-01-28T13:50:08.000Z</time>
      </trkpt>
      <trkpt lat="43.2001" lon="5.93773">
        <ele>711</ele>
        <time>2026-01-28T13:50:20.000Z</time>
      </trkpt>
      <trkpt lat="43.20009" lon="5.93763">
        <ele>711</ele>
        <time>2026-01-28T13:50:35.000Z</time>
      </trkpt>
      <trkpt lat="43.20018" lon="5.93764">
        <ele>712</ele>
        <time>2026-01-28T13:51:50.000Z</time>
      </trkpt>
      <trkpt lat="43.20027" lon="5.93765">
        <ele>712</ele>
        <time>2026-01-28T13:52:38.000Z</time>
      </trkpt>
      <trkpt lat="43.20036" lon="5.93771">
        <ele>712</ele>
        <time>2026-01-28T13:52:53.000Z</time>
      </trkpt>
      <trkpt lat="43.20044" lon="5.93776">
        <ele>713</ele>
        <time>2026-01-28T13:53:08.000Z</time>
      </trkpt>
      <trkpt lat="43.20053" lon="5.93769">
        <ele>712</ele>
        <time>2026-01-28T13:53:26.000Z</time>
      </trkpt>
      <trkpt lat="43.20061" lon="5.9376">
        <ele>713</ele>
        <time>2026-01-28T13:53:38.000Z</time>
      </trkpt>
      <trkpt lat="43.20069" lon="5.9375">
        <ele>713</ele>
        <time>2026-01-28T13:53:47.000Z</time>
      </trkpt>
      <trkpt lat="43.20078" lon="5.93744">
        <ele>713</ele>
        <time>2026-01-28T13:53:59.000Z</time>
      </trkpt>
      <trkpt lat="43.20088" lon="5.93738">
        <ele>714</ele>
        <time>2026-01-28T13:54:11.000Z</time>
      </trkpt>
      <trkpt lat="43.20098" lon="5.9373">
        <ele>714</ele>
        <time>2026-01-28T13:54:23.000Z</time>
      </trkpt>
      <trkpt lat="43.20105" lon="5.93721">
        <ele>714</ele>
        <time>2026-01-28T13:54:32.000Z</time>
      </trkpt>
      <trkpt lat="43.20113" lon="5.93713">
        <ele>714</ele>
        <time>2026-01-28T13:54:41.000Z</time>
      </trkpt>
      <trkpt lat="43.20119" lon="5.93702">
        <ele>714</ele>
        <time>2026-01-28T13:54:56.000Z</time>
      </trkpt>
      <trkpt lat="43.20124" lon="5.93689">
        <ele>715</ele>
        <time>2026-01-28T13:55:08.000Z</time>
      </trkpt>
      <trkpt lat="43.20127" lon="5.93677">
        <ele>715</ele>
        <time>2026-01-28T14:01:41.000Z</time>
      </trkpt>
      <trkpt lat="43.20131" lon="5.93663">
        <ele>715</ele>
        <time>2026-01-28T14:01:53.000Z</time>
      </trkpt>
      <trkpt lat="43.20136" lon="5.93651">
        <ele>715</ele>
        <time>2026-01-28T14:02:02.000Z</time>
      </trkpt>
      <trkpt lat="43.20141" lon="5.9364">
        <ele>715</ele>
        <time>2026-01-28T14:02:11.000Z</time>
      </trkpt>
      <trkpt lat="43.20147" lon="5.93627">
        <ele>715</ele>
        <time>2026-01-28T14:02:20.000Z</time>
      </trkpt>
      <trkpt lat="43.20154" lon="5.93617">
        <ele>714</ele>
        <time>2026-01-28T14:02:29.000Z</time>
      </trkpt>
      <trkpt lat="43.20161" lon="5.93606">
        <ele>714</ele>
        <time>2026-01-28T14:02:38.000Z</time>
      </trkpt>
      <trkpt lat="43.20167" lon="5.93594">
        <ele>713</ele>
        <time>2026-01-28T14:02:47.000Z</time>
      </trkpt>
      <trkpt lat="43.20172" lon="5.93582">
        <ele>713</ele>
        <time>2026-01-28T14:02:56.000Z</time>
      </trkpt>
      <trkpt lat="43.20175" lon="5.93569">
        <ele>712</ele>
        <time>2026-01-28T14:03:05.000Z</time>
      </trkpt>
      <trkpt lat="43.20179" lon="5.93557">
        <ele>712</ele>
        <time>2026-01-28T14:03:14.000Z</time>
      </trkpt>
      <trkpt lat="43.20184" lon="5.93542">
        <ele>712</ele>
        <time>2026-01-28T14:03:23.000Z</time>
      </trkpt>
      <trkpt lat="43.20189" lon="5.93531">
        <ele>712</ele>
        <time>2026-01-28T14:03:29.000Z</time>
      </trkpt>
      <trkpt lat="43.20193" lon="5.93518">
        <ele>712</ele>
        <time>2026-01-28T14:03:41.000Z</time>
      </trkpt>
      <trkpt lat="43.20199" lon="5.93504">
        <ele>712</ele>
        <time>2026-01-28T14:03:53.000Z</time>
      </trkpt>
      <trkpt lat="43.20205" lon="5.93494">
        <ele>713</ele>
        <time>2026-01-28T14:04:02.000Z</time>
      </trkpt>
      <trkpt lat="43.20213" lon="5.93487">
        <ele>713</ele>
        <time>2026-01-28T14:04:11.000Z</time>
      </trkpt>
      <trkpt lat="43.2022" lon="5.93476">
        <ele>714</ele>
        <time>2026-01-28T14:04:20.000Z</time>
      </trkpt>
      <trkpt lat="43.20227" lon="5.93465">
        <ele>714</ele>
        <time>2026-01-28T14:04:29.000Z</time>
      </trkpt>
      <trkpt lat="43.20234" lon="5.93453">
        <ele>715</ele>
        <time>2026-01-28T14:04:38.000Z</time>
      </trkpt>
      <trkpt lat="43.20243" lon="5.93446">
        <ele>715</ele>
        <time>2026-01-28T14:04:47.000Z</time>
      </trkpt>
      <trkpt lat="43.2025" lon="5.93436">
        <ele>716</ele>
        <time>2026-01-28T14:04:56.000Z</time>
      </trkpt>
      <trkpt lat="43.20257" lon="5.93425">
        <ele>717</ele>
        <time>2026-01-28T14:05:05.000Z</time>
      </trkpt>
      <trkpt lat="43.20264" lon="5.93415">
        <ele>717</ele>
        <time>2026-01-28T14:05:14.000Z</time>
      </trkpt>
      <trkpt lat="43.20269" lon="5.93405">
        <ele>717</ele>
        <time>2026-01-28T14:07:40.000Z</time>
      </trkpt>
      <trkpt lat="43.20275" lon="5.93396">
        <ele>716</ele>
        <time>2026-01-28T14:07:49.000Z</time>
      </trkpt>
      <trkpt lat="43.20281" lon="5.93384">
        <ele>715</ele>
        <time>2026-01-28T14:07:58.000Z</time>
      </trkpt>
      <trkpt lat="43.20288" lon="5.93376">
        <ele>714</ele>
        <time>2026-01-28T14:08:34.000Z</time>
      </trkpt>
      <trkpt lat="43.2029" lon="5.93365">
        <ele>713</ele>
        <time>2026-01-28T14:09:04.000Z</time>
      </trkpt>
      <trkpt lat="43.20286" lon="5.93354">
        <ele>713</ele>
        <time>2026-01-28T14:09:10.000Z</time>
      </trkpt>
      <trkpt lat="43.20281" lon="5.93341">
        <ele>712</ele>
        <time>2026-01-28T14:09:19.000Z</time>
      </trkpt>
      <trkpt lat="43.20276" lon="5.93328">
        <ele>712</ele>
        <time>2026-01-28T14:09:28.000Z</time>
      </trkpt>
      <trkpt lat="43.20269" lon="5.93316">
        <ele>711</ele>
        <time>2026-01-28T14:09:37.000Z</time>
      </trkpt>
      <trkpt lat="43.20261" lon="5.93306">
        <ele>711</ele>
        <time>2026-01-28T14:09:46.000Z</time>
      </trkpt>
      <trkpt lat="43.20251" lon="5.93296">
        <ele>710</ele>
        <time>2026-01-28T14:09:55.000Z</time>
      </trkpt>
      <trkpt lat="43.20242" lon="5.93287">
        <ele>709</ele>
        <time>2026-01-28T14:10:04.000Z</time>
      </trkpt>
      <trkpt lat="43.20234" lon="5.93277">
        <ele>709</ele>
        <time>2026-01-28T14:10:13.000Z</time>
      </trkpt>
      <trkpt lat="43.20227" lon="5.93265">
        <ele>709</ele>
        <time>2026-01-28T14:10:22.000Z</time>
      </trkpt>
      <trkpt lat="43.20218" lon="5.93254">
        <ele>709</ele>
        <time>2026-01-28T14:10:31.000Z</time>
      </trkpt>
      <trkpt lat="43.20211" lon="5.93242">
        <ele>709</ele>
        <time>2026-01-28T14:10:40.000Z</time>
      </trkpt>
      <trkpt lat="43.20205" lon="5.93232">
        <ele>709</ele>
        <time>2026-01-28T14:10:49.000Z</time>
      </trkpt>
      <trkpt lat="43.20196" lon="5.9323">
        <ele>709</ele>
        <time>2026-01-28T14:10:58.000Z</time>
      </trkpt>
      <trkpt lat="43.20189" lon="5.93224">
        <ele>709</ele>
        <time>2026-01-28T14:11:07.000Z</time>
      </trkpt>
      <trkpt lat="43.20182" lon="5.93216">
        <ele>710</ele>
        <time>2026-01-28T14:11:16.000Z</time>
      </trkpt>
      <trkpt lat="43.20178" lon="5.93208">
        <ele>710</ele>
        <time>2026-01-28T14:11:25.000Z</time>
      </trkpt>
      <trkpt lat="43.20184" lon="5.93203">
        <ele>711</ele>
        <time>2026-01-28T14:17:12.000Z</time>
      </trkpt>
      <trkpt lat="43.20191" lon="5.93209">
        <ele>711</ele>
        <time>2026-01-28T14:17:21.000Z</time>
      </trkpt>
      <trkpt lat="43.20197" lon="5.93219">
        <ele>711</ele>
        <time>2026-01-28T14:17:30.000Z</time>
      </trkpt>
      <trkpt lat="43.20204" lon="5.93229">
        <ele>712</ele>
        <time>2026-01-28T14:17:42.000Z</time>
      </trkpt>
      <trkpt lat="43.20211" lon="5.9324">
        <ele>712</ele>
        <time>2026-01-28T14:17:51.000Z</time>
      </trkpt>
      <trkpt lat="43.20217" lon="5.93251">
        <ele>713</ele>
        <time>2026-01-28T14:18:00.000Z</time>
      </trkpt>
      <trkpt lat="43.20223" lon="5.9326">
        <ele>713</ele>
        <time>2026-01-28T14:18:09.000Z</time>
      </trkpt>
      <trkpt lat="43.2023" lon="5.93272">
        <ele>713</ele>
        <time>2026-01-28T14:18:18.000Z</time>
      </trkpt>
      <trkpt lat="43.20237" lon="5.93282">
        <ele>714</ele>
        <time>2026-01-28T14:18:27.000Z</time>
      </trkpt>
      <trkpt lat="43.20245" lon="5.9329">
        <ele>714</ele>
        <time>2026-01-28T14:18:36.000Z</time>
      </trkpt>
      <trkpt lat="43.20253" lon="5.93298">
        <ele>714</ele>
        <time>2026-01-28T14:18:45.000Z</time>
      </trkpt>
      <trkpt lat="43.20262" lon="5.93306">
        <ele>714</ele>
        <time>2026-01-28T14:18:54.000Z</time>
      </trkpt>
      <trkpt lat="43.20269" lon="5.93316">
        <ele>714</ele>
        <time>2026-01-28T14:19:03.000Z</time>
      </trkpt>
      <trkpt lat="43.20276" lon="5.93327">
        <ele>714</ele>
        <time>2026-01-28T14:19:12.000Z</time>
      </trkpt>
      <trkpt lat="43.20281" lon="5.9334">
        <ele>714</ele>
        <time>2026-01-28T14:19:21.000Z</time>
      </trkpt>
      <trkpt lat="43.20286" lon="5.93352">
        <ele>714</ele>
        <time>2026-01-28T14:19:30.000Z</time>
      </trkpt>
      <trkpt lat="43.20292" lon="5.93363">
        <ele>714</ele>
        <time>2026-01-28T14:19:39.000Z</time>
      </trkpt>
      <trkpt lat="43.203" lon="5.93371">
        <ele>714</ele>
        <time>2026-01-28T14:19:48.000Z</time>
      </trkpt>
      <trkpt lat="43.20306" lon="5.9338">
        <ele>715</ele>
        <time>2026-01-28T14:19:57.000Z</time>
      </trkpt>
      <trkpt lat="43.20314" lon="5.93388">
        <ele>716</ele>
        <time>2026-01-28T14:20:06.000Z</time>
      </trkpt>
      <trkpt lat="43.20324" lon="5.93394">
        <ele>717</ele>
        <time>2026-01-28T14:20:18.000Z</time>
      </trkpt>
      <trkpt lat="43.20335" lon="5.93397">
        <ele>718</ele>
        <time>2026-01-28T14:20:27.000Z</time>
      </trkpt>
      <trkpt lat="43.20345" lon="5.93398">
        <ele>718</ele>
        <time>2026-01-28T14:20:36.000Z</time>
      </trkpt>
      <trkpt lat="43.20354" lon="5.934">
        <ele>719</ele>
        <time>2026-01-28T14:20:45.000Z</time>
      </trkpt>
      <trkpt lat="43.20363" lon="5.93403">
        <ele>719</ele>
        <time>2026-01-28T14:20:57.000Z</time>
      </trkpt>
      <trkpt lat="43.20372" lon="5.93404">
        <ele>720</ele>
        <time>2026-01-28T14:21:06.000Z</time>
      </trkpt>
      <trkpt lat="43.20381" lon="5.93407">
        <ele>720</ele>
        <time>2026-01-28T14:21:15.000Z</time>
      </trkpt>
      <trkpt lat="43.2039" lon="5.93409">
        <ele>721</ele>
        <time>2026-01-28T14:21:24.000Z</time>
      </trkpt>
      <trkpt lat="43.20401" lon="5.9341">
        <ele>722</ele>
        <time>2026-01-28T14:21:33.000Z</time>
      </trkpt>
      <trkpt lat="43.2041" lon="5.93411">
        <ele>723</ele>
        <time>2026-01-28T14:21:42.000Z</time>
      </trkpt>
      <trkpt lat="43.2042" lon="5.9341">
        <ele>724</ele>
        <time>2026-01-28T14:21:51.000Z</time>
      </trkpt>
      <trkpt lat="43.2043" lon="5.93409">
        <ele>724</ele>
        <time>2026-01-28T14:22:03.000Z</time>
      </trkpt>
      <trkpt lat="43.20439" lon="5.93409">
        <ele>725</ele>
        <time>2026-01-28T14:22:12.000Z</time>
      </trkpt>
      <trkpt lat="43.20449" lon="5.93407">
        <ele>726</ele>
        <time>2026-01-28T14:22:21.000Z</time>
      </trkpt>
      <trkpt lat="43.20458" lon="5.93407">
        <ele>727</ele>
        <time>2026-01-28T14:22:30.000Z</time>
      </trkpt>
      <trkpt lat="43.20469" lon="5.93408">
        <ele>728</ele>
        <time>2026-01-28T14:22:42.000Z</time>
      </trkpt>
      <trkpt lat="43.20479" lon="5.93409">
        <ele>729</ele>
        <time>2026-01-28T14:22:51.000Z</time>
      </trkpt>
      <trkpt lat="43.20488" lon="5.93409">
        <ele>730</ele>
        <time>2026-01-28T14:23:00.000Z</time>
      </trkpt>
      <trkpt lat="43.20497" lon="5.93408">
        <ele>730</ele>
        <time>2026-01-28T14:23:09.000Z</time>
      </trkpt>
      <trkpt lat="43.20508" lon="5.93406">
        <ele>731</ele>
        <time>2026-01-28T14:23:21.000Z</time>
      </trkpt>
      <trkpt lat="43.20519" lon="5.93404">
        <ele>731</ele>
        <time>2026-01-28T14:23:30.000Z</time>
      </trkpt>
      <trkpt lat="43.2053" lon="5.93403">
        <ele>731</ele>
        <time>2026-01-28T14:23:39.000Z</time>
      </trkpt>
      <trkpt lat="43.2054" lon="5.93402">
        <ele>731</ele>
        <time>2026-01-28T14:23:48.000Z</time>
      </trkpt>
      <trkpt lat="43.20549" lon="5.93399">
        <ele>731</ele>
        <time>2026-01-28T14:23:57.000Z</time>
      </trkpt>
      <trkpt lat="43.2056" lon="5.93395">
        <ele>731</ele>
        <time>2026-01-28T14:24:06.000Z</time>
      </trkpt>
      <trkpt lat="43.20571" lon="5.9339">
        <ele>731</ele>
        <time>2026-01-28T14:24:15.000Z</time>
      </trkpt>
      <trkpt lat="43.20581" lon="5.93387">
        <ele>731</ele>
        <time>2026-01-28T14:24:24.000Z</time>
      </trkpt>
      <trkpt lat="43.20591" lon="5.93382">
        <ele>731</ele>
        <time>2026-01-28T14:24:33.000Z</time>
      </trkpt>
      <trkpt lat="43.206" lon="5.93377">
        <ele>731</ele>
        <time>2026-01-28T14:24:42.000Z</time>
      </trkpt>
      <trkpt lat="43.20611" lon="5.93371">
        <ele>730</ele>
        <time>2026-01-28T14:24:51.000Z</time>
      </trkpt>
      <trkpt lat="43.20621" lon="5.93365">
        <ele>730</ele>
        <time>2026-01-28T14:25:00.000Z</time>
      </trkpt>
      <trkpt lat="43.2063" lon="5.9336">
        <ele>730</ele>
        <time>2026-01-28T14:25:09.000Z</time>
      </trkpt>
      <trkpt lat="43.20639" lon="5.93353">
        <ele>731</ele>
        <time>2026-01-28T14:25:18.000Z</time>
      </trkpt>
      <trkpt lat="43.20647" lon="5.93343">
        <ele>731</ele>
        <time>2026-01-28T14:25:27.000Z</time>
      </trkpt>
      <trkpt lat="43.20655" lon="5.93335">
        <ele>731</ele>
        <time>2026-01-28T14:25:36.000Z</time>
      </trkpt>
      <trkpt lat="43.20665" lon="5.93331">
        <ele>731</ele>
        <time>2026-01-28T14:25:45.000Z</time>
      </trkpt>
      <trkpt lat="43.20677" lon="5.93328">
        <ele>731</ele>
        <time>2026-01-28T14:25:54.000Z</time>
      </trkpt>
      <trkpt lat="43.20688" lon="5.93322">
        <ele>730</ele>
        <time>2026-01-28T14:26:03.000Z</time>
      </trkpt>
      <trkpt lat="43.20697" lon="5.93312">
        <ele>730</ele>
        <time>2026-01-28T14:26:12.000Z</time>
      </trkpt>
      <trkpt lat="43.20705" lon="5.93301">
        <ele>729</ele>
        <time>2026-01-28T14:26:21.000Z</time>
      </trkpt>
      <trkpt lat="43.20713" lon="5.9329">
        <ele>729</ele>
        <time>2026-01-28T14:26:30.000Z</time>
      </trkpt>
      <trkpt lat="43.20721" lon="5.93279">
        <ele>729</ele>
        <time>2026-01-28T14:26:39.000Z</time>
      </trkpt>
      <trkpt lat="43.2073" lon="5.9327">
        <ele>729</ele>
        <time>2026-01-28T14:26:48.000Z</time>
      </trkpt>
      <trkpt lat="43.20739" lon="5.93261">
        <ele>730</ele>
        <time>2026-01-28T14:26:57.000Z</time>
      </trkpt>
      <trkpt lat="43.20748" lon="5.93252">
        <ele>730</ele>
        <time>2026-01-28T14:27:06.000Z</time>
      </trkpt>
      <trkpt lat="43.20758" lon="5.93244">
        <ele>730</ele>
        <time>2026-01-28T14:27:15.000Z</time>
      </trkpt>
      <trkpt lat="43.20766" lon="5.93235">
        <ele>730</ele>
        <time>2026-01-28T14:27:24.000Z</time>
      </trkpt>
      <trkpt lat="43.20775" lon="5.93225">
        <ele>730</ele>
        <time>2026-01-28T14:27:33.000Z</time>
      </trkpt>
      <trkpt lat="43.20784" lon="5.93216">
        <ele>730</ele>
        <time>2026-01-28T14:27:42.000Z</time>
      </trkpt>
      <trkpt lat="43.20793" lon="5.93208">
        <ele>730</ele>
        <time>2026-01-28T14:27:51.000Z</time>
      </trkpt>
      <trkpt lat="43.208" lon="5.932">
        <ele>730</ele>
        <time>2026-01-28T14:27:57.000Z</time>
      </trkpt>
      <trkpt lat="43.20809" lon="5.93194">
        <ele>730</ele>
        <time>2026-01-28T14:28:06.000Z</time>
      </trkpt>
      <trkpt lat="43.2082" lon="5.93189">
        <ele>730</ele>
        <time>2026-01-28T14:28:15.000Z</time>
      </trkpt>
      <trkpt lat="43.20829" lon="5.93183">
        <ele>730</ele>
        <time>2026-01-28T14:28:24.000Z</time>
      </trkpt>
      <trkpt lat="43.20839" lon="5.93177">
        <ele>730</ele>
        <time>2026-01-28T14:28:33.000Z</time>
      </trkpt>
      <trkpt lat="43.20848" lon="5.93169">
        <ele>730</ele>
        <time>2026-01-28T14:28:42.000Z</time>
      </trkpt>
      <trkpt lat="43.20857" lon="5.93163">
        <ele>730</ele>
        <time>2026-01-28T14:28:51.000Z</time>
      </trkpt>
      <trkpt lat="43.20867" lon="5.93157">
        <ele>730</ele>
        <time>2026-01-28T14:29:00.000Z</time>
      </trkpt>
      <trkpt lat="43.20876" lon="5.9315">
        <ele>729</ele>
        <time>2026-01-28T14:29:09.000Z</time>
      </trkpt>
      <trkpt lat="43.20885" lon="5.93146">
        <ele>729</ele>
        <time>2026-01-28T14:29:18.000Z</time>
      </trkpt>
      <trkpt lat="43.20896" lon="5.93146">
        <ele>729</ele>
        <time>2026-01-28T14:29:27.000Z</time>
      </trkpt>
      <trkpt lat="43.20906" lon="5.93142">
        <ele>728</ele>
        <time>2026-01-28T14:29:36.000Z</time>
      </trkpt>
      <trkpt lat="43.20914" lon="5.93139">
        <ele>727</ele>
        <time>2026-01-28T14:29:45.000Z</time>
      </trkpt>
      <trkpt lat="43.20924" lon="5.93137">
        <ele>727</ele>
        <time>2026-01-28T14:29:57.000Z</time>
      </trkpt>
      <trkpt lat="43.20934" lon="5.93136">
        <ele>727</ele>
        <time>2026-01-28T14:30:09.000Z</time>
      </trkpt>
      <trkpt lat="43.20945" lon="5.93133">
        <ele>727</ele>
        <time>2026-01-28T14:30:18.000Z</time>
      </trkpt>
      <trkpt lat="43.20955" lon="5.93127">
        <ele>727</ele>
        <time>2026-01-28T14:30:30.000Z</time>
      </trkpt>
      <trkpt lat="43.20964" lon="5.93124">
        <ele>727</ele>
        <time>2026-01-28T14:30:39.000Z</time>
      </trkpt>
      <trkpt lat="43.20974" lon="5.93123">
        <ele>727</ele>
        <time>2026-01-28T14:30:51.000Z</time>
      </trkpt>
      <trkpt lat="43.20984" lon="5.93118">
        <ele>727</ele>
        <time>2026-01-28T14:31:00.000Z</time>
      </trkpt>
      <trkpt lat="43.20992" lon="5.93112">
        <ele>727</ele>
        <time>2026-01-28T14:31:09.000Z</time>
      </trkpt>
      <trkpt lat="43.21002" lon="5.93107">
        <ele>726</ele>
        <time>2026-01-28T14:31:18.000Z</time>
      </trkpt>
      <trkpt lat="43.21015" lon="5.93102">
        <ele>725</ele>
        <time>2026-01-28T14:31:27.000Z</time>
      </trkpt>
      <trkpt lat="43.2104" lon="5.93104">
        <ele>723</ele>
        <time>2026-01-28T14:31:57.000Z</time>
      </trkpt>
      <trkpt lat="43.21051" lon="5.93108">
        <ele>721</ele>
        <time>2026-01-28T14:32:06.000Z</time>
      </trkpt>
      <trkpt lat="43.21056" lon="5.93098">
        <ele>719</ele>
        <time>2026-01-28T14:33:12.000Z</time>
      </trkpt>
      <trkpt lat="43.21061" lon="5.93088">
        <ele>718</ele>
        <time>2026-01-28T14:33:21.000Z</time>
      </trkpt>
      <trkpt lat="43.21067" lon="5.93079">
        <ele>716</ele>
        <time>2026-01-28T14:33:30.000Z</time>
      </trkpt>
      <trkpt lat="43.21075" lon="5.93072">
        <ele>715</ele>
        <time>2026-01-28T14:33:45.000Z</time>
      </trkpt>
      <trkpt lat="43.21084" lon="5.93069">
        <ele>714</ele>
        <time>2026-01-28T14:34:03.000Z</time>
      </trkpt>
      <trkpt lat="43.21093" lon="5.93061">
        <ele>714</ele>
        <time>2026-01-28T14:34:15.000Z</time>
      </trkpt>
      <trkpt lat="43.211" lon="5.93052">
        <ele>713</ele>
        <time>2026-01-28T14:34:27.000Z</time>
      </trkpt>
      <trkpt lat="43.21109" lon="5.93042">
        <ele>713</ele>
        <time>2026-01-28T14:34:39.000Z</time>
      </trkpt>
      <trkpt lat="43.21115" lon="5.93031">
        <ele>712</ele>
        <time>2026-01-28T14:34:48.000Z</time>
      </trkpt>
      <trkpt lat="43.21122" lon="5.93022">
        <ele>712</ele>
        <time>2026-01-28T14:34:57.000Z</time>
      </trkpt>
      <trkpt lat="43.21131" lon="5.93014">
        <ele>712</ele>
        <time>2026-01-28T14:35:06.000Z</time>
      </trkpt>
      <trkpt lat="43.21138" lon="5.93005">
        <ele>712</ele>
        <time>2026-01-28T14:35:15.000Z</time>
      </trkpt>
      <trkpt lat="43.21146" lon="5.92996">
        <ele>712</ele>
        <time>2026-01-28T14:35:24.000Z</time>
      </trkpt>
      <trkpt lat="43.21154" lon="5.92987">
        <ele>712</ele>
        <time>2026-01-28T14:35:33.000Z</time>
      </trkpt>
      <trkpt lat="43.21161" lon="5.92979">
        <ele>712</ele>
        <time>2026-01-28T14:35:39.000Z</time>
      </trkpt>
      <trkpt lat="43.21169" lon="5.92969">
        <ele>712</ele>
        <time>2026-01-28T14:35:50.000Z</time>
      </trkpt>
      <trkpt lat="43.21176" lon="5.92958">
        <ele>712</ele>
        <time>2026-01-28T14:35:59.000Z</time>
      </trkpt>
      <trkpt lat="43.21183" lon="5.92947">
        <ele>712</ele>
        <time>2026-01-28T14:36:11.000Z</time>
      </trkpt>
      <trkpt lat="43.21191" lon="5.92937">
        <ele>712</ele>
        <time>2026-01-28T14:36:20.000Z</time>
      </trkpt>
      <trkpt lat="43.21199" lon="5.92927">
        <ele>712</ele>
        <time>2026-01-28T14:36:29.000Z</time>
      </trkpt>
      <trkpt lat="43.21207" lon="5.92916">
        <ele>713</ele>
        <time>2026-01-28T14:36:41.000Z</time>
      </trkpt>
      <trkpt lat="43.21213" lon="5.92907">
        <ele>713</ele>
        <time>2026-01-28T14:36:47.000Z</time>
      </trkpt>
      <trkpt lat="43.21222" lon="5.92898">
        <ele>713</ele>
        <time>2026-01-28T14:36:56.000Z</time>
      </trkpt>
      <trkpt lat="43.21229" lon="5.92888">
        <ele>713</ele>
        <time>2026-01-28T14:37:05.000Z</time>
      </trkpt>
      <trkpt lat="43.21234" lon="5.92877">
        <ele>713</ele>
        <time>2026-01-28T14:37:14.000Z</time>
      </trkpt>
      <trkpt lat="43.21239" lon="5.92866">
        <ele>713</ele>
        <time>2026-01-28T14:37:23.000Z</time>
      </trkpt>
      <trkpt lat="43.21247" lon="5.92855">
        <ele>713</ele>
        <time>2026-01-28T14:37:32.000Z</time>
      </trkpt>
      <trkpt lat="43.21254" lon="5.92845">
        <ele>714</ele>
        <time>2026-01-28T14:37:41.000Z</time>
      </trkpt>
      <trkpt lat="43.21261" lon="5.92835">
        <ele>715</ele>
        <time>2026-01-28T14:37:50.000Z</time>
      </trkpt>
      <trkpt lat="43.21267" lon="5.92823">
        <ele>715</ele>
        <time>2026-01-28T14:38:02.000Z</time>
      </trkpt>
      <trkpt lat="43.21271" lon="5.92809">
        <ele>715</ele>
        <time>2026-01-28T14:38:11.000Z</time>
      </trkpt>
      <trkpt lat="43.21275" lon="5.92797">
        <ele>715</ele>
        <time>2026-01-28T14:38:20.000Z</time>
      </trkpt>
      <trkpt lat="43.21278" lon="5.92785">
        <ele>715</ele>
        <time>2026-01-28T14:38:32.000Z</time>
      </trkpt>
      <trkpt lat="43.21281" lon="5.92773">
        <ele>715</ele>
        <time>2026-01-28T14:38:41.000Z</time>
      </trkpt>
      <trkpt lat="43.21284" lon="5.92761">
        <ele>716</ele>
        <time>2026-01-28T14:38:47.000Z</time>
      </trkpt>
      <trkpt lat="43.21288" lon="5.92748">
        <ele>716</ele>
        <time>2026-01-28T14:38:56.000Z</time>
      </trkpt>
      <trkpt lat="43.2129" lon="5.92736">
        <ele>717</ele>
        <time>2026-01-28T14:39:05.000Z</time>
      </trkpt>
      <trkpt lat="43.21292" lon="5.92724">
        <ele>717</ele>
        <time>2026-01-28T14:39:14.000Z</time>
      </trkpt>
      <trkpt lat="43.21294" lon="5.92711">
        <ele>717</ele>
        <time>2026-01-28T14:39:23.000Z</time>
      </trkpt>
      <trkpt lat="43.21297" lon="5.92696">
        <ele>716</ele>
        <time>2026-01-28T14:39:32.000Z</time>
      </trkpt>
      <trkpt lat="43.213" lon="5.92683">
        <ele>716</ele>
        <time>2026-01-28T14:39:41.000Z</time>
      </trkpt>
      <trkpt lat="43.21305" lon="5.92672">
        <ele>716</ele>
        <time>2026-01-28T14:39:50.000Z</time>
      </trkpt>
      <trkpt lat="43.21311" lon="5.92662">
        <ele>715</ele>
        <time>2026-01-28T14:39:59.000Z</time>
      </trkpt>
      <trkpt lat="43.21317" lon="5.92651">
        <ele>714</ele>
        <time>2026-01-28T14:40:08.000Z</time>
      </trkpt>
      <trkpt lat="43.21323" lon="5.92641">
        <ele>713</ele>
        <time>2026-01-28T14:40:17.000Z</time>
      </trkpt>
      <trkpt lat="43.2133" lon="5.92628">
        <ele>713</ele>
        <time>2026-01-28T14:40:26.000Z</time>
      </trkpt>
      <trkpt lat="43.21334" lon="5.92617">
        <ele>712</ele>
        <time>2026-01-28T14:40:35.000Z</time>
      </trkpt>
      <trkpt lat="43.21336" lon="5.92604">
        <ele>711</ele>
        <time>2026-01-28T14:40:44.000Z</time>
      </trkpt>
      <trkpt lat="43.21339" lon="5.92591">
        <ele>710</ele>
        <time>2026-01-28T14:40:53.000Z</time>
      </trkpt>
      <trkpt lat="43.21344" lon="5.92578">
        <ele>709</ele>
        <time>2026-01-28T14:41:02.000Z</time>
      </trkpt>
      <trkpt lat="43.21348" lon="5.92566">
        <ele>707</ele>
        <time>2026-01-28T14:41:11.000Z</time>
      </trkpt>
      <trkpt lat="43.21355" lon="5.92556">
        <ele>706</ele>
        <time>2026-01-28T14:41:26.000Z</time>
      </trkpt>
      <trkpt lat="43.2136" lon="5.92545">
        <ele>705</ele>
        <time>2026-01-28T14:41:35.000Z</time>
      </trkpt>
      <trkpt lat="43.21367" lon="5.92535">
        <ele>703</ele>
        <time>2026-01-28T14:41:44.000Z</time>
      </trkpt>
      <trkpt lat="43.21375" lon="5.92528">
        <ele>701</ele>
        <time>2026-01-28T14:41:53.000Z</time>
      </trkpt>
      <trkpt lat="43.21384" lon="5.92522">
        <ele>700</ele>
        <time>2026-01-28T14:42:08.000Z</time>
      </trkpt>
      <trkpt lat="43.21393" lon="5.92517">
        <ele>699</ele>
        <time>2026-01-28T14:42:20.000Z</time>
      </trkpt>
      <trkpt lat="43.21402" lon="5.92512">
        <ele>698</ele>
        <time>2026-01-28T14:42:29.000Z</time>
      </trkpt>
      <trkpt lat="43.21412" lon="5.92506">
        <ele>698</ele>
        <time>2026-01-28T14:42:41.000Z</time>
      </trkpt>
      <trkpt lat="43.21422" lon="5.92499">
        <ele>698</ele>
        <time>2026-01-28T14:42:50.000Z</time>
      </trkpt>
      <trkpt lat="43.21429" lon="5.9249">
        <ele>697</ele>
        <time>2026-01-28T14:43:02.000Z</time>
      </trkpt>
      <trkpt lat="43.21433" lon="5.92477">
        <ele>696</ele>
        <time>2026-01-28T14:43:11.000Z</time>
      </trkpt>
      <trkpt lat="43.21433" lon="5.92463">
        <ele>694</ele>
        <time>2026-01-28T14:43:23.000Z</time>
      </trkpt>
      <trkpt lat="43.21435" lon="5.92451">
        <ele>692</ele>
        <time>2026-01-28T14:43:32.000Z</time>
      </trkpt>
      <trkpt lat="43.21443" lon="5.92452">
        <ele>690</ele>
        <time>2026-01-28T14:43:44.000Z</time>
      </trkpt>
      <trkpt lat="43.21451" lon="5.92458">
        <ele>689</ele>
        <time>2026-01-28T14:43:53.000Z</time>
      </trkpt>
      <trkpt lat="43.21459" lon="5.92466">
        <ele>688</ele>
        <time>2026-01-28T14:44:02.000Z</time>
      </trkpt>
      <trkpt lat="43.21468" lon="5.92461">
        <ele>688</ele>
        <time>2026-01-28T14:44:17.000Z</time>
      </trkpt>
      <trkpt lat="43.21478" lon="5.92455">
        <ele>688</ele>
        <time>2026-01-28T14:44:29.000Z</time>
      </trkpt>
      <trkpt lat="43.21487" lon="5.9245">
        <ele>688</ele>
        <time>2026-01-28T14:44:41.000Z</time>
      </trkpt>
      <trkpt lat="43.21494" lon="5.9244">
        <ele>689</ele>
        <time>2026-01-28T14:44:50.000Z</time>
      </trkpt>
      <trkpt lat="43.21502" lon="5.92431">
        <ele>689</ele>
        <time>2026-01-28T14:44:59.000Z</time>
      </trkpt>
      <trkpt lat="43.21511" lon="5.92424">
        <ele>688</ele>
        <time>2026-01-28T14:45:59.000Z</time>
      </trkpt>
      <trkpt lat="43.21517" lon="5.92412">
        <ele>688</ele>
        <time>2026-01-28T14:46:11.000Z</time>
      </trkpt>
      <trkpt lat="43.21524" lon="5.92402">
        <ele>687</ele>
        <time>2026-01-28T14:46:23.000Z</time>
      </trkpt>
      <trkpt lat="43.21532" lon="5.92391">
        <ele>687</ele>
        <time>2026-01-28T14:46:35.000Z</time>
      </trkpt>
      <trkpt lat="43.2154" lon="5.92385">
        <ele>687</ele>
        <time>2026-01-28T14:46:44.000Z</time>
      </trkpt>
      <trkpt lat="43.21548" lon="5.92378">
        <ele>687</ele>
        <time>2026-01-28T14:46:54.000Z</time>
      </trkpt>
      <trkpt lat="43.21556" lon="5.92375">
        <ele>687</ele>
        <time>2026-01-28T14:47:03.000Z</time>
      </trkpt>
      <trkpt lat="43.21563" lon="5.92367">
        <ele>687</ele>
        <time>2026-01-28T14:47:12.000Z</time>
      </trkpt>
      <trkpt lat="43.2157" lon="5.92358">
        <ele>687</ele>
        <time>2026-01-28T14:47:21.000Z</time>
      </trkpt>
      <trkpt lat="43.21577" lon="5.92349">
        <ele>686</ele>
        <time>2026-01-28T14:47:30.000Z</time>
      </trkpt>
      <trkpt lat="43.21586" lon="5.92343">
        <ele>686</ele>
        <time>2026-01-28T14:47:39.000Z</time>
      </trkpt>
      <trkpt lat="43.21596" lon="5.92337">
        <ele>686</ele>
        <time>2026-01-28T14:47:48.000Z</time>
      </trkpt>
      <trkpt lat="43.21605" lon="5.92328">
        <ele>686</ele>
        <time>2026-01-28T14:47:57.000Z</time>
      </trkpt>
      <trkpt lat="43.21613" lon="5.92322">
        <ele>686</ele>
        <time>2026-01-28T14:48:06.000Z</time>
      </trkpt>
      <trkpt lat="43.21623" lon="5.92314">
        <ele>686</ele>
        <time>2026-01-28T14:48:15.000Z</time>
      </trkpt>
      <trkpt lat="43.21631" lon="5.92307">
        <ele>686</ele>
        <time>2026-01-28T14:48:24.000Z</time>
      </trkpt>
      <trkpt lat="43.2164" lon="5.92301">
        <ele>686</ele>
        <time>2026-01-28T14:48:33.000Z</time>
      </trkpt>
      <trkpt lat="43.21651" lon="5.923">
        <ele>685</ele>
        <time>2026-01-28T14:48:42.000Z</time>
      </trkpt>
      <trkpt lat="43.21662" lon="5.92302">
        <ele>685</ele>
        <time>2026-01-28T14:48:51.000Z</time>
      </trkpt>
      <trkpt lat="43.2167" lon="5.92308">
        <ele>684</ele>
        <time>2026-01-28T14:49:00.000Z</time>
      </trkpt>
      <trkpt lat="43.21676" lon="5.92317">
        <ele>683</ele>
        <time>2026-01-28T14:49:15.000Z</time>
      </trkpt>
      <trkpt lat="43.2168" lon="5.92328">
        <ele>682</ele>
        <time>2026-01-28T14:49:45.000Z</time>
      </trkpt>
      <trkpt lat="43.21686" lon="5.92339">
        <ele>680</ele>
        <time>2026-01-28T14:50:03.000Z</time>
      </trkpt>
      <trkpt lat="43.2169" lon="5.92351">
        <ele>680</ele>
        <time>2026-01-28T14:50:15.000Z</time>
      </trkpt>
      <trkpt lat="43.21696" lon="5.92363">
        <ele>679</ele>
        <time>2026-01-28T14:50:24.000Z</time>
      </trkpt>
      <trkpt lat="43.21702" lon="5.92376">
        <ele>679</ele>
        <time>2026-01-28T14:50:33.000Z</time>
      </trkpt>
      <trkpt lat="43.21708" lon="5.92387">
        <ele>679</ele>
        <time>2026-01-28T14:50:42.000Z</time>
      </trkpt>
      <trkpt lat="43.21715" lon="5.92396">
        <ele>679</ele>
        <time>2026-01-28T14:50:51.000Z</time>
      </trkpt>
      <trkpt lat="43.21723" lon="5.92406">
        <ele>679</ele>
        <time>2026-01-28T14:51:00.000Z</time>
      </trkpt>
      <trkpt lat="43.21731" lon="5.92416">
        <ele>679</ele>
        <time>2026-01-28T14:51:09.000Z</time>
      </trkpt>
      <trkpt lat="43.21738" lon="5.92427">
        <ele>679</ele>
        <time>2026-01-28T14:51:18.000Z</time>
      </trkpt>
      <trkpt lat="43.21746" lon="5.92438">
        <ele>679</ele>
        <time>2026-01-28T14:51:27.000Z</time>
      </trkpt>
      <trkpt lat="43.21754" lon="5.92448">
        <ele>680</ele>
        <time>2026-01-28T14:51:36.000Z</time>
      </trkpt>
      <trkpt lat="43.21759" lon="5.9246">
        <ele>680</ele>
        <time>2026-01-28T14:51:45.000Z</time>
      </trkpt>
      <trkpt lat="43.21768" lon="5.92471">
        <ele>679</ele>
        <time>2026-01-28T14:51:54.000Z</time>
      </trkpt>
      <trkpt lat="43.21779" lon="5.92477">
        <ele>679</ele>
        <time>2026-01-28T14:52:03.000Z</time>
      </trkpt>
      <trkpt lat="43.21787" lon="5.92484">
        <ele>678</ele>
        <time>2026-01-28T14:52:15.000Z</time>
      </trkpt>
      <trkpt lat="43.21796" lon="5.92487">
        <ele>679</ele>
        <time>2026-01-28T14:52:30.000Z</time>
      </trkpt>
      <trkpt lat="43.21805" lon="5.92482">
        <ele>679</ele>
        <time>2026-01-28T14:52:42.000Z</time>
      </trkpt>
      <trkpt lat="43.21815" lon="5.92482">
        <ele>680</ele>
        <time>2026-01-28T14:52:51.000Z</time>
      </trkpt>
      <trkpt lat="43.21826" lon="5.92485">
        <ele>680</ele>
        <time>2026-01-28T14:52:57.000Z</time>
      </trkpt>
      <trkpt lat="43.21836" lon="5.92489">
        <ele>680</ele>
        <time>2026-01-28T14:53:03.000Z</time>
      </trkpt>
      <trkpt lat="43.21846" lon="5.92494">
        <ele>680</ele>
        <time>2026-01-28T14:53:12.000Z</time>
      </trkpt>
      <trkpt lat="43.21855" lon="5.92499">
        <ele>680</ele>
        <time>2026-01-28T14:53:21.000Z</time>
      </trkpt>
      <trkpt lat="43.21864" lon="5.92503">
        <ele>680</ele>
        <time>2026-01-28T14:53:30.000Z</time>
      </trkpt>
      <trkpt lat="43.21874" lon="5.92507">
        <ele>679</ele>
        <time>2026-01-28T14:53:48.000Z</time>
      </trkpt>
      <trkpt lat="43.21884" lon="5.92509">
        <ele>679</ele>
        <time>2026-01-28T14:53:57.000Z</time>
      </trkpt>
      <trkpt lat="43.21891" lon="5.92515">
        <ele>678</ele>
        <time>2026-01-28T14:54:06.000Z</time>
      </trkpt>
      <trkpt lat="43.21895" lon="5.92525">
        <ele>677</ele>
        <time>2026-01-28T14:54:15.000Z</time>
      </trkpt>
      <trkpt lat="43.21905" lon="5.92529">
        <ele>676</ele>
        <time>2026-01-28T14:54:27.000Z</time>
      </trkpt>
      <trkpt lat="43.21914" lon="5.92528">
        <ele>676</ele>
        <time>2026-01-28T14:54:36.000Z</time>
      </trkpt>
      <trkpt lat="43.21924" lon="5.92528">
        <ele>675</ele>
        <time>2026-01-28T14:54:45.000Z</time>
      </trkpt>
      <trkpt lat="43.21934" lon="5.92532">
        <ele>675</ele>
        <time>2026-01-28T14:54:54.000Z</time>
      </trkpt>
      <trkpt lat="43.21944" lon="5.92535">
        <ele>676</ele>
        <time>2026-01-28T14:55:03.000Z</time>
      </trkpt>
      <trkpt lat="43.21954" lon="5.92538">
        <ele>676</ele>
        <time>2026-01-28T14:55:12.000Z</time>
      </trkpt>
      <trkpt lat="43.21964" lon="5.92541">
        <ele>676</ele>
        <time>2026-01-28T14:55:21.000Z</time>
      </trkpt>
      <trkpt lat="43.21973" lon="5.92542">
        <ele>677</ele>
        <time>2026-01-28T14:55:30.000Z</time>
      </trkpt>
      <trkpt lat="43.21982" lon="5.92541">
        <ele>677</ele>
        <time>2026-01-28T14:55:39.000Z</time>
      </trkpt>
      <trkpt lat="43.21992" lon="5.92541">
        <ele>677</ele>
        <time>2026-01-28T14:55:48.000Z</time>
      </trkpt>
      <trkpt lat="43.22001" lon="5.9254">
        <ele>678</ele>
        <time>2026-01-28T14:56:00.000Z</time>
      </trkpt>
      <trkpt lat="43.2201" lon="5.92542">
        <ele>679</ele>
        <time>2026-01-28T14:56:09.000Z</time>
      </trkpt>
      <trkpt lat="43.22019" lon="5.92536">
        <ele>679</ele>
        <time>2026-01-28T14:56:18.000Z</time>
      </trkpt>
      <trkpt lat="43.22027" lon="5.92531">
        <ele>679</ele>
        <time>2026-01-28T14:56:27.000Z</time>
      </trkpt>
      <trkpt lat="43.22038" lon="5.92532">
        <ele>679</ele>
        <time>2026-01-28T14:56:39.000Z</time>
      </trkpt>
      <trkpt lat="43.22049" lon="5.92539">
        <ele>678</ele>
        <time>2026-01-28T14:56:48.000Z</time>
      </trkpt>
      <trkpt lat="43.22057" lon="5.9255">
        <ele>678</ele>
        <time>2026-01-28T14:57:00.000Z</time>
      </trkpt>
      <trkpt lat="43.22063" lon="5.92559">
        <ele>678</ele>
        <time>2026-01-28T14:57:09.000Z</time>
      </trkpt>
      <trkpt lat="43.22072" lon="5.92561">
        <ele>679</ele>
        <time>2026-01-28T14:57:21.000Z</time>
      </trkpt>
      <trkpt lat="43.2208" lon="5.92555">
        <ele>679</ele>
        <time>2026-01-28T14:57:30.000Z</time>
      </trkpt>
      <trkpt lat="43.22088" lon="5.92544">
        <ele>679</ele>
        <time>2026-01-28T14:57:39.000Z</time>
      </trkpt>
      <trkpt lat="43.22093" lon="5.9253">
        <ele>679</ele>
        <time>2026-01-28T14:57:48.000Z</time>
      </trkpt>
      <trkpt lat="43.22099" lon="5.92517">
        <ele>678</ele>
        <time>2026-01-28T14:57:57.000Z</time>
      </trkpt>
      <trkpt lat="43.22107" lon="5.92509">
        <ele>678</ele>
        <time>2026-01-28T14:58:06.000Z</time>
      </trkpt>
      <trkpt lat="43.22116" lon="5.92501">
        <ele>678</ele>
        <time>2026-01-28T14:58:15.000Z</time>
      </trkpt>
      <trkpt lat="43.22125" lon="5.92492">
        <ele>677</ele>
        <time>2026-01-28T14:58:24.000Z</time>
      </trkpt>
      <trkpt lat="43.22131" lon="5.92482">
        <ele>677</ele>
        <time>2026-01-28T14:58:39.000Z</time>
      </trkpt>
      <trkpt lat="43.22139" lon="5.92473">
        <ele>676</ele>
        <time>2026-01-28T14:58:51.000Z</time>
      </trkpt>
      <trkpt lat="43.2215" lon="5.92469">
        <ele>676</ele>
        <time>2026-01-28T14:59:03.000Z</time>
      </trkpt>
      <trkpt lat="43.2216" lon="5.92466">
        <ele>676</ele>
        <time>2026-01-28T14:59:12.000Z</time>
      </trkpt>
      <trkpt lat="43.22168" lon="5.92461">
        <ele>675</ele>
        <time>2026-01-28T14:59:21.000Z</time>
      </trkpt>
      <trkpt lat="43.22178" lon="5.92456">
        <ele>675</ele>
        <time>2026-01-28T14:59:30.000Z</time>
      </trkpt>
      <trkpt lat="43.22188" lon="5.92452">
        <ele>674</ele>
        <time>2026-01-28T14:59:39.000Z</time>
      </trkpt>
      <trkpt lat="43.22197" lon="5.92446">
        <ele>673</ele>
        <time>2026-01-28T14:59:48.000Z</time>
      </trkpt>
      <trkpt lat="43.22206" lon="5.92437">
        <ele>673</ele>
        <time>2026-01-28T14:59:57.000Z</time>
      </trkpt>
      <trkpt lat="43.22214" lon="5.92427">
        <ele>672</ele>
        <time>2026-01-28T15:00:06.000Z</time>
      </trkpt>
      <trkpt lat="43.22221" lon="5.92419">
        <ele>672</ele>
        <time>2026-01-28T15:00:15.000Z</time>
      </trkpt>
      <trkpt lat="43.22229" lon="5.92412">
        <ele>672</ele>
        <time>2026-01-28T15:00:24.000Z</time>
      </trkpt>
      <trkpt lat="43.22238" lon="5.92408">
        <ele>672</ele>
        <time>2026-01-28T15:00:36.000Z</time>
      </trkpt>
      <trkpt lat="43.22247" lon="5.92406">
        <ele>672</ele>
        <time>2026-01-28T15:00:42.000Z</time>
      </trkpt>
      <trkpt lat="43.22257" lon="5.92401">
        <ele>673</ele>
        <time>2026-01-28T15:00:51.000Z</time>
      </trkpt>
      <trkpt lat="43.22263" lon="5.92392">
        <ele>673</ele>
        <time>2026-01-28T15:01:00.000Z</time>
      </trkpt>
      <trkpt lat="43.22271" lon="5.92382">
        <ele>674</ele>
        <time>2026-01-28T15:01:09.000Z</time>
      </trkpt>
      <trkpt lat="43.2228" lon="5.92373">
        <ele>675</ele>
        <time>2026-01-28T15:01:18.000Z</time>
      </trkpt>
      <trkpt lat="43.22288" lon="5.9236">
        <ele>675</ele>
        <time>2026-01-28T15:01:30.000Z</time>
      </trkpt>
      <trkpt lat="43.22293" lon="5.92345">
        <ele>676</ele>
        <time>2026-01-28T15:01:39.000Z</time>
      </trkpt>
      <trkpt lat="43.22299" lon="5.92335">
        <ele>675</ele>
        <time>2026-01-28T15:01:48.000Z</time>
      </trkpt>
      <trkpt lat="43.22306" lon="5.92323">
        <ele>675</ele>
        <time>2026-01-28T15:01:57.000Z</time>
      </trkpt>
      <trkpt lat="43.22313" lon="5.92313">
        <ele>674</ele>
        <time>2026-01-28T15:02:06.000Z</time>
      </trkpt>
      <trkpt lat="43.22321" lon="5.92302">
        <ele>674</ele>
        <time>2026-01-28T15:02:15.000Z</time>
      </trkpt>
      <trkpt lat="43.22326" lon="5.92291">
        <ele>673</ele>
        <time>2026-01-28T15:02:24.000Z</time>
      </trkpt>
      <trkpt lat="43.22333" lon="5.92282">
        <ele>673</ele>
        <time>2026-01-28T15:02:33.000Z</time>
      </trkpt>
      <trkpt lat="43.22341" lon="5.92272">
        <ele>672</ele>
        <time>2026-01-28T15:02:42.000Z</time>
      </trkpt>
      <trkpt lat="43.22349" lon="5.92265">
        <ele>672</ele>
        <time>2026-01-28T15:02:51.000Z</time>
      </trkpt>
      <trkpt lat="43.22358" lon="5.92259">
        <ele>671</ele>
        <time>2026-01-28T15:03:06.000Z</time>
      </trkpt>
      <trkpt lat="43.22366" lon="5.92256">
        <ele>671</ele>
        <time>2026-01-28T15:03:18.000Z</time>
      </trkpt>
      <trkpt lat="43.22375" lon="5.92248">
        <ele>672</ele>
        <time>2026-01-28T15:03:27.000Z</time>
      </trkpt>
      <trkpt lat="43.22382" lon="5.92239">
        <ele>672</ele>
        <time>2026-01-28T15:03:36.000Z</time>
      </trkpt>
      <trkpt lat="43.22388" lon="5.92229">
        <ele>673</ele>
        <time>2026-01-28T15:03:45.000Z</time>
      </trkpt>
      <trkpt lat="43.22396" lon="5.92223">
        <ele>674</ele>
        <time>2026-01-28T15:03:51.000Z</time>
      </trkpt>
      <trkpt lat="43.22405" lon="5.92218">
        <ele>674</ele>
        <time>2026-01-28T15:04:00.000Z</time>
      </trkpt>
      <trkpt lat="43.22413" lon="5.92213">
        <ele>674</ele>
        <time>2026-01-28T15:04:12.000Z</time>
      </trkpt>
      <trkpt lat="43.22421" lon="5.92206">
        <ele>674</ele>
        <time>2026-01-28T15:05:00.000Z</time>
      </trkpt>
      <trkpt lat="43.22429" lon="5.92202">
        <ele>674</ele>
        <time>2026-01-28T15:05:18.000Z</time>
      </trkpt>
      <trkpt lat="43.22439" lon="5.922">
        <ele>673</ele>
        <time>2026-01-28T15:05:30.000Z</time>
      </trkpt>
      <trkpt lat="43.22447" lon="5.92198">
        <ele>673</ele>
        <time>2026-01-28T15:05:39.000Z</time>
      </trkpt>
      <trkpt lat="43.22457" lon="5.92192">
        <ele>673</ele>
        <time>2026-01-28T15:05:48.000Z</time>
      </trkpt>
      <trkpt lat="43.22466" lon="5.92188">
        <ele>674</ele>
        <time>2026-01-28T15:05:57.000Z</time>
      </trkpt>
      <trkpt lat="43.22474" lon="5.92179">
        <ele>675</ele>
        <time>2026-01-28T15:06:06.000Z</time>
      </trkpt>
      <trkpt lat="43.22482" lon="5.9217">
        <ele>675</ele>
        <time>2026-01-28T15:06:15.000Z</time>
      </trkpt>
      <trkpt lat="43.22489" lon="5.92158">
        <ele>676</ele>
        <time>2026-01-28T15:06:24.000Z</time>
      </trkpt>
      <trkpt lat="43.22498" lon="5.92149">
        <ele>676</ele>
        <time>2026-01-28T15:06:33.000Z</time>
      </trkpt>
      <trkpt lat="43.22507" lon="5.92144">
        <ele>675</ele>
        <time>2026-01-28T15:06:42.000Z</time>
      </trkpt>
      <trkpt lat="43.22516" lon="5.92139">
        <ele>675</ele>
        <time>2026-01-28T15:06:51.000Z</time>
      </trkpt>
      <trkpt lat="43.22525" lon="5.92132">
        <ele>674</ele>
        <time>2026-01-28T15:06:57.000Z</time>
      </trkpt>
      <trkpt lat="43.22534" lon="5.92124">
        <ele>673</ele>
        <time>2026-01-28T15:07:06.000Z</time>
      </trkpt>
      <trkpt lat="43.22543" lon="5.9212">
        <ele>672</ele>
        <time>2026-01-28T15:07:15.000Z</time>
      </trkpt>
      <trkpt lat="43.22553" lon="5.92118">
        <ele>671</ele>
        <time>2026-01-28T15:07:24.000Z</time>
      </trkpt>
      <trkpt lat="43.22564" lon="5.92117">
        <ele>671</ele>
        <time>2026-01-28T15:07:36.000Z</time>
      </trkpt>
      <trkpt lat="43.22574" lon="5.92114">
        <ele>670</ele>
        <time>2026-01-28T15:07:45.000Z</time>
      </trkpt>
      <trkpt lat="43.22584" lon="5.92113">
        <ele>670</ele>
        <time>2026-01-28T15:07:54.000Z</time>
      </trkpt>
      <trkpt lat="43.22594" lon="5.92115">
        <ele>670</ele>
        <time>2026-01-28T15:08:03.000Z</time>
      </trkpt>
      <trkpt lat="43.22604" lon="5.92115">
        <ele>670</ele>
        <time>2026-01-28T15:08:13.000Z</time>
      </trkpt>
      <trkpt lat="43.22612" lon="5.92113">
        <ele>670</ele>
        <time>2026-01-28T15:08:25.000Z</time>
      </trkpt>
      <trkpt lat="43.22621" lon="5.92115">
        <ele>670</ele>
        <time>2026-01-28T15:09:19.000Z</time>
      </trkpt>
      <trkpt lat="43.2263" lon="5.92117">
        <ele>670</ele>
        <time>2026-01-28T15:09:34.000Z</time>
      </trkpt>
      <trkpt lat="43.22638" lon="5.92114">
        <ele>666</ele>
        <time>2026-01-28T15:09:49.000Z</time>
      </trkpt>
      <trkpt lat="43.22647" lon="5.92105">
        <ele>670</ele>
        <time>2026-01-28T15:09:58.000Z</time>
      </trkpt>
      <trkpt lat="43.22654" lon="5.92095">
        <ele>674</ele>
        <time>2026-01-28T15:10:07.000Z</time>
      </trkpt>
    </trkseg>
  </trk>
</gpx>